<?xml version="1.0" encoding="UTF-8" standalone="no" ?>
<gpx xmlns="http://www.topografix.com/GPX/1/1" xmlns:xsi="http://www.w3.org/2001/XMLSchema-instance" xsi:schemaLocation="http://www.topografix.com/GPX/1/1 http://www.topografix.com/GPX/1/1/gpx.xsd" version="1.1" creator="VisuGPX - https://www.visugpx.com">
  <metadata>
    <name>st nicolas  pontivy  halage</name>
    <desc><![CDATA[chemin de halage]]></desc>
  </metadata>
  <trk>
    <name><![CDATA[Sequence 1]]></name>
    <trkseg>
      <trkpt lat="47.98295" lon="-3.06294">
        <ele>96</ele>
        <time>2016-05-16T14:10:16Z</time>
      </trkpt>
      <trkpt lat="47.98293" lon="-3.06294">
        <ele>96</ele>
        <time>2016-05-16T14:10:21Z</time>
      </trkpt>
      <trkpt lat="47.98293" lon="-3.06294">
        <ele>96</ele>
        <time>2016-05-16T14:10:26Z</time>
      </trkpt>
      <trkpt lat="47.98293" lon="-3.06288">
        <ele>97</ele>
        <time>2016-05-16T14:10:35Z</time>
      </trkpt>
      <trkpt lat="47.98292" lon="-3.06288">
        <ele>97</ele>
        <time>2016-05-16T14:10:36Z</time>
      </trkpt>
      <trkpt lat="47.98293" lon="-3.06284">
        <ele>97</ele>
        <time>2016-05-16T14:10:41Z</time>
      </trkpt>
      <trkpt lat="47.98299" lon="-3.06276">
        <ele>96</ele>
        <time>2016-05-16T14:10:47Z</time>
      </trkpt>
      <trkpt lat="47.98306" lon="-3.06272">
        <ele>95</ele>
        <time>2016-05-16T14:10:51Z</time>
      </trkpt>
      <trkpt lat="47.98317" lon="-3.06266">
        <ele>95</ele>
        <time>2016-05-16T14:10:56Z</time>
      </trkpt>
      <trkpt lat="47.98329" lon="-3.06258">
        <ele>95</ele>
        <time>2016-05-16T14:11:01Z</time>
      </trkpt>
      <trkpt lat="47.98347" lon="-3.06248">
        <ele>94</ele>
        <time>2016-05-16T14:11:08Z</time>
      </trkpt>
      <trkpt lat="47.9836" lon="-3.06241">
        <ele>93</ele>
        <time>2016-05-16T14:11:13Z</time>
      </trkpt>
      <trkpt lat="47.98375" lon="-3.06232">
        <ele>94</ele>
        <time>2016-05-16T14:11:18Z</time>
      </trkpt>
      <trkpt lat="47.98384" lon="-3.0623">
        <ele>94</ele>
        <time>2016-05-16T14:11:21Z</time>
      </trkpt>
      <trkpt lat="47.98394" lon="-3.06243">
        <ele>97</ele>
        <time>2016-05-16T14:11:26Z</time>
      </trkpt>
      <trkpt lat="47.98396" lon="-3.06278">
        <ele>97</ele>
        <time>2016-05-16T14:11:34Z</time>
      </trkpt>
      <trkpt lat="47.98396" lon="-3.06287">
        <ele>98</ele>
        <time>2016-05-16T14:11:36Z</time>
      </trkpt>
      <trkpt lat="47.98395" lon="-3.0632">
        <ele>100</ele>
        <time>2016-05-16T14:11:44Z</time>
      </trkpt>
      <trkpt lat="47.98396" lon="-3.06328">
        <ele>101</ele>
        <time>2016-05-16T14:11:46Z</time>
      </trkpt>
      <trkpt lat="47.98398" lon="-3.0635">
        <ele>101</ele>
        <time>2016-05-16T14:11:51Z</time>
      </trkpt>
      <trkpt lat="47.98399" lon="-3.06372">
        <ele>102</ele>
        <time>2016-05-16T14:11:56Z</time>
      </trkpt>
      <trkpt lat="47.98414" lon="-3.06371">
        <ele>102</ele>
        <time>2016-05-16T14:12:02Z</time>
      </trkpt>
      <trkpt lat="47.98429" lon="-3.06363">
        <ele>102</ele>
        <time>2016-05-16T14:12:07Z</time>
      </trkpt>
      <trkpt lat="47.98435" lon="-3.06359">
        <ele>102</ele>
        <time>2016-05-16T14:12:11Z</time>
      </trkpt>
      <trkpt lat="47.98448" lon="-3.06352">
        <ele>103</ele>
        <time>2016-05-16T14:12:16Z</time>
      </trkpt>
      <trkpt lat="47.98466" lon="-3.06344">
        <ele>103</ele>
        <time>2016-05-16T14:12:22Z</time>
      </trkpt>
      <trkpt lat="47.98478" lon="-3.06338">
        <ele>104</ele>
        <time>2016-05-16T14:12:26Z</time>
      </trkpt>
      <trkpt lat="47.98497" lon="-3.0633">
        <ele>105</ele>
        <time>2016-05-16T14:12:31Z</time>
      </trkpt>
      <trkpt lat="47.98525" lon="-3.0632">
        <ele>105</ele>
        <time>2016-05-16T14:12:38Z</time>
      </trkpt>
      <trkpt lat="47.9855" lon="-3.06311">
        <ele>107</ele>
        <time>2016-05-16T14:12:44Z</time>
      </trkpt>
      <trkpt lat="47.98558" lon="-3.06307">
        <ele>107</ele>
        <time>2016-05-16T14:12:46Z</time>
      </trkpt>
      <trkpt lat="47.98576" lon="-3.06289">
        <ele>107</ele>
        <time>2016-05-16T14:12:51Z</time>
      </trkpt>
      <trkpt lat="47.98581" lon="-3.06259">
        <ele>109</ele>
        <time>2016-05-16T14:12:56Z</time>
      </trkpt>
      <trkpt lat="47.98581" lon="-3.06225">
        <ele>110</ele>
        <time>2016-05-16T14:13:01Z</time>
      </trkpt>
      <trkpt lat="47.9858" lon="-3.0617">
        <ele>112</ele>
        <time>2016-05-16T14:13:09Z</time>
      </trkpt>
      <trkpt lat="47.98579" lon="-3.0614">
        <ele>111</ele>
        <time>2016-05-16T14:13:13Z</time>
      </trkpt>
      <trkpt lat="47.98577" lon="-3.06118">
        <ele>112</ele>
        <time>2016-05-16T14:13:16Z</time>
      </trkpt>
      <trkpt lat="47.98573" lon="-3.06077">
        <ele>112</ele>
        <time>2016-05-16T14:13:22Z</time>
      </trkpt>
      <trkpt lat="47.98573" lon="-3.06052">
        <ele>113</ele>
        <time>2016-05-16T14:13:26Z</time>
      </trkpt>
      <trkpt lat="47.98571" lon="-3.0602">
        <ele>114</ele>
        <time>2016-05-16T14:13:31Z</time>
      </trkpt>
      <trkpt lat="47.98568" lon="-3.05978">
        <ele>115</ele>
        <time>2016-05-16T14:13:37Z</time>
      </trkpt>
      <trkpt lat="47.98567" lon="-3.05948">
        <ele>116</ele>
        <time>2016-05-16T14:13:41Z</time>
      </trkpt>
      <trkpt lat="47.98562" lon="-3.05894">
        <ele>118</ele>
        <time>2016-05-16T14:13:49Z</time>
      </trkpt>
      <trkpt lat="47.9856" lon="-3.05873">
        <ele>118</ele>
        <time>2016-05-16T14:13:52Z</time>
      </trkpt>
      <trkpt lat="47.98558" lon="-3.05846">
        <ele>119</ele>
        <time>2016-05-16T14:13:56Z</time>
      </trkpt>
      <trkpt lat="47.98555" lon="-3.05812">
        <ele>120</ele>
        <time>2016-05-16T14:14:01Z</time>
      </trkpt>
      <trkpt lat="47.98551" lon="-3.05778">
        <ele>120</ele>
        <time>2016-05-16T14:14:06Z</time>
      </trkpt>
      <trkpt lat="47.98543" lon="-3.05746">
        <ele>120</ele>
        <time>2016-05-16T14:14:11Z</time>
      </trkpt>
      <trkpt lat="47.98535" lon="-3.05713">
        <ele>121</ele>
        <time>2016-05-16T14:14:16Z</time>
      </trkpt>
      <trkpt lat="47.98523" lon="-3.05667">
        <ele>122</ele>
        <time>2016-05-16T14:14:23Z</time>
      </trkpt>
      <trkpt lat="47.98518" lon="-3.05646">
        <ele>123</ele>
        <time>2016-05-16T14:14:26Z</time>
      </trkpt>
      <trkpt lat="47.98511" lon="-3.05612">
        <ele>123</ele>
        <time>2016-05-16T14:14:31Z</time>
      </trkpt>
      <trkpt lat="47.98505" lon="-3.05577">
        <ele>124</ele>
        <time>2016-05-16T14:14:36Z</time>
      </trkpt>
      <trkpt lat="47.98501" lon="-3.05546">
        <ele>125</ele>
        <time>2016-05-16T14:14:41Z</time>
      </trkpt>
      <trkpt lat="47.98498" lon="-3.05513">
        <ele>126</ele>
        <time>2016-05-16T14:14:46Z</time>
      </trkpt>
      <trkpt lat="47.98496" lon="-3.05479">
        <ele>127</ele>
        <time>2016-05-16T14:14:51Z</time>
      </trkpt>
      <trkpt lat="47.98495" lon="-3.05445">
        <ele>127</ele>
        <time>2016-05-16T14:14:56Z</time>
      </trkpt>
      <trkpt lat="47.98492" lon="-3.05408">
        <ele>127</ele>
        <time>2016-05-16T14:15:01Z</time>
      </trkpt>
      <trkpt lat="47.9849" lon="-3.05358">
        <ele>127</ele>
        <time>2016-05-16T14:15:06Z</time>
      </trkpt>
      <trkpt lat="47.98485" lon="-3.05269">
        <ele>125</ele>
        <time>2016-05-16T14:15:13Z</time>
      </trkpt>
      <trkpt lat="47.98486" lon="-3.05231">
        <ele>124</ele>
        <time>2016-05-16T14:15:16Z</time>
      </trkpt>
      <trkpt lat="47.98488" lon="-3.05144">
        <ele>124</ele>
        <time>2016-05-16T14:15:22Z</time>
      </trkpt>
      <trkpt lat="47.98485" lon="-3.05027">
        <ele>121</ele>
        <time>2016-05-16T14:15:30Z</time>
      </trkpt>
      <trkpt lat="47.98482" lon="-3.05014">
        <ele>120</ele>
        <time>2016-05-16T14:15:31Z</time>
      </trkpt>
      <trkpt lat="47.98466" lon="-3.04942">
        <ele>119</ele>
        <time>2016-05-16T14:15:37Z</time>
      </trkpt>
      <trkpt lat="47.98445" lon="-3.04881">
        <ele>117</ele>
        <time>2016-05-16T14:15:43Z</time>
      </trkpt>
      <trkpt lat="47.98433" lon="-3.04853">
        <ele>116</ele>
        <time>2016-05-16T14:15:46Z</time>
      </trkpt>
      <trkpt lat="47.98407" lon="-3.04798">
        <ele>114</ele>
        <time>2016-05-16T14:15:54Z</time>
      </trkpt>
      <trkpt lat="47.98397" lon="-3.04787">
        <ele>114</ele>
        <time>2016-05-16T14:15:56Z</time>
      </trkpt>
      <trkpt lat="47.98375" lon="-3.04748">
        <ele>113</ele>
        <time>2016-05-16T14:16:01Z</time>
      </trkpt>
      <trkpt lat="47.98348" lon="-3.04711">
        <ele>113</ele>
        <time>2016-05-16T14:16:06Z</time>
      </trkpt>
      <trkpt lat="47.98295" lon="-3.04642">
        <ele>109</ele>
        <time>2016-05-16T14:16:14Z</time>
      </trkpt>
      <trkpt lat="47.98281" lon="-3.04624">
        <ele>109</ele>
        <time>2016-05-16T14:16:16Z</time>
      </trkpt>
      <trkpt lat="47.98239" lon="-3.04578">
        <ele>107</ele>
        <time>2016-05-16T14:16:21Z</time>
      </trkpt>
      <trkpt lat="47.98195" lon="-3.0453">
        <ele>106</ele>
        <time>2016-05-16T14:16:26Z</time>
      </trkpt>
      <trkpt lat="47.98138" lon="-3.0448">
        <ele>104</ele>
        <time>2016-05-16T14:16:32Z</time>
      </trkpt>
      <trkpt lat="47.98088" lon="-3.0444">
        <ele>103</ele>
        <time>2016-05-16T14:16:37Z</time>
      </trkpt>
      <trkpt lat="47.98046" lon="-3.04408">
        <ele>99</ele>
        <time>2016-05-16T14:16:41Z</time>
      </trkpt>
      <trkpt lat="47.9797" lon="-3.04352">
        <ele>97</ele>
        <time>2016-05-16T14:16:48Z</time>
      </trkpt>
      <trkpt lat="47.97898" lon="-3.04297">
        <ele>94</ele>
        <time>2016-05-16T14:16:55Z</time>
      </trkpt>
      <trkpt lat="47.97878" lon="-3.04284">
        <ele>94</ele>
        <time>2016-05-16T14:16:57Z</time>
      </trkpt>
      <trkpt lat="47.97839" lon="-3.04268">
        <ele>93</ele>
        <time>2016-05-16T14:17:01Z</time>
      </trkpt>
      <trkpt lat="47.97797" lon="-3.04247">
        <ele>91</ele>
        <time>2016-05-16T14:17:06Z</time>
      </trkpt>
      <trkpt lat="47.97757" lon="-3.04234">
        <ele>90</ele>
        <time>2016-05-16T14:17:12Z</time>
      </trkpt>
      <trkpt lat="47.9773" lon="-3.04224">
        <ele>90</ele>
        <time>2016-05-16T14:17:16Z</time>
      </trkpt>
      <trkpt lat="47.97696" lon="-3.04214">
        <ele>87</ele>
        <time>2016-05-16T14:17:21Z</time>
      </trkpt>
      <trkpt lat="47.97633" lon="-3.04191">
        <ele>86</ele>
        <time>2016-05-16T14:17:30Z</time>
      </trkpt>
      <trkpt lat="47.97626" lon="-3.04188">
        <ele>87</ele>
        <time>2016-05-16T14:17:31Z</time>
      </trkpt>
      <trkpt lat="47.97596" lon="-3.04187">
        <ele>85</ele>
        <time>2016-05-16T14:17:36Z</time>
      </trkpt>
      <trkpt lat="47.97564" lon="-3.04192">
        <ele>87</ele>
        <time>2016-05-16T14:17:41Z</time>
      </trkpt>
      <trkpt lat="47.9753" lon="-3.04212">
        <ele>85</ele>
        <time>2016-05-16T14:17:46Z</time>
      </trkpt>
      <trkpt lat="47.97497" lon="-3.04232">
        <ele>83</ele>
        <time>2016-05-16T14:17:51Z</time>
      </trkpt>
      <trkpt lat="47.97433" lon="-3.04267">
        <ele>82</ele>
        <time>2016-05-16T14:18:00Z</time>
      </trkpt>
      <trkpt lat="47.97426" lon="-3.04266">
        <ele>82</ele>
        <time>2016-05-16T14:18:01Z</time>
      </trkpt>
      <trkpt lat="47.97391" lon="-3.04231">
        <ele>81</ele>
        <time>2016-05-16T14:18:06Z</time>
      </trkpt>
      <trkpt lat="47.97356" lon="-3.04169">
        <ele>80</ele>
        <time>2016-05-16T14:18:12Z</time>
      </trkpt>
      <trkpt lat="47.97339" lon="-3.04123">
        <ele>79</ele>
        <time>2016-05-16T14:18:16Z</time>
      </trkpt>
      <trkpt lat="47.97344" lon="-3.04056">
        <ele>77</ele>
        <time>2016-05-16T14:18:21Z</time>
      </trkpt>
      <trkpt lat="47.97389" lon="-3.03994">
        <ele>76</ele>
        <time>2016-05-16T14:18:28Z</time>
      </trkpt>
      <trkpt lat="47.97429" lon="-3.03997">
        <ele>73</ele>
        <time>2016-05-16T14:18:32Z</time>
      </trkpt>
      <trkpt lat="47.9747" lon="-3.04004">
        <ele>72</ele>
        <time>2016-05-16T14:18:36Z</time>
      </trkpt>
      <trkpt lat="47.97509" lon="-3.04013">
        <ele>70</ele>
        <time>2016-05-16T14:18:41Z</time>
      </trkpt>
      <trkpt lat="47.97551" lon="-3.04031">
        <ele>69</ele>
        <time>2016-05-16T14:18:46Z</time>
      </trkpt>
      <trkpt lat="47.97595" lon="-3.04054">
        <ele>68</ele>
        <time>2016-05-16T14:18:51Z</time>
      </trkpt>
      <trkpt lat="47.97642" lon="-3.04078">
        <ele>65</ele>
        <time>2016-05-16T14:18:56Z</time>
      </trkpt>
      <trkpt lat="47.97693" lon="-3.04101">
        <ele>63</ele>
        <time>2016-05-16T14:19:01Z</time>
      </trkpt>
      <trkpt lat="47.97763" lon="-3.04079">
        <ele>60</ele>
        <time>2016-05-16T14:19:10Z</time>
      </trkpt>
      <trkpt lat="47.97779" lon="-3.04053">
        <ele>58</ele>
        <time>2016-05-16T14:19:14Z</time>
      </trkpt>
      <trkpt lat="47.97808" lon="-3.04059">
        <ele>52</ele>
        <time>2016-05-16T14:19:20Z</time>
      </trkpt>
      <trkpt lat="47.97818" lon="-3.04063">
        <ele>50</ele>
        <time>2016-05-16T14:19:22Z</time>
      </trkpt>
      <trkpt lat="47.97844" lon="-3.04077">
        <ele>48</ele>
        <time>2016-05-16T14:19:28Z</time>
      </trkpt>
      <trkpt lat="47.97855" lon="-3.04082">
        <ele>48</ele>
        <time>2016-05-16T14:19:31Z</time>
      </trkpt>
      <trkpt lat="47.97873" lon="-3.04092">
        <ele>47</ele>
        <time>2016-05-16T14:19:36Z</time>
      </trkpt>
      <trkpt lat="47.97899" lon="-3.04106">
        <ele>48</ele>
        <time>2016-05-16T14:19:43Z</time>
      </trkpt>
      <trkpt lat="47.9791" lon="-3.04112">
        <ele>48</ele>
        <time>2016-05-16T14:19:46Z</time>
      </trkpt>
      <trkpt lat="47.97934" lon="-3.04123">
        <ele>48</ele>
        <time>2016-05-16T14:19:52Z</time>
      </trkpt>
      <trkpt lat="47.97959" lon="-3.04132">
        <ele>47</ele>
        <time>2016-05-16T14:19:58Z</time>
      </trkpt>
      <trkpt lat="47.97979" lon="-3.04144">
        <ele>47</ele>
        <time>2016-05-16T14:20:03Z</time>
      </trkpt>
      <trkpt lat="47.97992" lon="-3.04151">
        <ele>47</ele>
        <time>2016-05-16T14:20:06Z</time>
      </trkpt>
      <trkpt lat="47.98011" lon="-3.04164">
        <ele>47</ele>
        <time>2016-05-16T14:20:11Z</time>
      </trkpt>
      <trkpt lat="47.98038" lon="-3.04177">
        <ele>46</ele>
        <time>2016-05-16T14:20:20Z</time>
      </trkpt>
      <trkpt lat="47.98045" lon="-3.04181">
        <ele>46</ele>
        <time>2016-05-16T14:20:22Z</time>
      </trkpt>
      <trkpt lat="47.98059" lon="-3.04189">
        <ele>47</ele>
        <time>2016-05-16T14:20:26Z</time>
      </trkpt>
      <trkpt lat="47.98081" lon="-3.04193">
        <ele>46</ele>
        <time>2016-05-16T14:20:32Z</time>
      </trkpt>
      <trkpt lat="47.98096" lon="-3.04197">
        <ele>46</ele>
        <time>2016-05-16T14:20:36Z</time>
      </trkpt>
      <trkpt lat="47.98115" lon="-3.04197">
        <ele>46</ele>
        <time>2016-05-16T14:20:41Z</time>
      </trkpt>
      <trkpt lat="47.98141" lon="-3.04198">
        <ele>46</ele>
        <time>2016-05-16T14:20:46Z</time>
      </trkpt>
      <trkpt lat="47.98167" lon="-3.042">
        <ele>46</ele>
        <time>2016-05-16T14:20:51Z</time>
      </trkpt>
      <trkpt lat="47.98188" lon="-3.04203">
        <ele>47</ele>
        <time>2016-05-16T14:20:56Z</time>
      </trkpt>
      <trkpt lat="47.98208" lon="-3.04202">
        <ele>47</ele>
        <time>2016-05-16T14:21:01Z</time>
      </trkpt>
      <trkpt lat="47.98238" lon="-3.04199">
        <ele>49</ele>
        <time>2016-05-16T14:21:08Z</time>
      </trkpt>
      <trkpt lat="47.98252" lon="-3.04198">
        <ele>47</ele>
        <time>2016-05-16T14:21:11Z</time>
      </trkpt>
      <trkpt lat="47.98276" lon="-3.042">
        <ele>47</ele>
        <time>2016-05-16T14:21:16Z</time>
      </trkpt>
      <trkpt lat="47.98299" lon="-3.042">
        <ele>47</ele>
        <time>2016-05-16T14:21:21Z</time>
      </trkpt>
      <trkpt lat="47.98322" lon="-3.04202">
        <ele>46</ele>
        <time>2016-05-16T14:21:26Z</time>
      </trkpt>
      <trkpt lat="47.98344" lon="-3.04198">
        <ele>47</ele>
        <time>2016-05-16T14:21:31Z</time>
      </trkpt>
      <trkpt lat="47.98365" lon="-3.04192">
        <ele>48</ele>
        <time>2016-05-16T14:21:36Z</time>
      </trkpt>
      <trkpt lat="47.98384" lon="-3.04185">
        <ele>51</ele>
        <time>2016-05-16T14:21:42Z</time>
      </trkpt>
      <trkpt lat="47.98396" lon="-3.04178">
        <ele>52</ele>
        <time>2016-05-16T14:21:46Z</time>
      </trkpt>
      <trkpt lat="47.98412" lon="-3.04165">
        <ele>52</ele>
        <time>2016-05-16T14:21:51Z</time>
      </trkpt>
      <trkpt lat="47.98434" lon="-3.04155">
        <ele>50</ele>
        <time>2016-05-16T14:21:56Z</time>
      </trkpt>
      <trkpt lat="47.98478" lon="-3.04136">
        <ele>48</ele>
        <time>2016-05-16T14:22:05Z</time>
      </trkpt>
      <trkpt lat="47.98483" lon="-3.04134">
        <ele>48</ele>
        <time>2016-05-16T14:22:06Z</time>
      </trkpt>
      <trkpt lat="47.98506" lon="-3.04121">
        <ele>49</ele>
        <time>2016-05-16T14:22:11Z</time>
      </trkpt>
      <trkpt lat="47.98527" lon="-3.04108">
        <ele>49</ele>
        <time>2016-05-16T14:22:16Z</time>
      </trkpt>
      <trkpt lat="47.98546" lon="-3.04092">
        <ele>49</ele>
        <time>2016-05-16T14:22:21Z</time>
      </trkpt>
      <trkpt lat="47.98562" lon="-3.04072">
        <ele>49</ele>
        <time>2016-05-16T14:22:26Z</time>
      </trkpt>
      <trkpt lat="47.9858" lon="-3.04046">
        <ele>50</ele>
        <time>2016-05-16T14:22:31Z</time>
      </trkpt>
      <trkpt lat="47.98596" lon="-3.04021">
        <ele>53</ele>
        <time>2016-05-16T14:22:36Z</time>
      </trkpt>
      <trkpt lat="47.98613" lon="-3.03985">
        <ele>53</ele>
        <time>2016-05-16T14:22:42Z</time>
      </trkpt>
      <trkpt lat="47.98623" lon="-3.03958">
        <ele>53</ele>
        <time>2016-05-16T14:22:46Z</time>
      </trkpt>
      <trkpt lat="47.98633" lon="-3.03919">
        <ele>51</ele>
        <time>2016-05-16T14:22:51Z</time>
      </trkpt>
      <trkpt lat="47.98639" lon="-3.03885">
        <ele>52</ele>
        <time>2016-05-16T14:22:56Z</time>
      </trkpt>
      <trkpt lat="47.98643" lon="-3.03854">
        <ele>53</ele>
        <time>2016-05-16T14:23:01Z</time>
      </trkpt>
      <trkpt lat="47.98656" lon="-3.03804">
        <ele>55</ele>
        <time>2016-05-16T14:23:09Z</time>
      </trkpt>
      <trkpt lat="47.98658" lon="-3.03784">
        <ele>55</ele>
        <time>2016-05-16T14:23:12Z</time>
      </trkpt>
      <trkpt lat="47.98666" lon="-3.03744">
        <ele>54</ele>
        <time>2016-05-16T14:23:17Z</time>
      </trkpt>
      <trkpt lat="47.98672" lon="-3.03717">
        <ele>55</ele>
        <time>2016-05-16T14:23:21Z</time>
      </trkpt>
      <trkpt lat="47.98677" lon="-3.03678">
        <ele>54</ele>
        <time>2016-05-16T14:23:26Z</time>
      </trkpt>
      <trkpt lat="47.98664" lon="-3.03613">
        <ele>54</ele>
        <time>2016-05-16T14:23:34Z</time>
      </trkpt>
      <trkpt lat="47.98659" lon="-3.03601">
        <ele>55</ele>
        <time>2016-05-16T14:23:36Z</time>
      </trkpt>
      <trkpt lat="47.98639" lon="-3.0355">
        <ele>54</ele>
        <time>2016-05-16T14:23:43Z</time>
      </trkpt>
      <trkpt lat="47.9863" lon="-3.03524">
        <ele>55</ele>
        <time>2016-05-16T14:23:47Z</time>
      </trkpt>
      <trkpt lat="47.9862" lon="-3.03471">
        <ele>55</ele>
        <time>2016-05-16T14:23:55Z</time>
      </trkpt>
      <trkpt lat="47.9862" lon="-3.03455">
        <ele>56</ele>
        <time>2016-05-16T14:23:57Z</time>
      </trkpt>
      <trkpt lat="47.9862" lon="-3.03426">
        <ele>56</ele>
        <time>2016-05-16T14:24:01Z</time>
      </trkpt>
      <trkpt lat="47.9862" lon="-3.0339">
        <ele>55</ele>
        <time>2016-05-16T14:24:06Z</time>
      </trkpt>
      <trkpt lat="47.98612" lon="-3.03321">
        <ele>54</ele>
        <time>2016-05-16T14:24:15Z</time>
      </trkpt>
      <trkpt lat="47.98613" lon="-3.03292">
        <ele>54</ele>
        <time>2016-05-16T14:24:18Z</time>
      </trkpt>
      <trkpt lat="47.98612" lon="-3.03269">
        <ele>53</ele>
        <time>2016-05-16T14:24:21Z</time>
      </trkpt>
      <trkpt lat="47.9861" lon="-3.0323">
        <ele>54</ele>
        <time>2016-05-16T14:24:26Z</time>
      </trkpt>
      <trkpt lat="47.98607" lon="-3.03192">
        <ele>54</ele>
        <time>2016-05-16T14:24:32Z</time>
      </trkpt>
      <trkpt lat="47.98609" lon="-3.03171">
        <ele>57</ele>
        <time>2016-05-16T14:24:36Z</time>
      </trkpt>
      <trkpt lat="47.98613" lon="-3.03144">
        <ele>59</ele>
        <time>2016-05-16T14:24:42Z</time>
      </trkpt>
      <trkpt lat="47.98627" lon="-3.03114">
        <ele>54</ele>
        <time>2016-05-16T14:24:46Z</time>
      </trkpt>
      <trkpt lat="47.98658" lon="-3.03054">
        <ele>53</ele>
        <time>2016-05-16T14:24:53Z</time>
      </trkpt>
      <trkpt lat="47.98678" lon="-3.03021">
        <ele>53</ele>
        <time>2016-05-16T14:24:58Z</time>
      </trkpt>
      <trkpt lat="47.98698" lon="-3.02984">
        <ele>54</ele>
        <time>2016-05-16T14:25:02Z</time>
      </trkpt>
      <trkpt lat="47.98713" lon="-3.02957">
        <ele>54</ele>
        <time>2016-05-16T14:25:06Z</time>
      </trkpt>
      <trkpt lat="47.98732" lon="-3.02896">
        <ele>56</ele>
        <time>2016-05-16T14:25:15Z</time>
      </trkpt>
      <trkpt lat="47.98733" lon="-3.02881">
        <ele>56</ele>
        <time>2016-05-16T14:25:17Z</time>
      </trkpt>
      <trkpt lat="47.98735" lon="-3.02843">
        <ele>57</ele>
        <time>2016-05-16T14:25:21Z</time>
      </trkpt>
      <trkpt lat="47.98732" lon="-3.028">
        <ele>57</ele>
        <time>2016-05-16T14:25:26Z</time>
      </trkpt>
      <trkpt lat="47.98724" lon="-3.02746">
        <ele>55</ele>
        <time>2016-05-16T14:25:32Z</time>
      </trkpt>
      <trkpt lat="47.9872" lon="-3.02715">
        <ele>56</ele>
        <time>2016-05-16T14:25:36Z</time>
      </trkpt>
      <trkpt lat="47.9871" lon="-3.02661">
        <ele>56</ele>
        <time>2016-05-16T14:25:43Z</time>
      </trkpt>
      <trkpt lat="47.98703" lon="-3.02632">
        <ele>57</ele>
        <time>2016-05-16T14:25:47Z</time>
      </trkpt>
      <trkpt lat="47.98686" lon="-3.02579">
        <ele>54</ele>
        <time>2016-05-16T14:25:54Z</time>
      </trkpt>
      <trkpt lat="47.98681" lon="-3.02569">
        <ele>53</ele>
        <time>2016-05-16T14:25:56Z</time>
      </trkpt>
      <trkpt lat="47.98669" lon="-3.02533">
        <ele>50</ele>
        <time>2016-05-16T14:26:01Z</time>
      </trkpt>
      <trkpt lat="47.98648" lon="-3.02487">
        <ele>50</ele>
        <time>2016-05-16T14:26:07Z</time>
      </trkpt>
      <trkpt lat="47.98637" lon="-3.02464">
        <ele>50</ele>
        <time>2016-05-16T14:26:11Z</time>
      </trkpt>
      <trkpt lat="47.9861" lon="-3.02408">
        <ele>49</ele>
        <time>2016-05-16T14:26:19Z</time>
      </trkpt>
      <trkpt lat="47.986" lon="-3.02387">
        <ele>49</ele>
        <time>2016-05-16T14:26:22Z</time>
      </trkpt>
      <trkpt lat="47.98588" lon="-3.02354">
        <ele>49</ele>
        <time>2016-05-16T14:26:26Z</time>
      </trkpt>
      <trkpt lat="47.98575" lon="-3.02324">
        <ele>49</ele>
        <time>2016-05-16T14:26:31Z</time>
      </trkpt>
      <trkpt lat="47.98557" lon="-3.02279">
        <ele>48</ele>
        <time>2016-05-16T14:26:38Z</time>
      </trkpt>
      <trkpt lat="47.98544" lon="-3.02253">
        <ele>49</ele>
        <time>2016-05-16T14:26:42Z</time>
      </trkpt>
      <trkpt lat="47.98528" lon="-3.02208">
        <ele>50</ele>
        <time>2016-05-16T14:26:48Z</time>
      </trkpt>
      <trkpt lat="47.98522" lon="-3.02177">
        <ele>48</ele>
        <time>2016-05-16T14:26:51Z</time>
      </trkpt>
      <trkpt lat="47.98516" lon="-3.02139">
        <ele>48</ele>
        <time>2016-05-16T14:26:56Z</time>
      </trkpt>
      <trkpt lat="47.98504" lon="-3.02105">
        <ele>49</ele>
        <time>2016-05-16T14:27:01Z</time>
      </trkpt>
      <trkpt lat="47.9849" lon="-3.02063">
        <ele>49</ele>
        <time>2016-05-16T14:27:06Z</time>
      </trkpt>
      <trkpt lat="47.98486" lon="-3.02012">
        <ele>49</ele>
        <time>2016-05-16T14:27:12Z</time>
      </trkpt>
      <trkpt lat="47.98472" lon="-3.01963">
        <ele>49</ele>
        <time>2016-05-16T14:27:18Z</time>
      </trkpt>
      <trkpt lat="47.98469" lon="-3.01933">
        <ele>49</ele>
        <time>2016-05-16T14:27:22Z</time>
      </trkpt>
      <trkpt lat="47.98463" lon="-3.01905">
        <ele>50</ele>
        <time>2016-05-16T14:27:26Z</time>
      </trkpt>
      <trkpt lat="47.98447" lon="-3.01868">
        <ele>49</ele>
        <time>2016-05-16T14:27:31Z</time>
      </trkpt>
      <trkpt lat="47.98441" lon="-3.01837">
        <ele>49</ele>
        <time>2016-05-16T14:27:36Z</time>
      </trkpt>
      <trkpt lat="47.98428" lon="-3.01799">
        <ele>51</ele>
        <time>2016-05-16T14:27:41Z</time>
      </trkpt>
      <trkpt lat="47.98408" lon="-3.0172">
        <ele>52</ele>
        <time>2016-05-16T14:27:50Z</time>
      </trkpt>
      <trkpt lat="47.98407" lon="-3.01712">
        <ele>53</ele>
        <time>2016-05-16T14:27:51Z</time>
      </trkpt>
      <trkpt lat="47.98392" lon="-3.01646">
        <ele>51</ele>
        <time>2016-05-16T14:27:59Z</time>
      </trkpt>
      <trkpt lat="47.98391" lon="-3.01628">
        <ele>52</ele>
        <time>2016-05-16T14:28:01Z</time>
      </trkpt>
      <trkpt lat="47.98379" lon="-3.01588">
        <ele>54</ele>
        <time>2016-05-16T14:28:07Z</time>
      </trkpt>
      <trkpt lat="47.98373" lon="-3.01563">
        <ele>55</ele>
        <time>2016-05-16T14:28:11Z</time>
      </trkpt>
      <trkpt lat="47.98377" lon="-3.01501">
        <ele>61</ele>
        <time>2016-05-16T14:28:16Z</time>
      </trkpt>
      <trkpt lat="47.9839" lon="-3.01437">
        <ele>68</ele>
        <time>2016-05-16T14:28:23Z</time>
      </trkpt>
      <trkpt lat="47.98397" lon="-3.01391">
        <ele>69</ele>
        <time>2016-05-16T14:28:29Z</time>
      </trkpt>
      <trkpt lat="47.984" lon="-3.01379">
        <ele>73</ele>
        <time>2016-05-16T14:28:31Z</time>
      </trkpt>
      <trkpt lat="47.98402" lon="-3.01349">
        <ele>78</ele>
        <time>2016-05-16T14:28:37Z</time>
      </trkpt>
      <trkpt lat="47.98403" lon="-3.0132">
        <ele>86</ele>
        <time>2016-05-16T14:28:44Z</time>
      </trkpt>
      <trkpt lat="47.98402" lon="-3.01313">
        <ele>85</ele>
        <time>2016-05-16T14:28:46Z</time>
      </trkpt>
      <trkpt lat="47.98422" lon="-3.01265">
        <ele>88</ele>
        <time>2016-05-16T14:28:53Z</time>
      </trkpt>
      <trkpt lat="47.98448" lon="-3.01233">
        <ele>90</ele>
        <time>2016-05-16T14:28:56Z</time>
      </trkpt>
      <trkpt lat="47.98473" lon="-3.012">
        <ele>93</ele>
        <time>2016-05-16T14:29:01Z</time>
      </trkpt>
      <trkpt lat="47.98517" lon="-3.01142">
        <ele>91</ele>
        <time>2016-05-16T14:29:09Z</time>
      </trkpt>
      <trkpt lat="47.98529" lon="-3.01132">
        <ele>92</ele>
        <time>2016-05-16T14:29:11Z</time>
      </trkpt>
      <trkpt lat="47.98554" lon="-3.01107">
        <ele>94</ele>
        <time>2016-05-16T14:29:16Z</time>
      </trkpt>
      <trkpt lat="47.98583" lon="-3.01088">
        <ele>99</ele>
        <time>2016-05-16T14:29:22Z</time>
      </trkpt>
      <trkpt lat="47.986" lon="-3.01066">
        <ele>98</ele>
        <time>2016-05-16T14:29:26Z</time>
      </trkpt>
      <trkpt lat="47.98623" lon="-3.01046">
        <ele>98</ele>
        <time>2016-05-16T14:29:31Z</time>
      </trkpt>
      <trkpt lat="47.98651" lon="-3.01023">
        <ele>99</ele>
        <time>2016-05-16T14:29:37Z</time>
      </trkpt>
      <trkpt lat="47.98669" lon="-3.01002">
        <ele>99</ele>
        <time>2016-05-16T14:29:41Z</time>
      </trkpt>
      <trkpt lat="47.98692" lon="-3.00983">
        <ele>102</ele>
        <time>2016-05-16T14:29:46Z</time>
      </trkpt>
      <trkpt lat="47.98727" lon="-3.00945">
        <ele>100</ele>
        <time>2016-05-16T14:29:53Z</time>
      </trkpt>
      <trkpt lat="47.98744" lon="-3.00933">
        <ele>98</ele>
        <time>2016-05-16T14:29:56Z</time>
      </trkpt>
      <trkpt lat="47.98771" lon="-3.0091">
        <ele>95</ele>
        <time>2016-05-16T14:30:01Z</time>
      </trkpt>
      <trkpt lat="47.98806" lon="-3.00892">
        <ele>93</ele>
        <time>2016-05-16T14:30:08Z</time>
      </trkpt>
      <trkpt lat="47.98829" lon="-3.00881">
        <ele>93</ele>
        <time>2016-05-16T14:30:12Z</time>
      </trkpt>
      <trkpt lat="47.9885" lon="-3.00872">
        <ele>91</ele>
        <time>2016-05-16T14:30:16Z</time>
      </trkpt>
      <trkpt lat="47.98895" lon="-3.0087">
        <ele>91</ele>
        <time>2016-05-16T14:30:24Z</time>
      </trkpt>
      <trkpt lat="47.98911" lon="-3.00877">
        <ele>92</ele>
        <time>2016-05-16T14:30:27Z</time>
      </trkpt>
      <trkpt lat="47.98951" lon="-3.00893">
        <ele>87</ele>
        <time>2016-05-16T14:30:34Z</time>
      </trkpt>
      <trkpt lat="47.98962" lon="-3.00902">
        <ele>85</ele>
        <time>2016-05-16T14:30:36Z</time>
      </trkpt>
      <trkpt lat="47.98985" lon="-3.00933">
        <ele>83</ele>
        <time>2016-05-16T14:30:41Z</time>
      </trkpt>
      <trkpt lat="47.99026" lon="-3.00982">
        <ele>68</ele>
        <time>2016-05-16T14:30:50Z</time>
      </trkpt>
      <trkpt lat="47.99031" lon="-3.00987">
        <ele>65</ele>
        <time>2016-05-16T14:30:51Z</time>
      </trkpt>
      <trkpt lat="47.99065" lon="-3.01031">
        <ele>58</ele>
        <time>2016-05-16T14:30:59Z</time>
      </trkpt>
      <trkpt lat="47.99073" lon="-3.01044">
        <ele>57</ele>
        <time>2016-05-16T14:31:01Z</time>
      </trkpt>
      <trkpt lat="47.99092" lon="-3.01076">
        <ele>55</ele>
        <time>2016-05-16T14:31:06Z</time>
      </trkpt>
      <trkpt lat="47.99107" lon="-3.01102">
        <ele>55</ele>
        <time>2016-05-16T14:31:12Z</time>
      </trkpt>
      <trkpt lat="47.99119" lon="-3.01123">
        <ele>55</ele>
        <time>2016-05-16T14:31:16Z</time>
      </trkpt>
      <trkpt lat="47.99132" lon="-3.01145">
        <ele>56</ele>
        <time>2016-05-16T14:31:21Z</time>
      </trkpt>
      <trkpt lat="47.99159" lon="-3.01192">
        <ele>54</ele>
        <time>2016-05-16T14:31:27Z</time>
      </trkpt>
      <trkpt lat="47.99181" lon="-3.01231">
        <ele>53</ele>
        <time>2016-05-16T14:31:32Z</time>
      </trkpt>
      <trkpt lat="47.99202" lon="-3.01263">
        <ele>52</ele>
        <time>2016-05-16T14:31:37Z</time>
      </trkpt>
      <trkpt lat="47.99221" lon="-3.01289">
        <ele>52</ele>
        <time>2016-05-16T14:31:41Z</time>
      </trkpt>
      <trkpt lat="47.9924" lon="-3.01315">
        <ele>53</ele>
        <time>2016-05-16T14:31:47Z</time>
      </trkpt>
      <trkpt lat="47.9927" lon="-3.01349">
        <ele>52</ele>
        <time>2016-05-16T14:31:55Z</time>
      </trkpt>
      <trkpt lat="47.99289" lon="-3.01372">
        <ele>51</ele>
        <time>2016-05-16T14:32:00Z</time>
      </trkpt>
      <trkpt lat="47.99302" lon="-3.01386">
        <ele>52</ele>
        <time>2016-05-16T14:32:03Z</time>
      </trkpt>
      <trkpt lat="47.99316" lon="-3.01401">
        <ele>53</ele>
        <time>2016-05-16T14:32:06Z</time>
      </trkpt>
      <trkpt lat="47.99342" lon="-3.01423">
        <ele>52</ele>
        <time>2016-05-16T14:32:11Z</time>
      </trkpt>
      <trkpt lat="47.9937" lon="-3.01448">
        <ele>52</ele>
        <time>2016-05-16T14:32:16Z</time>
      </trkpt>
      <trkpt lat="47.99406" lon="-3.01474">
        <ele>52</ele>
        <time>2016-05-16T14:32:23Z</time>
      </trkpt>
      <trkpt lat="47.99451" lon="-3.01506">
        <ele>52</ele>
        <time>2016-05-16T14:32:30Z</time>
      </trkpt>
      <trkpt lat="47.99457" lon="-3.01511">
        <ele>52</ele>
        <time>2016-05-16T14:32:31Z</time>
      </trkpt>
      <trkpt lat="47.99486" lon="-3.01527">
        <ele>50</ele>
        <time>2016-05-16T14:32:36Z</time>
      </trkpt>
      <trkpt lat="47.99513" lon="-3.0154">
        <ele>49</ele>
        <time>2016-05-16T14:32:41Z</time>
      </trkpt>
      <trkpt lat="47.99549" lon="-3.01538">
        <ele>47</ele>
        <time>2016-05-16T14:32:49Z</time>
      </trkpt>
      <trkpt lat="47.99562" lon="-3.01537">
        <ele>47</ele>
        <time>2016-05-16T14:32:51Z</time>
      </trkpt>
      <trkpt lat="47.99591" lon="-3.01532">
        <ele>49</ele>
        <time>2016-05-16T14:32:56Z</time>
      </trkpt>
      <trkpt lat="47.99621" lon="-3.01527">
        <ele>49</ele>
        <time>2016-05-16T14:33:01Z</time>
      </trkpt>
      <trkpt lat="47.99646" lon="-3.01515">
        <ele>48</ele>
        <time>2016-05-16T14:33:06Z</time>
      </trkpt>
      <trkpt lat="47.99673" lon="-3.015">
        <ele>48</ele>
        <time>2016-05-16T14:33:11Z</time>
      </trkpt>
      <trkpt lat="47.997" lon="-3.01478">
        <ele>48</ele>
        <time>2016-05-16T14:33:16Z</time>
      </trkpt>
      <trkpt lat="47.99732" lon="-3.01441">
        <ele>46</ele>
        <time>2016-05-16T14:33:23Z</time>
      </trkpt>
      <trkpt lat="47.99745" lon="-3.01427">
        <ele>46</ele>
        <time>2016-05-16T14:33:26Z</time>
      </trkpt>
      <trkpt lat="47.99775" lon="-3.01392">
        <ele>45</ele>
        <time>2016-05-16T14:33:33Z</time>
      </trkpt>
      <trkpt lat="47.99807" lon="-3.01356">
        <ele>45</ele>
        <time>2016-05-16T14:33:40Z</time>
      </trkpt>
      <trkpt lat="47.99811" lon="-3.0135">
        <ele>45</ele>
        <time>2016-05-16T14:33:41Z</time>
      </trkpt>
      <trkpt lat="47.99832" lon="-3.01324">
        <ele>44</ele>
        <time>2016-05-16T14:33:46Z</time>
      </trkpt>
      <trkpt lat="47.99864" lon="-3.01289">
        <ele>43</ele>
        <time>2016-05-16T14:33:53Z</time>
      </trkpt>
      <trkpt lat="47.99881" lon="-3.01276">
        <ele>43</ele>
        <time>2016-05-16T14:33:56Z</time>
      </trkpt>
      <trkpt lat="47.99906" lon="-3.01255">
        <ele>44</ele>
        <time>2016-05-16T14:34:01Z</time>
      </trkpt>
      <trkpt lat="47.99927" lon="-3.01231">
        <ele>43</ele>
        <time>2016-05-16T14:34:06Z</time>
      </trkpt>
      <trkpt lat="47.99951" lon="-3.01208">
        <ele>43</ele>
        <time>2016-05-16T14:34:11Z</time>
      </trkpt>
      <trkpt lat="47.99971" lon="-3.01185">
        <ele>44</ele>
        <time>2016-05-16T14:34:16Z</time>
      </trkpt>
      <trkpt lat="47.99996" lon="-3.01162">
        <ele>44</ele>
        <time>2016-05-16T14:34:21Z</time>
      </trkpt>
      <trkpt lat="48.00019" lon="-3.01131">
        <ele>43</ele>
        <time>2016-05-16T14:34:27Z</time>
      </trkpt>
      <trkpt lat="48.00036" lon="-3.01114">
        <ele>45</ele>
        <time>2016-05-16T14:34:31Z</time>
      </trkpt>
      <trkpt lat="48.00062" lon="-3.01079">
        <ele>46</ele>
        <time>2016-05-16T14:34:37Z</time>
      </trkpt>
      <trkpt lat="48.00077" lon="-3.01054">
        <ele>47</ele>
        <time>2016-05-16T14:34:41Z</time>
      </trkpt>
      <trkpt lat="48.00095" lon="-3.0103">
        <ele>49</ele>
        <time>2016-05-16T14:34:46Z</time>
      </trkpt>
      <trkpt lat="48.00113" lon="-3.01004">
        <ele>48</ele>
        <time>2016-05-16T14:34:51Z</time>
      </trkpt>
      <trkpt lat="48.00127" lon="-3.00981">
        <ele>48</ele>
        <time>2016-05-16T14:34:56Z</time>
      </trkpt>
      <trkpt lat="48.00141" lon="-3.00945">
        <ele>52</ele>
        <time>2016-05-16T14:35:02Z</time>
      </trkpt>
      <trkpt lat="48.00146" lon="-3.00914">
        <ele>57</ele>
        <time>2016-05-16T14:35:06Z</time>
      </trkpt>
      <trkpt lat="48.00152" lon="-3.00841">
        <ele>64</ele>
        <time>2016-05-16T14:35:15Z</time>
      </trkpt>
      <trkpt lat="48.00153" lon="-3.00831">
        <ele>62</ele>
        <time>2016-05-16T14:35:16Z</time>
      </trkpt>
      <trkpt lat="48.00157" lon="-3.00758">
        <ele>62</ele>
        <time>2016-05-16T14:35:23Z</time>
      </trkpt>
      <trkpt lat="48.00158" lon="-3.00695">
        <ele>62</ele>
        <time>2016-05-16T14:35:30Z</time>
      </trkpt>
      <trkpt lat="48.00158" lon="-3.00686">
        <ele>63</ele>
        <time>2016-05-16T14:35:31Z</time>
      </trkpt>
      <trkpt lat="48.00158" lon="-3.00644">
        <ele>67</ele>
        <time>2016-05-16T14:35:37Z</time>
      </trkpt>
      <trkpt lat="48.00156" lon="-3.006">
        <ele>68</ele>
        <time>2016-05-16T14:35:43Z</time>
      </trkpt>
      <trkpt lat="48.00152" lon="-3.00578">
        <ele>70</ele>
        <time>2016-05-16T14:35:46Z</time>
      </trkpt>
      <trkpt lat="48.00145" lon="-3.00541">
        <ele>70</ele>
        <time>2016-05-16T14:35:51Z</time>
      </trkpt>
      <trkpt lat="48.00139" lon="-3.00497">
        <ele>68</ele>
        <time>2016-05-16T14:35:57Z</time>
      </trkpt>
      <trkpt lat="48.00132" lon="-3.00451">
        <ele>67</ele>
        <time>2016-05-16T14:36:03Z</time>
      </trkpt>
      <trkpt lat="48.00132" lon="-3.00424">
        <ele>65</ele>
        <time>2016-05-16T14:36:06Z</time>
      </trkpt>
      <trkpt lat="48.0013" lon="-3.00383">
        <ele>65</ele>
        <time>2016-05-16T14:36:11Z</time>
      </trkpt>
      <trkpt lat="48.00133" lon="-3.0034">
        <ele>63</ele>
        <time>2016-05-16T14:36:16Z</time>
      </trkpt>
      <trkpt lat="48.00131" lon="-3.00302">
        <ele>61</ele>
        <time>2016-05-16T14:36:21Z</time>
      </trkpt>
      <trkpt lat="48.00128" lon="-3.00268">
        <ele>63</ele>
        <time>2016-05-16T14:36:26Z</time>
      </trkpt>
      <trkpt lat="48.0013" lon="-3.00229">
        <ele>63</ele>
        <time>2016-05-16T14:36:31Z</time>
      </trkpt>
      <trkpt lat="48.00127" lon="-3.00195">
        <ele>65</ele>
        <time>2016-05-16T14:36:36Z</time>
      </trkpt>
      <trkpt lat="48.00124" lon="-3.00161">
        <ele>64</ele>
        <time>2016-05-16T14:36:41Z</time>
      </trkpt>
      <trkpt lat="48.00126" lon="-3.00106">
        <ele>63</ele>
        <time>2016-05-16T14:36:49Z</time>
      </trkpt>
      <trkpt lat="48.00125" lon="-3.00092">
        <ele>65</ele>
        <time>2016-05-16T14:36:51Z</time>
      </trkpt>
      <trkpt lat="48.00123" lon="-3.00042">
        <ele>66</ele>
        <time>2016-05-16T14:36:58Z</time>
      </trkpt>
      <trkpt lat="48.00123" lon="-3.0002">
        <ele>65</ele>
        <time>2016-05-16T14:37:01Z</time>
      </trkpt>
      <trkpt lat="48.00123" lon="-2.99973">
        <ele>64</ele>
        <time>2016-05-16T14:37:07Z</time>
      </trkpt>
      <trkpt lat="48.00124" lon="-2.99937">
        <ele>62</ele>
        <time>2016-05-16T14:37:12Z</time>
      </trkpt>
      <trkpt lat="48.00119" lon="-2.99906">
        <ele>61</ele>
        <time>2016-05-16T14:37:16Z</time>
      </trkpt>
      <trkpt lat="48.00114" lon="-2.9982">
        <ele>68</ele>
        <time>2016-05-16T14:37:23Z</time>
      </trkpt>
      <trkpt lat="48.00117" lon="-2.99764">
        <ele>72</ele>
        <time>2016-05-16T14:37:30Z</time>
      </trkpt>
      <trkpt lat="48.00116" lon="-2.99759">
        <ele>75</ele>
        <time>2016-05-16T14:37:31Z</time>
      </trkpt>
      <trkpt lat="48.00106" lon="-2.99714">
        <ele>72</ele>
        <time>2016-05-16T14:37:36Z</time>
      </trkpt>
      <trkpt lat="48.00102" lon="-2.9969">
        <ele>77</ele>
        <time>2016-05-16T14:37:41Z</time>
      </trkpt>
      <trkpt lat="48.00095" lon="-2.99655">
        <ele>76</ele>
        <time>2016-05-16T14:37:46Z</time>
      </trkpt>
      <trkpt lat="48.00091" lon="-2.99613">
        <ele>73</ele>
        <time>2016-05-16T14:37:51Z</time>
      </trkpt>
      <trkpt lat="48.00081" lon="-2.99563">
        <ele>73</ele>
        <time>2016-05-16T14:37:57Z</time>
      </trkpt>
      <trkpt lat="48.00079" lon="-2.99536">
        <ele>71</ele>
        <time>2016-05-16T14:38:01Z</time>
      </trkpt>
      <trkpt lat="48.00078" lon="-2.99494">
        <ele>68</ele>
        <time>2016-05-16T14:38:06Z</time>
      </trkpt>
      <trkpt lat="48.00082" lon="-2.99437">
        <ele>67</ele>
        <time>2016-05-16T14:38:12Z</time>
      </trkpt>
      <trkpt lat="48.00082" lon="-2.99408">
        <ele>70</ele>
        <time>2016-05-16T14:38:16Z</time>
      </trkpt>
      <trkpt lat="48.0008" lon="-2.99377">
        <ele>72</ele>
        <time>2016-05-16T14:38:21Z</time>
      </trkpt>
      <trkpt lat="48.00074" lon="-2.9935">
        <ele>77</ele>
        <time>2016-05-16T14:38:26Z</time>
      </trkpt>
      <trkpt lat="48.00066" lon="-2.99305">
        <ele>76</ele>
        <time>2016-05-16T14:38:31Z</time>
      </trkpt>
      <trkpt lat="48.00068" lon="-2.99263">
        <ele>81</ele>
        <time>2016-05-16T14:38:38Z</time>
      </trkpt>
      <trkpt lat="48.00074" lon="-2.99238">
        <ele>89</ele>
        <time>2016-05-16T14:38:42Z</time>
      </trkpt>
      <trkpt lat="48.00077" lon="-2.99185">
        <ele>91</ele>
        <time>2016-05-16T14:38:48Z</time>
      </trkpt>
      <trkpt lat="48.00075" lon="-2.99162">
        <ele>92</ele>
        <time>2016-05-16T14:38:51Z</time>
      </trkpt>
      <trkpt lat="48.0008" lon="-2.99118">
        <ele>94</ele>
        <time>2016-05-16T14:38:56Z</time>
      </trkpt>
      <trkpt lat="48.00081" lon="-2.99075">
        <ele>93</ele>
        <time>2016-05-16T14:39:01Z</time>
      </trkpt>
      <trkpt lat="48.001" lon="-2.99041">
        <ele>95</ele>
        <time>2016-05-16T14:39:07Z</time>
      </trkpt>
      <trkpt lat="48.00131" lon="-2.99006">
        <ele>99</ele>
        <time>2016-05-16T14:39:11Z</time>
      </trkpt>
      <trkpt lat="48.00173" lon="-2.98954">
        <ele>95</ele>
        <time>2016-05-16T14:39:19Z</time>
      </trkpt>
      <trkpt lat="48.00184" lon="-2.98944">
        <ele>94</ele>
        <time>2016-05-16T14:39:21Z</time>
      </trkpt>
      <trkpt lat="48.0021" lon="-2.98924">
        <ele>91</ele>
        <time>2016-05-16T14:39:25Z</time>
      </trkpt>
      <trkpt lat="48.00232" lon="-2.98907">
        <ele>90</ele>
        <time>2016-05-16T14:39:31Z</time>
      </trkpt>
      <trkpt lat="48.00266" lon="-2.98881">
        <ele>86</ele>
        <time>2016-05-16T14:39:38Z</time>
      </trkpt>
      <trkpt lat="48.0028" lon="-2.98874">
        <ele>85</ele>
        <time>2016-05-16T14:39:41Z</time>
      </trkpt>
      <trkpt lat="48.00301" lon="-2.98867">
        <ele>86</ele>
        <time>2016-05-16T14:39:46Z</time>
      </trkpt>
      <trkpt lat="48.00323" lon="-2.98865">
        <ele>86</ele>
        <time>2016-05-16T14:39:51Z</time>
      </trkpt>
      <trkpt lat="48.00345" lon="-2.9886">
        <ele>86</ele>
        <time>2016-05-16T14:39:56Z</time>
      </trkpt>
      <trkpt lat="48.00368" lon="-2.98857">
        <ele>85</ele>
        <time>2016-05-16T14:40:01Z</time>
      </trkpt>
      <trkpt lat="48.00402" lon="-2.98855">
        <ele>83</ele>
        <time>2016-05-16T14:40:08Z</time>
      </trkpt>
      <trkpt lat="48.00415" lon="-2.98855">
        <ele>80</ele>
        <time>2016-05-16T14:40:11Z</time>
      </trkpt>
      <trkpt lat="48.00435" lon="-2.98859">
        <ele>79</ele>
        <time>2016-05-16T14:40:16Z</time>
      </trkpt>
      <trkpt lat="48.00473" lon="-2.9888">
        <ele>82</ele>
        <time>2016-05-16T14:40:24Z</time>
      </trkpt>
      <trkpt lat="48.00487" lon="-2.98888">
        <ele>82</ele>
        <time>2016-05-16T14:40:26Z</time>
      </trkpt>
      <trkpt lat="48.00502" lon="-2.98897">
        <ele>77</ele>
        <time>2016-05-16T14:40:32Z</time>
      </trkpt>
      <trkpt lat="48.00517" lon="-2.98906">
        <ele>76</ele>
        <time>2016-05-16T14:40:36Z</time>
      </trkpt>
      <trkpt lat="48.00535" lon="-2.9892">
        <ele>73</ele>
        <time>2016-05-16T14:40:41Z</time>
      </trkpt>
      <trkpt lat="48.00553" lon="-2.98941">
        <ele>78</ele>
        <time>2016-05-16T14:40:46Z</time>
      </trkpt>
      <trkpt lat="48.00566" lon="-2.98964">
        <ele>90</ele>
        <time>2016-05-16T14:40:51Z</time>
      </trkpt>
      <trkpt lat="48.00582" lon="-2.98999">
        <ele>96</ele>
        <time>2016-05-16T14:40:56Z</time>
      </trkpt>
      <trkpt lat="48.00629" lon="-2.99064">
        <ele>78</ele>
        <time>2016-05-16T14:41:03Z</time>
      </trkpt>
      <trkpt lat="48.00639" lon="-2.99085">
        <ele>75</ele>
        <time>2016-05-16T14:41:05Z</time>
      </trkpt>
      <trkpt lat="48.00658" lon="-2.99125">
        <ele>72</ele>
        <time>2016-05-16T14:41:10Z</time>
      </trkpt>
      <trkpt lat="48.00676" lon="-2.9917">
        <ele>69</ele>
        <time>2016-05-16T14:41:15Z</time>
      </trkpt>
      <trkpt lat="48.00696" lon="-2.99219">
        <ele>63</ele>
        <time>2016-05-16T14:41:20Z</time>
      </trkpt>
      <trkpt lat="48.00709" lon="-2.99267">
        <ele>61</ele>
        <time>2016-05-16T14:41:26Z</time>
      </trkpt>
      <trkpt lat="48.00731" lon="-2.99333">
        <ele>60</ele>
        <time>2016-05-16T14:41:35Z</time>
      </trkpt>
      <trkpt lat="48.00735" lon="-2.99338">
        <ele>60</ele>
        <time>2016-05-16T14:41:36Z</time>
      </trkpt>
      <trkpt lat="48.00761" lon="-2.99359">
        <ele>59</ele>
        <time>2016-05-16T14:41:41Z</time>
      </trkpt>
      <trkpt lat="48.00785" lon="-2.99381">
        <ele>58</ele>
        <time>2016-05-16T14:41:46Z</time>
      </trkpt>
      <trkpt lat="48.00806" lon="-2.99411">
        <ele>58</ele>
        <time>2016-05-16T14:41:53Z</time>
      </trkpt>
      <trkpt lat="48.00817" lon="-2.99428">
        <ele>57</ele>
        <time>2016-05-16T14:41:56Z</time>
      </trkpt>
      <trkpt lat="48.00829" lon="-2.99444">
        <ele>56</ele>
        <time>2016-05-16T14:42:01Z</time>
      </trkpt>
      <trkpt lat="48.0084" lon="-2.99461">
        <ele>57</ele>
        <time>2016-05-16T14:42:05Z</time>
      </trkpt>
      <trkpt lat="48.00852" lon="-2.99501">
        <ele>58</ele>
        <time>2016-05-16T14:42:10Z</time>
      </trkpt>
      <trkpt lat="48.00863" lon="-2.9954">
        <ele>58</ele>
        <time>2016-05-16T14:42:15Z</time>
      </trkpt>
      <trkpt lat="48.00872" lon="-2.99577">
        <ele>58</ele>
        <time>2016-05-16T14:42:21Z</time>
      </trkpt>
      <trkpt lat="48.00882" lon="-2.99613">
        <ele>58</ele>
        <time>2016-05-16T14:42:26Z</time>
      </trkpt>
      <trkpt lat="48.00894" lon="-2.99647">
        <ele>58</ele>
        <time>2016-05-16T14:42:31Z</time>
      </trkpt>
      <trkpt lat="48.0091" lon="-2.99688">
        <ele>58</ele>
        <time>2016-05-16T14:42:37Z</time>
      </trkpt>
      <trkpt lat="48.00923" lon="-2.99727">
        <ele>57</ele>
        <time>2016-05-16T14:42:43Z</time>
      </trkpt>
      <trkpt lat="48.00935" lon="-2.99754">
        <ele>59</ele>
        <time>2016-05-16T14:42:48Z</time>
      </trkpt>
      <trkpt lat="48.00942" lon="-2.99769">
        <ele>59</ele>
        <time>2016-05-16T14:42:51Z</time>
      </trkpt>
      <trkpt lat="48.00964" lon="-2.99801">
        <ele>57</ele>
        <time>2016-05-16T14:42:59Z</time>
      </trkpt>
      <trkpt lat="48.0097" lon="-2.99809">
        <ele>55</ele>
        <time>2016-05-16T14:43:01Z</time>
      </trkpt>
      <trkpt lat="48.00984" lon="-2.99826">
        <ele>59</ele>
        <time>2016-05-16T14:43:05Z</time>
      </trkpt>
      <trkpt lat="48.01" lon="-2.99844">
        <ele>62</ele>
        <time>2016-05-16T14:43:11Z</time>
      </trkpt>
      <trkpt lat="48.01015" lon="-2.99866">
        <ele>63</ele>
        <time>2016-05-16T14:43:16Z</time>
      </trkpt>
      <trkpt lat="48.01034" lon="-2.99889">
        <ele>60</ele>
        <time>2016-05-16T14:43:21Z</time>
      </trkpt>
      <trkpt lat="48.0106" lon="-2.99926">
        <ele>58</ele>
        <time>2016-05-16T14:43:26Z</time>
      </trkpt>
      <trkpt lat="48.01095" lon="-2.99974">
        <ele>61</ele>
        <time>2016-05-16T14:43:35Z</time>
      </trkpt>
      <trkpt lat="48.01115" lon="-3.00002">
        <ele>62</ele>
        <time>2016-05-16T14:43:40Z</time>
      </trkpt>
      <trkpt lat="48.01119" lon="-3.00007">
        <ele>63</ele>
        <time>2016-05-16T14:43:41Z</time>
      </trkpt>
      <trkpt lat="48.0114" lon="-3.00032">
        <ele>64</ele>
        <time>2016-05-16T14:43:46Z</time>
      </trkpt>
      <trkpt lat="48.01167" lon="-3.00062">
        <ele>62</ele>
        <time>2016-05-16T14:43:52Z</time>
      </trkpt>
      <trkpt lat="48.01199" lon="-3.00091">
        <ele>62</ele>
        <time>2016-05-16T14:43:59Z</time>
      </trkpt>
      <trkpt lat="48.01212" lon="-3.00097">
        <ele>61</ele>
        <time>2016-05-16T14:44:01Z</time>
      </trkpt>
      <trkpt lat="48.01238" lon="-3.00086">
        <ele>60</ele>
        <time>2016-05-16T14:44:06Z</time>
      </trkpt>
      <trkpt lat="48.01254" lon="-3.00058">
        <ele>60</ele>
        <time>2016-05-16T14:44:11Z</time>
      </trkpt>
      <trkpt lat="48.01272" lon="-3.00013">
        <ele>57</ele>
        <time>2016-05-16T14:44:18Z</time>
      </trkpt>
      <trkpt lat="48.0128" lon="-2.99992">
        <ele>57</ele>
        <time>2016-05-16T14:44:21Z</time>
      </trkpt>
      <trkpt lat="48.01305" lon="-2.99932">
        <ele>54</ele>
        <time>2016-05-16T14:44:30Z</time>
      </trkpt>
      <trkpt lat="48.01308" lon="-2.99925">
        <ele>55</ele>
        <time>2016-05-16T14:44:31Z</time>
      </trkpt>
      <trkpt lat="48.01331" lon="-2.99871">
        <ele>55</ele>
        <time>2016-05-16T14:44:40Z</time>
      </trkpt>
      <trkpt lat="48.0134" lon="-2.99846">
        <ele>56</ele>
        <time>2016-05-16T14:44:44Z</time>
      </trkpt>
      <trkpt lat="48.01343" lon="-2.99836">
        <ele>56</ele>
        <time>2016-05-16T14:44:45Z</time>
      </trkpt>
      <trkpt lat="48.01362" lon="-2.99796">
        <ele>57</ele>
        <time>2016-05-16T14:44:53Z</time>
      </trkpt>
      <trkpt lat="48.01371" lon="-2.99781">
        <ele>57</ele>
        <time>2016-05-16T14:44:56Z</time>
      </trkpt>
      <trkpt lat="48.01392" lon="-2.99751">
        <ele>58</ele>
        <time>2016-05-16T14:45:02Z</time>
      </trkpt>
      <trkpt lat="48.01417" lon="-2.99728">
        <ele>61</ele>
        <time>2016-05-16T14:45:08Z</time>
      </trkpt>
      <trkpt lat="48.01427" lon="-2.9972">
        <ele>61</ele>
        <time>2016-05-16T14:45:11Z</time>
      </trkpt>
      <trkpt lat="48.01447" lon="-2.99708">
        <ele>67</ele>
        <time>2016-05-16T14:45:15Z</time>
      </trkpt>
      <trkpt lat="48.01472" lon="-2.99693">
        <ele>69</ele>
        <time>2016-05-16T14:45:20Z</time>
      </trkpt>
      <trkpt lat="48.015" lon="-2.99677">
        <ele>69</ele>
        <time>2016-05-16T14:45:26Z</time>
      </trkpt>
      <trkpt lat="48.01518" lon="-2.99667">
        <ele>70</ele>
        <time>2016-05-16T14:45:30Z</time>
      </trkpt>
      <trkpt lat="48.01541" lon="-2.99654">
        <ele>76</ele>
        <time>2016-05-16T14:45:36Z</time>
      </trkpt>
      <trkpt lat="48.01554" lon="-2.99644">
        <ele>79</ele>
        <time>2016-05-16T14:45:40Z</time>
      </trkpt>
      <trkpt lat="48.0158" lon="-2.99629">
        <ele>80</ele>
        <time>2016-05-16T14:45:45Z</time>
      </trkpt>
      <trkpt lat="48.01613" lon="-2.99586">
        <ele>78</ele>
        <time>2016-05-16T14:45:54Z</time>
      </trkpt>
      <trkpt lat="48.01614" lon="-2.9958">
        <ele>78</ele>
        <time>2016-05-16T14:45:55Z</time>
      </trkpt>
      <trkpt lat="48.01622" lon="-2.99542">
        <ele>76</ele>
        <time>2016-05-16T14:46:02Z</time>
      </trkpt>
      <trkpt lat="48.01629" lon="-2.99512">
        <ele>76</ele>
        <time>2016-05-16T14:46:06Z</time>
      </trkpt>
      <trkpt lat="48.01638" lon="-2.99486">
        <ele>79</ele>
        <time>2016-05-16T14:46:11Z</time>
      </trkpt>
      <trkpt lat="48.01646" lon="-2.99458">
        <ele>81</ele>
        <time>2016-05-16T14:46:16Z</time>
      </trkpt>
      <trkpt lat="48.01647" lon="-2.99437">
        <ele>86</ele>
        <time>2016-05-16T14:46:21Z</time>
      </trkpt>
      <trkpt lat="48.0165" lon="-2.99412">
        <ele>89</ele>
        <time>2016-05-16T14:46:26Z</time>
      </trkpt>
      <trkpt lat="48.01662" lon="-2.99353">
        <ele>93</ele>
        <time>2016-05-16T14:46:34Z</time>
      </trkpt>
      <trkpt lat="48.01665" lon="-2.99335">
        <ele>95</ele>
        <time>2016-05-16T14:46:36Z</time>
      </trkpt>
      <trkpt lat="48.01676" lon="-2.99284">
        <ele>95</ele>
        <time>2016-05-16T14:46:42Z</time>
      </trkpt>
      <trkpt lat="48.0168" lon="-2.99246">
        <ele>85</ele>
        <time>2016-05-16T14:46:46Z</time>
      </trkpt>
      <trkpt lat="48.01691" lon="-2.99171">
        <ele>81</ele>
        <time>2016-05-16T14:46:53Z</time>
      </trkpt>
      <trkpt lat="48.01694" lon="-2.99145">
        <ele>80</ele>
        <time>2016-05-16T14:46:56Z</time>
      </trkpt>
      <trkpt lat="48.01701" lon="-2.99086">
        <ele>80</ele>
        <time>2016-05-16T14:47:03Z</time>
      </trkpt>
      <trkpt lat="48.01703" lon="-2.99054">
        <ele>82</ele>
        <time>2016-05-16T14:47:09Z</time>
      </trkpt>
      <trkpt lat="48.01705" lon="-2.99043">
        <ele>81</ele>
        <time>2016-05-16T14:47:11Z</time>
      </trkpt>
      <trkpt lat="48.01708" lon="-2.99009">
        <ele>75</ele>
        <time>2016-05-16T14:47:16Z</time>
      </trkpt>
      <trkpt lat="48.0171" lon="-2.98946">
        <ele>71</ele>
        <time>2016-05-16T14:47:22Z</time>
      </trkpt>
      <trkpt lat="48.01714" lon="-2.98904">
        <ele>69</ele>
        <time>2016-05-16T14:47:26Z</time>
      </trkpt>
      <trkpt lat="48.01715" lon="-2.98823">
        <ele>67</ele>
        <time>2016-05-16T14:47:35Z</time>
      </trkpt>
      <trkpt lat="48.01715" lon="-2.98814">
        <ele>67</ele>
        <time>2016-05-16T14:47:36Z</time>
      </trkpt>
      <trkpt lat="48.01724" lon="-2.9875">
        <ele>66</ele>
        <time>2016-05-16T14:47:43Z</time>
      </trkpt>
      <trkpt lat="48.0173" lon="-2.98721">
        <ele>65</ele>
        <time>2016-05-16T14:47:46Z</time>
      </trkpt>
      <trkpt lat="48.01737" lon="-2.98676">
        <ele>64</ele>
        <time>2016-05-16T14:47:50Z</time>
      </trkpt>
      <trkpt lat="48.01744" lon="-2.98633">
        <ele>66</ele>
        <time>2016-05-16T14:47:56Z</time>
      </trkpt>
      <trkpt lat="48.01747" lon="-2.98596">
        <ele>68</ele>
        <time>2016-05-16T14:48:01Z</time>
      </trkpt>
      <trkpt lat="48.0175" lon="-2.98564">
        <ele>69</ele>
        <time>2016-05-16T14:48:06Z</time>
      </trkpt>
      <trkpt lat="48.01759" lon="-2.98495">
        <ele>71</ele>
        <time>2016-05-16T14:48:15Z</time>
      </trkpt>
      <trkpt lat="48.01761" lon="-2.98492">
        <ele>72</ele>
        <time>2016-05-16T14:48:16Z</time>
      </trkpt>
      <trkpt lat="48.01767" lon="-2.98448">
        <ele>74</ele>
        <time>2016-05-16T14:48:23Z</time>
      </trkpt>
      <trkpt lat="48.01767" lon="-2.98428">
        <ele>73</ele>
        <time>2016-05-16T14:48:26Z</time>
      </trkpt>
      <trkpt lat="48.01762" lon="-2.98396">
        <ele>68</ele>
        <time>2016-05-16T14:48:30Z</time>
      </trkpt>
      <trkpt lat="48.0176" lon="-2.98363">
        <ele>65</ele>
        <time>2016-05-16T14:48:36Z</time>
      </trkpt>
      <trkpt lat="48.01757" lon="-2.98336">
        <ele>63</ele>
        <time>2016-05-16T14:48:41Z</time>
      </trkpt>
      <trkpt lat="48.01754" lon="-2.98308">
        <ele>63</ele>
        <time>2016-05-16T14:48:47Z</time>
      </trkpt>
      <trkpt lat="48.01751" lon="-2.98291">
        <ele>65</ele>
        <time>2016-05-16T14:48:51Z</time>
      </trkpt>
      <trkpt lat="48.01747" lon="-2.98264">
        <ele>65</ele>
        <time>2016-05-16T14:48:55Z</time>
      </trkpt>
      <trkpt lat="48.0174" lon="-2.98242">
        <ele>69</ele>
        <time>2016-05-16T14:49:01Z</time>
      </trkpt>
      <trkpt lat="48.01736" lon="-2.98219">
        <ele>73</ele>
        <time>2016-05-16T14:49:07Z</time>
      </trkpt>
      <trkpt lat="48.01729" lon="-2.98197">
        <ele>73</ele>
        <time>2016-05-16T14:49:11Z</time>
      </trkpt>
      <trkpt lat="48.0172" lon="-2.98157">
        <ele>72</ele>
        <time>2016-05-16T14:49:16Z</time>
      </trkpt>
      <trkpt lat="48.01714" lon="-2.98123">
        <ele>70</ele>
        <time>2016-05-16T14:49:21Z</time>
      </trkpt>
      <trkpt lat="48.01714" lon="-2.98069">
        <ele>67</ele>
        <time>2016-05-16T14:49:30Z</time>
      </trkpt>
      <trkpt lat="48.01712" lon="-2.98045">
        <ele>69</ele>
        <time>2016-05-16T14:49:34Z</time>
      </trkpt>
      <trkpt lat="48.01713" lon="-2.98042">
        <ele>71</ele>
        <time>2016-05-16T14:49:36Z</time>
      </trkpt>
      <trkpt lat="48.01708" lon="-2.98009">
        <ele>72</ele>
        <time>2016-05-16T14:49:43Z</time>
      </trkpt>
      <trkpt lat="48.01705" lon="-2.97993">
        <ele>74</ele>
        <time>2016-05-16T14:49:45Z</time>
      </trkpt>
      <trkpt lat="48.01701" lon="-2.97969">
        <ele>76</ele>
        <time>2016-05-16T14:49:51Z</time>
      </trkpt>
      <trkpt lat="48.01703" lon="-2.97949">
        <ele>78</ele>
        <time>2016-05-16T14:49:56Z</time>
      </trkpt>
      <trkpt lat="48.01703" lon="-2.97922">
        <ele>79</ele>
        <time>2016-05-16T14:50:02Z</time>
      </trkpt>
      <trkpt lat="48.01703" lon="-2.97894">
        <ele>77</ele>
        <time>2016-05-16T14:50:06Z</time>
      </trkpt>
      <trkpt lat="48.01708" lon="-2.97853">
        <ele>74</ele>
        <time>2016-05-16T14:50:14Z</time>
      </trkpt>
      <trkpt lat="48.0171" lon="-2.97847">
        <ele>75</ele>
        <time>2016-05-16T14:50:15Z</time>
      </trkpt>
      <trkpt lat="48.01715" lon="-2.97827">
        <ele>74</ele>
        <time>2016-05-16T14:50:20Z</time>
      </trkpt>
      <trkpt lat="48.01723" lon="-2.97802">
        <ele>75</ele>
        <time>2016-05-16T14:50:26Z</time>
      </trkpt>
      <trkpt lat="48.0173" lon="-2.97777">
        <ele>73</ele>
        <time>2016-05-16T14:50:31Z</time>
      </trkpt>
      <trkpt lat="48.01739" lon="-2.97755">
        <ele>74</ele>
        <time>2016-05-16T14:50:36Z</time>
      </trkpt>
      <trkpt lat="48.01752" lon="-2.97728">
        <ele>75</ele>
        <time>2016-05-16T14:50:41Z</time>
      </trkpt>
      <trkpt lat="48.01774" lon="-2.97694">
        <ele>77</ele>
        <time>2016-05-16T14:50:47Z</time>
      </trkpt>
      <trkpt lat="48.01791" lon="-2.97669">
        <ele>70</ele>
        <time>2016-05-16T14:50:52Z</time>
      </trkpt>
      <trkpt lat="48.01806" lon="-2.97653">
        <ele>71</ele>
        <time>2016-05-16T14:50:57Z</time>
      </trkpt>
      <trkpt lat="48.0183" lon="-2.97637">
        <ele>70</ele>
        <time>2016-05-16T14:51:03Z</time>
      </trkpt>
      <trkpt lat="48.01848" lon="-2.97633">
        <ele>69</ele>
        <time>2016-05-16T14:51:07Z</time>
      </trkpt>
      <trkpt lat="48.01865" lon="-2.97626">
        <ele>67</ele>
        <time>2016-05-16T14:51:10Z</time>
      </trkpt>
      <trkpt lat="48.01887" lon="-2.97615">
        <ele>66</ele>
        <time>2016-05-16T14:51:15Z</time>
      </trkpt>
      <trkpt lat="48.01929" lon="-2.97605">
        <ele>66</ele>
        <time>2016-05-16T14:51:24Z</time>
      </trkpt>
      <trkpt lat="48.01939" lon="-2.97601">
        <ele>63</ele>
        <time>2016-05-16T14:51:26Z</time>
      </trkpt>
      <trkpt lat="48.01974" lon="-2.97589">
        <ele>64</ele>
        <time>2016-05-16T14:51:33Z</time>
      </trkpt>
      <trkpt lat="48.0199" lon="-2.9758">
        <ele>65</ele>
        <time>2016-05-16T14:51:37Z</time>
      </trkpt>
      <trkpt lat="48.02007" lon="-2.97568">
        <ele>66</ele>
        <time>2016-05-16T14:51:40Z</time>
      </trkpt>
      <trkpt lat="48.02029" lon="-2.97553">
        <ele>65</ele>
        <time>2016-05-16T14:51:46Z</time>
      </trkpt>
      <trkpt lat="48.0205" lon="-2.97535">
        <ele>65</ele>
        <time>2016-05-16T14:51:51Z</time>
      </trkpt>
      <trkpt lat="48.02068" lon="-2.97513">
        <ele>64</ele>
        <time>2016-05-16T14:51:56Z</time>
      </trkpt>
      <trkpt lat="48.02091" lon="-2.97497">
        <ele>65</ele>
        <time>2016-05-16T14:52:01Z</time>
      </trkpt>
      <trkpt lat="48.02117" lon="-2.97476">
        <ele>64</ele>
        <time>2016-05-16T14:52:05Z</time>
      </trkpt>
      <trkpt lat="48.02144" lon="-2.97458">
        <ele>59</ele>
        <time>2016-05-16T14:52:11Z</time>
      </trkpt>
      <trkpt lat="48.02169" lon="-2.97438">
        <ele>58</ele>
        <time>2016-05-16T14:52:17Z</time>
      </trkpt>
      <trkpt lat="48.02193" lon="-2.97424">
        <ele>58</ele>
        <time>2016-05-16T14:52:23Z</time>
      </trkpt>
      <trkpt lat="48.02204" lon="-2.97416">
        <ele>60</ele>
        <time>2016-05-16T14:52:26Z</time>
      </trkpt>
      <trkpt lat="48.02223" lon="-2.97404">
        <ele>59</ele>
        <time>2016-05-16T14:52:31Z</time>
      </trkpt>
      <trkpt lat="48.02245" lon="-2.97399">
        <ele>59</ele>
        <time>2016-05-16T14:52:36Z</time>
      </trkpt>
      <trkpt lat="48.02269" lon="-2.97393">
        <ele>59</ele>
        <time>2016-05-16T14:52:41Z</time>
      </trkpt>
      <trkpt lat="48.02296" lon="-2.97391">
        <ele>61</ele>
        <time>2016-05-16T14:52:46Z</time>
      </trkpt>
      <trkpt lat="48.02325" lon="-2.97392">
        <ele>60</ele>
        <time>2016-05-16T14:52:51Z</time>
      </trkpt>
      <trkpt lat="48.02352" lon="-2.97397">
        <ele>62</ele>
        <time>2016-05-16T14:52:55Z</time>
      </trkpt>
      <trkpt lat="48.02377" lon="-2.97402">
        <ele>63</ele>
        <time>2016-05-16T14:53:00Z</time>
      </trkpt>
      <trkpt lat="48.02416" lon="-2.97411">
        <ele>58</ele>
        <time>2016-05-16T14:53:08Z</time>
      </trkpt>
      <trkpt lat="48.02442" lon="-2.97419">
        <ele>58</ele>
        <time>2016-05-16T14:53:13Z</time>
      </trkpt>
      <trkpt lat="48.0246" lon="-2.97424">
        <ele>59</ele>
        <time>2016-05-16T14:53:17Z</time>
      </trkpt>
      <trkpt lat="48.02495" lon="-2.97436">
        <ele>59</ele>
        <time>2016-05-16T14:53:23Z</time>
      </trkpt>
      <trkpt lat="48.02505" lon="-2.97439">
        <ele>58</ele>
        <time>2016-05-16T14:53:26Z</time>
      </trkpt>
      <trkpt lat="48.02535" lon="-2.97451">
        <ele>59</ele>
        <time>2016-05-16T14:53:32Z</time>
      </trkpt>
      <trkpt lat="48.02578" lon="-2.97468">
        <ele>57</ele>
        <time>2016-05-16T14:53:40Z</time>
      </trkpt>
      <trkpt lat="48.02583" lon="-2.9747">
        <ele>58</ele>
        <time>2016-05-16T14:53:41Z</time>
      </trkpt>
      <trkpt lat="48.02607" lon="-2.97481">
        <ele>59</ele>
        <time>2016-05-16T14:53:46Z</time>
      </trkpt>
      <trkpt lat="48.02632" lon="-2.97491">
        <ele>60</ele>
        <time>2016-05-16T14:53:50Z</time>
      </trkpt>
      <trkpt lat="48.02659" lon="-2.97501">
        <ele>59</ele>
        <time>2016-05-16T14:53:56Z</time>
      </trkpt>
      <trkpt lat="48.02691" lon="-2.97503">
        <ele>60</ele>
        <time>2016-05-16T14:54:02Z</time>
      </trkpt>
      <trkpt lat="48.02704" lon="-2.97501">
        <ele>60</ele>
        <time>2016-05-16T14:54:06Z</time>
      </trkpt>
      <trkpt lat="48.0273" lon="-2.97496">
        <ele>59</ele>
        <time>2016-05-16T14:54:12Z</time>
      </trkpt>
      <trkpt lat="48.02753" lon="-2.97489">
        <ele>60</ele>
        <time>2016-05-16T14:54:16Z</time>
      </trkpt>
      <trkpt lat="48.02787" lon="-2.97471">
        <ele>58</ele>
        <time>2016-05-16T14:54:22Z</time>
      </trkpt>
      <trkpt lat="48.02812" lon="-2.97441">
        <ele>57</ele>
        <time>2016-05-16T14:54:29Z</time>
      </trkpt>
      <trkpt lat="48.02825" lon="-2.97426">
        <ele>59</ele>
        <time>2016-05-16T14:54:31Z</time>
      </trkpt>
      <trkpt lat="48.02839" lon="-2.97406">
        <ele>60</ele>
        <time>2016-05-16T14:54:36Z</time>
      </trkpt>
      <trkpt lat="48.02849" lon="-2.97387">
        <ele>63</ele>
        <time>2016-05-16T14:54:40Z</time>
      </trkpt>
      <trkpt lat="48.02865" lon="-2.97357">
        <ele>63</ele>
        <time>2016-05-16T14:54:45Z</time>
      </trkpt>
      <trkpt lat="48.02881" lon="-2.9733">
        <ele>65</ele>
        <time>2016-05-16T14:54:50Z</time>
      </trkpt>
      <trkpt lat="48.02894" lon="-2.97305">
        <ele>68</ele>
        <time>2016-05-16T14:54:58Z</time>
      </trkpt>
      <trkpt lat="48.02909" lon="-2.97273">
        <ele>71</ele>
        <time>2016-05-16T14:55:03Z</time>
      </trkpt>
      <trkpt lat="48.02917" lon="-2.97258">
        <ele>71</ele>
        <time>2016-05-16T14:55:07Z</time>
      </trkpt>
      <trkpt lat="48.02924" lon="-2.97246">
        <ele>74</ele>
        <time>2016-05-16T14:55:11Z</time>
      </trkpt>
      <trkpt lat="48.02933" lon="-2.9722">
        <ele>78</ele>
        <time>2016-05-16T14:55:17Z</time>
      </trkpt>
      <trkpt lat="48.02942" lon="-2.97204">
        <ele>79</ele>
        <time>2016-05-16T14:55:20Z</time>
      </trkpt>
      <trkpt lat="48.02953" lon="-2.97183">
        <ele>78</ele>
        <time>2016-05-16T14:55:26Z</time>
      </trkpt>
      <trkpt lat="48.02965" lon="-2.97159">
        <ele>79</ele>
        <time>2016-05-16T14:55:31Z</time>
      </trkpt>
      <trkpt lat="48.02975" lon="-2.97137">
        <ele>83</ele>
        <time>2016-05-16T14:55:36Z</time>
      </trkpt>
      <trkpt lat="48.02981" lon="-2.97118">
        <ele>89</ele>
        <time>2016-05-16T14:55:41Z</time>
      </trkpt>
      <trkpt lat="48.02991" lon="-2.97101">
        <ele>92</ele>
        <time>2016-05-16T14:55:46Z</time>
      </trkpt>
      <trkpt lat="48.03004" lon="-2.97086">
        <ele>93</ele>
        <time>2016-05-16T14:55:51Z</time>
      </trkpt>
      <trkpt lat="48.03024" lon="-2.97067">
        <ele>90</ele>
        <time>2016-05-16T14:55:56Z</time>
      </trkpt>
      <trkpt lat="48.0305" lon="-2.97035">
        <ele>87</ele>
        <time>2016-05-16T14:56:01Z</time>
      </trkpt>
      <trkpt lat="48.03072" lon="-2.97016">
        <ele>80</ele>
        <time>2016-05-16T14:56:06Z</time>
      </trkpt>
      <trkpt lat="48.03116" lon="-2.96983">
        <ele>71</ele>
        <time>2016-05-16T14:56:14Z</time>
      </trkpt>
      <trkpt lat="48.03129" lon="-2.96975">
        <ele>74</ele>
        <time>2016-05-16T14:56:17Z</time>
      </trkpt>
      <trkpt lat="48.03185" lon="-2.96957">
        <ele>57</ele>
        <time>2016-05-16T14:56:23Z</time>
      </trkpt>
      <trkpt lat="48.03216" lon="-2.96955">
        <ele>55</ele>
        <time>2016-05-16T14:56:26Z</time>
      </trkpt>
      <trkpt lat="48.03255" lon="-2.96956">
        <ele>58</ele>
        <time>2016-05-16T14:56:33Z</time>
      </trkpt>
      <trkpt lat="48.03287" lon="-2.96954">
        <ele>59</ele>
        <time>2016-05-16T14:56:39Z</time>
      </trkpt>
      <trkpt lat="48.03299" lon="-2.96953">
        <ele>59</ele>
        <time>2016-05-16T14:56:41Z</time>
      </trkpt>
      <trkpt lat="48.03325" lon="-2.96949">
        <ele>59</ele>
        <time>2016-05-16T14:56:46Z</time>
      </trkpt>
      <trkpt lat="48.0335" lon="-2.96945">
        <ele>59</ele>
        <time>2016-05-16T14:56:51Z</time>
      </trkpt>
      <trkpt lat="48.03381" lon="-2.9694">
        <ele>58</ele>
        <time>2016-05-16T14:56:57Z</time>
      </trkpt>
      <trkpt lat="48.034" lon="-2.96938">
        <ele>57</ele>
        <time>2016-05-16T14:57:01Z</time>
      </trkpt>
      <trkpt lat="48.03429" lon="-2.96934">
        <ele>57</ele>
        <time>2016-05-16T14:57:07Z</time>
      </trkpt>
      <trkpt lat="48.03448" lon="-2.96932">
        <ele>56</ele>
        <time>2016-05-16T14:57:11Z</time>
      </trkpt>
      <trkpt lat="48.03482" lon="-2.96929">
        <ele>54</ele>
        <time>2016-05-16T14:57:18Z</time>
      </trkpt>
      <trkpt lat="48.03501" lon="-2.96929">
        <ele>54</ele>
        <time>2016-05-16T14:57:22Z</time>
      </trkpt>
      <trkpt lat="48.03517" lon="-2.9693">
        <ele>53</ele>
        <time>2016-05-16T14:57:25Z</time>
      </trkpt>
      <trkpt lat="48.03539" lon="-2.96929">
        <ele>55</ele>
        <time>2016-05-16T14:57:33Z</time>
      </trkpt>
      <trkpt lat="48.03548" lon="-2.9693">
        <ele>56</ele>
        <time>2016-05-16T14:57:36Z</time>
      </trkpt>
      <trkpt lat="48.03566" lon="-2.96934">
        <ele>57</ele>
        <time>2016-05-16T14:57:41Z</time>
      </trkpt>
      <trkpt lat="48.03596" lon="-2.9694">
        <ele>59</ele>
        <time>2016-05-16T14:57:48Z</time>
      </trkpt>
      <trkpt lat="48.03624" lon="-2.96949">
        <ele>59</ele>
        <time>2016-05-16T14:57:52Z</time>
      </trkpt>
      <trkpt lat="48.03642" lon="-2.96954">
        <ele>60</ele>
        <time>2016-05-16T14:57:57Z</time>
      </trkpt>
      <trkpt lat="48.03656" lon="-2.96955">
        <ele>62</ele>
        <time>2016-05-16T14:58:01Z</time>
      </trkpt>
      <trkpt lat="48.03674" lon="-2.96956">
        <ele>61</ele>
        <time>2016-05-16T14:58:06Z</time>
      </trkpt>
      <trkpt lat="48.03693" lon="-2.96957">
        <ele>61</ele>
        <time>2016-05-16T14:58:11Z</time>
      </trkpt>
      <trkpt lat="48.03713" lon="-2.96954">
        <ele>61</ele>
        <time>2016-05-16T14:58:15Z</time>
      </trkpt>
      <trkpt lat="48.03735" lon="-2.96948">
        <ele>66</ele>
        <time>2016-05-16T14:58:23Z</time>
      </trkpt>
      <trkpt lat="48.03765" lon="-2.96937">
        <ele>69</ele>
        <time>2016-05-16T14:58:29Z</time>
      </trkpt>
      <trkpt lat="48.03773" lon="-2.96935">
        <ele>71</ele>
        <time>2016-05-16T14:58:32Z</time>
      </trkpt>
      <trkpt lat="48.03789" lon="-2.9693">
        <ele>73</ele>
        <time>2016-05-16T14:58:36Z</time>
      </trkpt>
      <trkpt lat="48.03808" lon="-2.96921">
        <ele>73</ele>
        <time>2016-05-16T14:58:41Z</time>
      </trkpt>
      <trkpt lat="48.03825" lon="-2.9691">
        <ele>71</ele>
        <time>2016-05-16T14:58:46Z</time>
      </trkpt>
      <trkpt lat="48.03848" lon="-2.96892">
        <ele>68</ele>
        <time>2016-05-16T14:58:53Z</time>
      </trkpt>
      <trkpt lat="48.03859" lon="-2.96883">
        <ele>65</ele>
        <time>2016-05-16T14:58:55Z</time>
      </trkpt>
      <trkpt lat="48.03879" lon="-2.96869">
        <ele>64</ele>
        <time>2016-05-16T14:59:01Z</time>
      </trkpt>
      <trkpt lat="48.03898" lon="-2.96856">
        <ele>63</ele>
        <time>2016-05-16T14:59:06Z</time>
      </trkpt>
      <trkpt lat="48.03924" lon="-2.96839">
        <ele>63</ele>
        <time>2016-05-16T14:59:14Z</time>
      </trkpt>
      <trkpt lat="48.03941" lon="-2.96825">
        <ele>62</ele>
        <time>2016-05-16T14:59:19Z</time>
      </trkpt>
      <trkpt lat="48.03961" lon="-2.96811">
        <ele>62</ele>
        <time>2016-05-16T14:59:24Z</time>
      </trkpt>
      <trkpt lat="48.03968" lon="-2.96805">
        <ele>64</ele>
        <time>2016-05-16T14:59:26Z</time>
      </trkpt>
      <trkpt lat="48.03986" lon="-2.9679">
        <ele>65</ele>
        <time>2016-05-16T14:59:31Z</time>
      </trkpt>
      <trkpt lat="48.04006" lon="-2.96773">
        <ele>66</ele>
        <time>2016-05-16T14:59:36Z</time>
      </trkpt>
      <trkpt lat="48.04027" lon="-2.96753">
        <ele>65</ele>
        <time>2016-05-16T14:59:40Z</time>
      </trkpt>
      <trkpt lat="48.04047" lon="-2.96734">
        <ele>64</ele>
        <time>2016-05-16T14:59:45Z</time>
      </trkpt>
      <trkpt lat="48.04068" lon="-2.96707">
        <ele>64</ele>
        <time>2016-05-16T14:59:52Z</time>
      </trkpt>
      <trkpt lat="48.04084" lon="-2.96689">
        <ele>62</ele>
        <time>2016-05-16T14:59:56Z</time>
      </trkpt>
      <trkpt lat="48.04103" lon="-2.96665">
        <ele>63</ele>
        <time>2016-05-16T15:00:01Z</time>
      </trkpt>
      <trkpt lat="48.04124" lon="-2.96637">
        <ele>62</ele>
        <time>2016-05-16T15:00:07Z</time>
      </trkpt>
      <trkpt lat="48.04147" lon="-2.96607">
        <ele>63</ele>
        <time>2016-05-16T15:00:14Z</time>
      </trkpt>
      <trkpt lat="48.04153" lon="-2.96597">
        <ele>63</ele>
        <time>2016-05-16T15:00:16Z</time>
      </trkpt>
      <trkpt lat="48.04171" lon="-2.96576">
        <ele>64</ele>
        <time>2016-05-16T15:00:21Z</time>
      </trkpt>
      <trkpt lat="48.04192" lon="-2.96555">
        <ele>63</ele>
        <time>2016-05-16T15:00:26Z</time>
      </trkpt>
      <trkpt lat="48.04227" lon="-2.9652">
        <ele>61</ele>
        <time>2016-05-16T15:00:34Z</time>
      </trkpt>
      <trkpt lat="48.04235" lon="-2.96511">
        <ele>61</ele>
        <time>2016-05-16T15:00:35Z</time>
      </trkpt>
      <trkpt lat="48.04254" lon="-2.96492">
        <ele>61</ele>
        <time>2016-05-16T15:00:40Z</time>
      </trkpt>
      <trkpt lat="48.04277" lon="-2.96467">
        <ele>62</ele>
        <time>2016-05-16T15:00:47Z</time>
      </trkpt>
      <trkpt lat="48.04288" lon="-2.96447">
        <ele>60</ele>
        <time>2016-05-16T15:00:51Z</time>
      </trkpt>
      <trkpt lat="48.0431" lon="-2.96405">
        <ele>59</ele>
        <time>2016-05-16T15:00:59Z</time>
      </trkpt>
      <trkpt lat="48.04319" lon="-2.96387">
        <ele>59</ele>
        <time>2016-05-16T15:01:02Z</time>
      </trkpt>
      <trkpt lat="48.04329" lon="-2.96363">
        <ele>58</ele>
        <time>2016-05-16T15:01:06Z</time>
      </trkpt>
      <trkpt lat="48.04341" lon="-2.96334">
        <ele>61</ele>
        <time>2016-05-16T15:01:11Z</time>
      </trkpt>
      <trkpt lat="48.04353" lon="-2.96303">
        <ele>63</ele>
        <time>2016-05-16T15:01:16Z</time>
      </trkpt>
      <trkpt lat="48.04364" lon="-2.96274">
        <ele>65</ele>
        <time>2016-05-16T15:01:21Z</time>
      </trkpt>
      <trkpt lat="48.04378" lon="-2.96234">
        <ele>66</ele>
        <time>2016-05-16T15:01:28Z</time>
      </trkpt>
      <trkpt lat="48.04386" lon="-2.96217">
        <ele>67</ele>
        <time>2016-05-16T15:01:30Z</time>
      </trkpt>
      <trkpt lat="48.04397" lon="-2.96186">
        <ele>66</ele>
        <time>2016-05-16T15:01:35Z</time>
      </trkpt>
      <trkpt lat="48.04418" lon="-2.96138">
        <ele>64</ele>
        <time>2016-05-16T15:01:44Z</time>
      </trkpt>
      <trkpt lat="48.04426" lon="-2.96122">
        <ele>64</ele>
        <time>2016-05-16T15:01:47Z</time>
      </trkpt>
      <trkpt lat="48.04437" lon="-2.96102">
        <ele>64</ele>
        <time>2016-05-16T15:01:50Z</time>
      </trkpt>
      <trkpt lat="48.04455" lon="-2.96069">
        <ele>63</ele>
        <time>2016-05-16T15:01:57Z</time>
      </trkpt>
      <trkpt lat="48.04475" lon="-2.96033">
        <ele>64</ele>
        <time>2016-05-16T15:02:04Z</time>
      </trkpt>
      <trkpt lat="48.04486" lon="-2.96018">
        <ele>65</ele>
        <time>2016-05-16T15:02:07Z</time>
      </trkpt>
      <trkpt lat="48.04499" lon="-2.96">
        <ele>65</ele>
        <time>2016-05-16T15:02:11Z</time>
      </trkpt>
      <trkpt lat="48.04517" lon="-2.95976">
        <ele>64</ele>
        <time>2016-05-16T15:02:16Z</time>
      </trkpt>
      <trkpt lat="48.04538" lon="-2.9595">
        <ele>62</ele>
        <time>2016-05-16T15:02:22Z</time>
      </trkpt>
      <trkpt lat="48.0455" lon="-2.95935">
        <ele>62</ele>
        <time>2016-05-16T15:02:26Z</time>
      </trkpt>
      <trkpt lat="48.04572" lon="-2.95915">
        <ele>62</ele>
        <time>2016-05-16T15:02:31Z</time>
      </trkpt>
      <trkpt lat="48.04589" lon="-2.95904">
        <ele>63</ele>
        <time>2016-05-16T15:02:36Z</time>
      </trkpt>
      <trkpt lat="48.04614" lon="-2.95893">
        <ele>64</ele>
        <time>2016-05-16T15:02:41Z</time>
      </trkpt>
      <trkpt lat="48.04633" lon="-2.95877">
        <ele>65</ele>
        <time>2016-05-16T15:02:47Z</time>
      </trkpt>
      <trkpt lat="48.04652" lon="-2.95871">
        <ele>64</ele>
        <time>2016-05-16T15:02:50Z</time>
      </trkpt>
      <trkpt lat="48.04675" lon="-2.95867">
        <ele>63</ele>
        <time>2016-05-16T15:02:56Z</time>
      </trkpt>
      <trkpt lat="48.04696" lon="-2.95868">
        <ele>65</ele>
        <time>2016-05-16T15:03:01Z</time>
      </trkpt>
      <trkpt lat="48.04717" lon="-2.95868">
        <ele>64</ele>
        <time>2016-05-16T15:03:06Z</time>
      </trkpt>
      <trkpt lat="48.04739" lon="-2.95867">
        <ele>63</ele>
        <time>2016-05-16T15:03:11Z</time>
      </trkpt>
      <trkpt lat="48.04759" lon="-2.95866">
        <ele>63</ele>
        <time>2016-05-16T15:03:16Z</time>
      </trkpt>
      <trkpt lat="48.04781" lon="-2.95868">
        <ele>60</ele>
        <time>2016-05-16T15:03:21Z</time>
      </trkpt>
      <trkpt lat="48.04804" lon="-2.95868">
        <ele>61</ele>
        <time>2016-05-16T15:03:26Z</time>
      </trkpt>
      <trkpt lat="48.04835" lon="-2.95868">
        <ele>61</ele>
        <time>2016-05-16T15:03:33Z</time>
      </trkpt>
      <trkpt lat="48.04852" lon="-2.95869">
        <ele>61</ele>
        <time>2016-05-16T15:03:37Z</time>
      </trkpt>
      <trkpt lat="48.04864" lon="-2.95868">
        <ele>61</ele>
        <time>2016-05-16T15:03:41Z</time>
      </trkpt>
      <trkpt lat="48.04881" lon="-2.95868">
        <ele>61</ele>
        <time>2016-05-16T15:03:46Z</time>
      </trkpt>
      <trkpt lat="48.04901" lon="-2.95868">
        <ele>60</ele>
        <time>2016-05-16T15:03:50Z</time>
      </trkpt>
      <trkpt lat="48.04934" lon="-2.95874">
        <ele>60</ele>
        <time>2016-05-16T15:03:59Z</time>
      </trkpt>
      <trkpt lat="48.04942" lon="-2.95877">
        <ele>60</ele>
        <time>2016-05-16T15:04:01Z</time>
      </trkpt>
      <trkpt lat="48.04961" lon="-2.95885">
        <ele>60</ele>
        <time>2016-05-16T15:04:05Z</time>
      </trkpt>
      <trkpt lat="48.04981" lon="-2.95892">
        <ele>61</ele>
        <time>2016-05-16T15:04:10Z</time>
      </trkpt>
      <trkpt lat="48.05004" lon="-2.95905">
        <ele>62</ele>
        <time>2016-05-16T15:04:17Z</time>
      </trkpt>
      <trkpt lat="48.05022" lon="-2.95916">
        <ele>62</ele>
        <time>2016-05-16T15:04:22Z</time>
      </trkpt>
      <trkpt lat="48.05038" lon="-2.95926">
        <ele>64</ele>
        <time>2016-05-16T15:04:26Z</time>
      </trkpt>
      <trkpt lat="48.05056" lon="-2.95938">
        <ele>67</ele>
        <time>2016-05-16T15:04:31Z</time>
      </trkpt>
      <trkpt lat="48.05074" lon="-2.9595">
        <ele>66</ele>
        <time>2016-05-16T15:04:36Z</time>
      </trkpt>
      <trkpt lat="48.05097" lon="-2.95961">
        <ele>67</ele>
        <time>2016-05-16T15:04:42Z</time>
      </trkpt>
      <trkpt lat="48.0512" lon="-2.95978">
        <ele>65</ele>
        <time>2016-05-16T15:04:47Z</time>
      </trkpt>
      <trkpt lat="48.05137" lon="-2.95988">
        <ele>64</ele>
        <time>2016-05-16T15:04:51Z</time>
      </trkpt>
      <trkpt lat="48.05153" lon="-2.95999">
        <ele>65</ele>
        <time>2016-05-16T15:04:56Z</time>
      </trkpt>
      <trkpt lat="48.05173" lon="-2.96014">
        <ele>65</ele>
        <time>2016-05-16T15:05:00Z</time>
      </trkpt>
      <trkpt lat="48.05192" lon="-2.96026">
        <ele>65</ele>
        <time>2016-05-16T15:05:05Z</time>
      </trkpt>
      <trkpt lat="48.05214" lon="-2.9604">
        <ele>65</ele>
        <time>2016-05-16T15:05:12Z</time>
      </trkpt>
      <trkpt lat="48.05236" lon="-2.96054">
        <ele>65</ele>
        <time>2016-05-16T15:05:18Z</time>
      </trkpt>
      <trkpt lat="48.05256" lon="-2.96068">
        <ele>66</ele>
        <time>2016-05-16T15:05:23Z</time>
      </trkpt>
      <trkpt lat="48.05265" lon="-2.96075">
        <ele>65</ele>
        <time>2016-05-16T15:05:27Z</time>
      </trkpt>
      <trkpt lat="48.05281" lon="-2.96086">
        <ele>65</ele>
        <time>2016-05-16T15:05:32Z</time>
      </trkpt>
      <trkpt lat="48.0529" lon="-2.96092">
        <ele>65</ele>
        <time>2016-05-16T15:05:36Z</time>
      </trkpt>
      <trkpt lat="48.05297" lon="-2.96097">
        <ele>65</ele>
        <time>2016-05-16T15:05:41Z</time>
      </trkpt>
      <trkpt lat="48.05306" lon="-2.96102">
        <ele>64</ele>
        <time>2016-05-16T15:05:46Z</time>
      </trkpt>
      <trkpt lat="48.05323" lon="-2.96113">
        <ele>63</ele>
        <time>2016-05-16T15:05:51Z</time>
      </trkpt>
      <trkpt lat="48.05335" lon="-2.96121">
        <ele>63</ele>
        <time>2016-05-16T15:05:55Z</time>
      </trkpt>
      <trkpt lat="48.05353" lon="-2.9613">
        <ele>65</ele>
        <time>2016-05-16T15:06:02Z</time>
      </trkpt>
      <trkpt lat="48.05365" lon="-2.96138">
        <ele>65</ele>
        <time>2016-05-16T15:06:05Z</time>
      </trkpt>
      <trkpt lat="48.05384" lon="-2.9615">
        <ele>65</ele>
        <time>2016-05-16T15:06:12Z</time>
      </trkpt>
      <trkpt lat="48.05412" lon="-2.96166">
        <ele>66</ele>
        <time>2016-05-16T15:06:20Z</time>
      </trkpt>
      <trkpt lat="48.05419" lon="-2.96171">
        <ele>67</ele>
        <time>2016-05-16T15:06:22Z</time>
      </trkpt>
      <trkpt lat="48.05433" lon="-2.96181">
        <ele>69</ele>
        <time>2016-05-16T15:06:26Z</time>
      </trkpt>
      <trkpt lat="48.05451" lon="-2.96192">
        <ele>69</ele>
        <time>2016-05-16T15:06:31Z</time>
      </trkpt>
      <trkpt lat="48.05468" lon="-2.96204">
        <ele>71</ele>
        <time>2016-05-16T15:06:36Z</time>
      </trkpt>
      <trkpt lat="48.05486" lon="-2.96215">
        <ele>71</ele>
        <time>2016-05-16T15:06:41Z</time>
      </trkpt>
      <trkpt lat="48.05506" lon="-2.96228">
        <ele>70</ele>
        <time>2016-05-16T15:06:46Z</time>
      </trkpt>
      <trkpt lat="48.05536" lon="-2.96248">
        <ele>70</ele>
        <time>2016-05-16T15:06:54Z</time>
      </trkpt>
      <trkpt lat="48.05554" lon="-2.96259">
        <ele>68</ele>
        <time>2016-05-16T15:06:58Z</time>
      </trkpt>
      <trkpt lat="48.05581" lon="-2.9628">
        <ele>67</ele>
        <time>2016-05-16T15:07:04Z</time>
      </trkpt>
      <trkpt lat="48.05589" lon="-2.96288">
        <ele>66</ele>
        <time>2016-05-16T15:07:06Z</time>
      </trkpt>
      <trkpt lat="48.05605" lon="-2.96307">
        <ele>64</ele>
        <time>2016-05-16T15:07:11Z</time>
      </trkpt>
      <trkpt lat="48.05617" lon="-2.96324">
        <ele>63</ele>
        <time>2016-05-16T15:07:17Z</time>
      </trkpt>
      <trkpt lat="48.05631" lon="-2.96345">
        <ele>67</ele>
        <time>2016-05-16T15:07:25Z</time>
      </trkpt>
      <trkpt lat="48.05634" lon="-2.96346">
        <ele>68</ele>
        <time>2016-05-16T15:07:27Z</time>
      </trkpt>
      <trkpt lat="48.05645" lon="-2.9636">
        <ele>69</ele>
        <time>2016-05-16T15:07:34Z</time>
      </trkpt>
      <trkpt lat="48.0565" lon="-2.96366">
        <ele>69</ele>
        <time>2016-05-16T15:07:36Z</time>
      </trkpt>
      <trkpt lat="48.05662" lon="-2.96383">
        <ele>70</ele>
        <time>2016-05-16T15:07:40Z</time>
      </trkpt>
      <trkpt lat="48.05674" lon="-2.96406">
        <ele>70</ele>
        <time>2016-05-16T15:07:47Z</time>
      </trkpt>
      <trkpt lat="48.05686" lon="-2.96424">
        <ele>70</ele>
        <time>2016-05-16T15:07:52Z</time>
      </trkpt>
      <trkpt lat="48.05697" lon="-2.96437">
        <ele>72</ele>
        <time>2016-05-16T15:07:56Z</time>
      </trkpt>
      <trkpt lat="48.05722" lon="-2.96471">
        <ele>67</ele>
        <time>2016-05-16T15:08:04Z</time>
      </trkpt>
      <trkpt lat="48.05737" lon="-2.96487">
        <ele>66</ele>
        <time>2016-05-16T15:08:08Z</time>
      </trkpt>
      <trkpt lat="48.05751" lon="-2.96503">
        <ele>64</ele>
        <time>2016-05-16T15:08:12Z</time>
      </trkpt>
      <trkpt lat="48.05766" lon="-2.96522">
        <ele>64</ele>
        <time>2016-05-16T15:08:17Z</time>
      </trkpt>
      <trkpt lat="48.05771" lon="-2.9653">
        <ele>63</ele>
        <time>2016-05-16T15:08:21Z</time>
      </trkpt>
      <trkpt lat="48.05781" lon="-2.96543">
        <ele>62</ele>
        <time>2016-05-16T15:08:26Z</time>
      </trkpt>
      <trkpt lat="48.0579" lon="-2.96556">
        <ele>63</ele>
        <time>2016-05-16T15:08:31Z</time>
      </trkpt>
      <trkpt lat="48.05801" lon="-2.96574">
        <ele>61</ele>
        <time>2016-05-16T15:08:35Z</time>
      </trkpt>
      <trkpt lat="48.05813" lon="-2.96594">
        <ele>61</ele>
        <time>2016-05-16T15:08:40Z</time>
      </trkpt>
      <trkpt lat="48.05825" lon="-2.9661">
        <ele>60</ele>
        <time>2016-05-16T15:08:45Z</time>
      </trkpt>
      <trkpt lat="48.05834" lon="-2.96631">
        <ele>60</ele>
        <time>2016-05-16T15:08:51Z</time>
      </trkpt>
      <trkpt lat="48.05843" lon="-2.96652">
        <ele>60</ele>
        <time>2016-05-16T15:08:55Z</time>
      </trkpt>
      <trkpt lat="48.05849" lon="-2.96668">
        <ele>60</ele>
        <time>2016-05-16T15:09:00Z</time>
      </trkpt>
      <trkpt lat="48.05864" lon="-2.96701">
        <ele>63</ele>
        <time>2016-05-16T15:09:14Z</time>
      </trkpt>
      <trkpt lat="48.05867" lon="-2.96713">
        <ele>63</ele>
        <time>2016-05-16T15:09:18Z</time>
      </trkpt>
      <trkpt lat="48.05873" lon="-2.96733">
        <ele>63</ele>
        <time>2016-05-16T15:09:23Z</time>
      </trkpt>
      <trkpt lat="48.05883" lon="-2.96764">
        <ele>61</ele>
        <time>2016-05-16T15:09:31Z</time>
      </trkpt>
      <trkpt lat="48.05886" lon="-2.96771">
        <ele>62</ele>
        <time>2016-05-16T15:09:32Z</time>
      </trkpt>
      <trkpt lat="48.05893" lon="-2.96791">
        <ele>61</ele>
        <time>2016-05-16T15:09:39Z</time>
      </trkpt>
      <trkpt lat="48.059" lon="-2.96808">
        <ele>61</ele>
        <time>2016-05-16T15:09:44Z</time>
      </trkpt>
      <trkpt lat="48.05906" lon="-2.96823">
        <ele>62</ele>
        <time>2016-05-16T15:09:48Z</time>
      </trkpt>
      <trkpt lat="48.05916" lon="-2.96837">
        <ele>61</ele>
        <time>2016-05-16T15:09:53Z</time>
      </trkpt>
      <trkpt lat="48.05925" lon="-2.96852">
        <ele>62</ele>
        <time>2016-05-16T15:09:57Z</time>
      </trkpt>
      <trkpt lat="48.0593" lon="-2.96865">
        <ele>60</ele>
        <time>2016-05-16T15:10:03Z</time>
      </trkpt>
      <trkpt lat="48.05936" lon="-2.96883">
        <ele>62</ele>
        <time>2016-05-16T15:10:09Z</time>
      </trkpt>
      <trkpt lat="48.05939" lon="-2.9689">
        <ele>65</ele>
        <time>2016-05-16T15:10:13Z</time>
      </trkpt>
      <trkpt lat="48.05947" lon="-2.96907">
        <ele>66</ele>
        <time>2016-05-16T15:10:17Z</time>
      </trkpt>
      <trkpt lat="48.05952" lon="-2.9692">
        <ele>68</ele>
        <time>2016-05-16T15:10:22Z</time>
      </trkpt>
      <trkpt lat="48.05968" lon="-2.96946">
        <ele>67</ele>
        <time>2016-05-16T15:10:31Z</time>
      </trkpt>
      <trkpt lat="48.05973" lon="-2.9695">
        <ele>68</ele>
        <time>2016-05-16T15:10:32Z</time>
      </trkpt>
      <trkpt lat="48.05986" lon="-2.9696">
        <ele>69</ele>
        <time>2016-05-16T15:10:37Z</time>
      </trkpt>
      <trkpt lat="48.05999" lon="-2.96967">
        <ele>68</ele>
        <time>2016-05-16T15:10:43Z</time>
      </trkpt>
      <trkpt lat="48.06027" lon="-2.96981">
        <ele>64</ele>
        <time>2016-05-16T15:10:50Z</time>
      </trkpt>
      <trkpt lat="48.06047" lon="-2.96989">
        <ele>65</ele>
        <time>2016-05-16T15:10:55Z</time>
      </trkpt>
      <trkpt lat="48.06059" lon="-2.96992">
        <ele>64</ele>
        <time>2016-05-16T15:10:58Z</time>
      </trkpt>
      <trkpt lat="48.06082" lon="-2.97001">
        <ele>63</ele>
        <time>2016-05-16T15:11:04Z</time>
      </trkpt>
      <trkpt lat="48.06099" lon="-2.97002">
        <ele>65</ele>
        <time>2016-05-16T15:11:08Z</time>
      </trkpt>
      <trkpt lat="48.06112" lon="-2.97001">
        <ele>64</ele>
        <time>2016-05-16T15:11:13Z</time>
      </trkpt>
      <trkpt lat="48.06128" lon="-2.96997">
        <ele>64</ele>
        <time>2016-05-16T15:11:17Z</time>
      </trkpt>
      <trkpt lat="48.0614" lon="-2.96994">
        <ele>65</ele>
        <time>2016-05-16T15:11:22Z</time>
      </trkpt>
      <trkpt lat="48.06157" lon="-2.96988">
        <ele>66</ele>
        <time>2016-05-16T15:11:29Z</time>
      </trkpt>
      <trkpt lat="48.06174" lon="-2.96983">
        <ele>69</ele>
        <time>2016-05-16T15:11:35Z</time>
      </trkpt>
      <trkpt lat="48.06185" lon="-2.9698">
        <ele>70</ele>
        <time>2016-05-16T15:11:39Z</time>
      </trkpt>
      <trkpt lat="48.06197" lon="-2.96976">
        <ele>70</ele>
        <time>2016-05-16T15:11:43Z</time>
      </trkpt>
      <trkpt lat="48.06214" lon="-2.9697">
        <ele>73</ele>
        <time>2016-05-16T15:11:49Z</time>
      </trkpt>
      <trkpt lat="48.06226" lon="-2.96965">
        <ele>72</ele>
        <time>2016-05-16T15:11:53Z</time>
      </trkpt>
      <trkpt lat="48.06241" lon="-2.96959">
        <ele>74</ele>
        <time>2016-05-16T15:11:58Z</time>
      </trkpt>
      <trkpt lat="48.06255" lon="-2.96954">
        <ele>75</ele>
        <time>2016-05-16T15:12:03Z</time>
      </trkpt>
      <trkpt lat="48.0627" lon="-2.9695">
        <ele>75</ele>
        <time>2016-05-16T15:12:08Z</time>
      </trkpt>
      <trkpt lat="48.06284" lon="-2.96945">
        <ele>75</ele>
        <time>2016-05-16T15:12:12Z</time>
      </trkpt>
      <trkpt lat="48.06299" lon="-2.9694">
        <ele>75</ele>
        <time>2016-05-16T15:12:17Z</time>
      </trkpt>
      <trkpt lat="48.06314" lon="-2.96935">
        <ele>73</ele>
        <time>2016-05-16T15:12:22Z</time>
      </trkpt>
      <trkpt lat="48.06329" lon="-2.96932">
        <ele>73</ele>
        <time>2016-05-16T15:12:28Z</time>
      </trkpt>
      <trkpt lat="48.06355" lon="-2.96922">
        <ele>70</ele>
        <time>2016-05-16T15:12:36Z</time>
      </trkpt>
      <trkpt lat="48.06359" lon="-2.96921">
        <ele>69</ele>
        <time>2016-05-16T15:12:37Z</time>
      </trkpt>
      <trkpt lat="48.06377" lon="-2.96915">
        <ele>70</ele>
        <time>2016-05-16T15:12:43Z</time>
      </trkpt>
      <trkpt lat="48.06391" lon="-2.96911">
        <ele>70</ele>
        <time>2016-05-16T15:12:50Z</time>
      </trkpt>
      <trkpt lat="48.06394" lon="-2.96909">
        <ele>72</ele>
        <time>2016-05-16T15:12:52Z</time>
      </trkpt>
      <trkpt lat="48.06416" lon="-2.96899">
        <ele>72</ele>
        <time>2016-05-16T15:13:01Z</time>
      </trkpt>
      <trkpt lat="48.06419" lon="-2.96898">
        <ele>72</ele>
        <time>2016-05-16T15:13:03Z</time>
      </trkpt>
      <trkpt lat="48.06436" lon="-2.96894">
        <ele>72</ele>
        <time>2016-05-16T15:13:07Z</time>
      </trkpt>
      <trkpt lat="48.06459" lon="-2.96887">
        <ele>71</ele>
        <time>2016-05-16T15:13:14Z</time>
      </trkpt>
      <trkpt lat="48.06476" lon="-2.96884">
        <ele>72</ele>
        <time>2016-05-16T15:13:18Z</time>
      </trkpt>
      <trkpt lat="48.06494" lon="-2.9688">
        <ele>68</ele>
        <time>2016-05-16T15:13:23Z</time>
      </trkpt>
      <trkpt lat="48.0652" lon="-2.96874">
        <ele>66</ele>
        <time>2016-05-16T15:13:28Z</time>
      </trkpt>
      <trkpt lat="48.06536" lon="-2.9687">
        <ele>65</ele>
        <time>2016-05-16T15:13:32Z</time>
      </trkpt>
      <trkpt lat="48.06553" lon="-2.96869">
        <ele>65</ele>
        <time>2016-05-16T15:13:37Z</time>
      </trkpt>
      <trkpt lat="48.06565" lon="-2.96869">
        <ele>68</ele>
        <time>2016-05-16T15:13:43Z</time>
      </trkpt>
      <trkpt lat="48.06573" lon="-2.9686">
        <ele>70</ele>
        <time>2016-05-16T15:13:48Z</time>
      </trkpt>
      <trkpt lat="48.06586" lon="-2.96854">
        <ele>69</ele>
        <time>2016-05-16T15:13:53Z</time>
      </trkpt>
      <trkpt lat="48.06597" lon="-2.96849">
        <ele>69</ele>
        <time>2016-05-16T15:13:58Z</time>
      </trkpt>
      <trkpt lat="48.06613" lon="-2.96843">
        <ele>70</ele>
        <time>2016-05-16T15:14:03Z</time>
      </trkpt>
      <trkpt lat="48.06629" lon="-2.96836">
        <ele>70</ele>
        <time>2016-05-16T15:14:07Z</time>
      </trkpt>
      <trkpt lat="48.06642" lon="-2.96832">
        <ele>72</ele>
        <time>2016-05-16T15:14:13Z</time>
      </trkpt>
      <trkpt lat="48.06659" lon="-2.96834">
        <ele>68</ele>
        <time>2016-05-16T15:14:22Z</time>
      </trkpt>
      <trkpt lat="48.06662" lon="-2.96835">
        <ele>67</ele>
        <time>2016-05-16T15:14:23Z</time>
      </trkpt>
      <trkpt lat="48.06676" lon="-2.9684">
        <ele>65</ele>
        <time>2016-05-16T15:14:31Z</time>
      </trkpt>
      <trkpt lat="48.06679" lon="-2.96841">
        <ele>64</ele>
        <time>2016-05-16T15:14:32Z</time>
      </trkpt>
      <trkpt lat="48.06687" lon="-2.96841">
        <ele>64</ele>
        <time>2016-05-16T15:14:39Z</time>
      </trkpt>
      <trkpt lat="48.06695" lon="-2.96843">
        <ele>62</ele>
        <time>2016-05-16T15:14:47Z</time>
      </trkpt>
      <trkpt lat="48.06695" lon="-2.96842">
        <ele>61</ele>
        <time>2016-05-16T15:14:48Z</time>
      </trkpt>
      <trkpt lat="48.06696" lon="-2.96843">
        <ele>60</ele>
        <time>2016-05-16T15:14:53Z</time>
      </trkpt>
      <trkpt lat="48.06697" lon="-2.96844">
        <ele>61</ele>
        <time>2016-05-16T15:14:59Z</time>
      </trkpt>
      <trkpt lat="48.06698" lon="-2.96845">
        <ele>61</ele>
        <time>2016-05-16T15:15:05Z</time>
      </trkpt>
      <trkpt lat="48.06699" lon="-2.96846">
        <ele>63</ele>
        <time>2016-05-16T15:15:09Z</time>
      </trkpt>
      <trkpt lat="48.06699" lon="-2.96847">
        <ele>62</ele>
        <time>2016-05-16T15:15:12Z</time>
      </trkpt>
      <trkpt lat="48.067" lon="-2.96849">
        <ele>60</ele>
        <time>2016-05-16T15:15:20Z</time>
      </trkpt>
      <trkpt lat="48.067" lon="-2.96849">
        <ele>60</ele>
        <time>2016-05-16T15:15:23Z</time>
      </trkpt>
      <trkpt lat="48.067" lon="-2.96849">
        <ele>60</ele>
        <time>2016-05-16T15:15:29Z</time>
      </trkpt>
      <trkpt lat="48.067" lon="-2.96849">
        <ele>60</ele>
        <time>2016-05-16T15:15:33Z</time>
      </trkpt>
      <trkpt lat="48.067" lon="-2.96849">
        <ele>60</ele>
        <time>2016-05-16T15:15:41Z</time>
      </trkpt>
      <trkpt lat="48.067" lon="-2.96849">
        <ele>60</ele>
        <time>2016-05-16T15:15:43Z</time>
      </trkpt>
      <trkpt lat="48.067" lon="-2.96849">
        <ele>60</ele>
        <time>2016-05-16T15:15:47Z</time>
      </trkpt>
      <trkpt lat="48.067" lon="-2.96849">
        <ele>58</ele>
        <time>2016-05-16T15:15:52Z</time>
      </trkpt>
      <trkpt lat="48.067" lon="-2.96849">
        <ele>57</ele>
        <time>2016-05-16T15:15:57Z</time>
      </trkpt>
      <trkpt lat="48.067" lon="-2.96849">
        <ele>57</ele>
        <time>2016-05-16T15:16:02Z</time>
      </trkpt>
      <trkpt lat="48.06701" lon="-2.96853">
        <ele>59</ele>
        <time>2016-05-16T15:16:11Z</time>
      </trkpt>
      <trkpt lat="48.06702" lon="-2.96853">
        <ele>58</ele>
        <time>2016-05-16T15:16:14Z</time>
      </trkpt>
      <trkpt lat="48.067" lon="-2.96853">
        <ele>59</ele>
        <time>2016-05-16T15:16:18Z</time>
      </trkpt>
      <trkpt lat="48.067" lon="-2.96853">
        <ele>59</ele>
        <time>2016-05-16T15:16:23Z</time>
      </trkpt>
      <trkpt lat="48.06699" lon="-2.96853">
        <ele>60</ele>
        <time>2016-05-16T15:16:29Z</time>
      </trkpt>
      <trkpt lat="48.06698" lon="-2.96854">
        <ele>58</ele>
        <time>2016-05-16T15:16:33Z</time>
      </trkpt>
      <trkpt lat="48.0669" lon="-2.96851">
        <ele>57</ele>
        <time>2016-05-16T15:16:41Z</time>
      </trkpt>
      <trkpt lat="48.06685" lon="-2.9685">
        <ele>57</ele>
        <time>2016-05-16T15:16:45Z</time>
      </trkpt>
      <trkpt lat="48.06679" lon="-2.96848">
        <ele>58</ele>
        <time>2016-05-16T15:16:48Z</time>
      </trkpt>
      <trkpt lat="48.06668" lon="-2.96846">
        <ele>59</ele>
        <time>2016-05-16T15:16:52Z</time>
      </trkpt>
      <trkpt lat="48.06651" lon="-2.96841">
        <ele>61</ele>
        <time>2016-05-16T15:16:59Z</time>
      </trkpt>
      <trkpt lat="48.06642" lon="-2.96842">
        <ele>61</ele>
        <time>2016-05-16T15:17:03Z</time>
      </trkpt>
      <trkpt lat="48.06625" lon="-2.96849">
        <ele>61</ele>
        <time>2016-05-16T15:17:08Z</time>
      </trkpt>
      <trkpt lat="48.06609" lon="-2.96855">
        <ele>62</ele>
        <time>2016-05-16T15:17:13Z</time>
      </trkpt>
      <trkpt lat="48.06594" lon="-2.96861">
        <ele>62</ele>
        <time>2016-05-16T15:17:17Z</time>
      </trkpt>
      <trkpt lat="48.06579" lon="-2.96867">
        <ele>62</ele>
        <time>2016-05-16T15:17:22Z</time>
      </trkpt>
      <trkpt lat="48.06564" lon="-2.96876">
        <ele>61</ele>
        <time>2016-05-16T15:17:27Z</time>
      </trkpt>
      <trkpt lat="48.0655" lon="-2.96885">
        <ele>61</ele>
        <time>2016-05-16T15:17:33Z</time>
      </trkpt>
      <trkpt lat="48.0654" lon="-2.96884">
        <ele>63</ele>
        <time>2016-05-16T15:17:38Z</time>
      </trkpt>
      <trkpt lat="48.06524" lon="-2.96885">
        <ele>61</ele>
        <time>2016-05-16T15:17:43Z</time>
      </trkpt>
      <trkpt lat="48.06508" lon="-2.96888">
        <ele>62</ele>
        <time>2016-05-16T15:17:48Z</time>
      </trkpt>
      <trkpt lat="48.06492" lon="-2.96892">
        <ele>62</ele>
        <time>2016-05-16T15:17:53Z</time>
      </trkpt>
      <trkpt lat="48.06479" lon="-2.96895">
        <ele>62</ele>
        <time>2016-05-16T15:17:58Z</time>
      </trkpt>
      <trkpt lat="48.06467" lon="-2.96899">
        <ele>62</ele>
        <time>2016-05-16T15:18:03Z</time>
      </trkpt>
      <trkpt lat="48.06455" lon="-2.9691">
        <ele>66</ele>
        <time>2016-05-16T15:18:09Z</time>
      </trkpt>
      <trkpt lat="48.06449" lon="-2.96914">
        <ele>66</ele>
        <time>2016-05-16T15:18:13Z</time>
      </trkpt>
      <trkpt lat="48.06435" lon="-2.96918">
        <ele>66</ele>
        <time>2016-05-16T15:18:18Z</time>
      </trkpt>
      <trkpt lat="48.06422" lon="-2.96922">
        <ele>69</ele>
        <time>2016-05-16T15:18:22Z</time>
      </trkpt>
      <trkpt lat="48.06407" lon="-2.96927">
        <ele>68</ele>
        <time>2016-05-16T15:18:27Z</time>
      </trkpt>
      <trkpt lat="48.06392" lon="-2.96933">
        <ele>70</ele>
        <time>2016-05-16T15:18:32Z</time>
      </trkpt>
      <trkpt lat="48.06379" lon="-2.96938">
        <ele>72</ele>
        <time>2016-05-16T15:18:38Z</time>
      </trkpt>
      <trkpt lat="48.06366" lon="-2.96943">
        <ele>73</ele>
        <time>2016-05-16T15:18:42Z</time>
      </trkpt>
      <trkpt lat="48.06353" lon="-2.96948">
        <ele>73</ele>
        <time>2016-05-16T15:18:47Z</time>
      </trkpt>
      <trkpt lat="48.06341" lon="-2.96952">
        <ele>73</ele>
        <time>2016-05-16T15:18:52Z</time>
      </trkpt>
      <trkpt lat="48.06326" lon="-2.96957">
        <ele>73</ele>
        <time>2016-05-16T15:18:57Z</time>
      </trkpt>
      <trkpt lat="48.06309" lon="-2.96962">
        <ele>71</ele>
        <time>2016-05-16T15:19:02Z</time>
      </trkpt>
      <trkpt lat="48.06292" lon="-2.96967">
        <ele>70</ele>
        <time>2016-05-16T15:19:08Z</time>
      </trkpt>
      <trkpt lat="48.06274" lon="-2.96975">
        <ele>69</ele>
        <time>2016-05-16T15:19:12Z</time>
      </trkpt>
      <trkpt lat="48.06255" lon="-2.9698">
        <ele>67</ele>
        <time>2016-05-16T15:19:17Z</time>
      </trkpt>
      <trkpt lat="48.06233" lon="-2.96987">
        <ele>67</ele>
        <time>2016-05-16T15:19:23Z</time>
      </trkpt>
      <trkpt lat="48.06219" lon="-2.96993">
        <ele>67</ele>
        <time>2016-05-16T15:19:27Z</time>
      </trkpt>
      <trkpt lat="48.06203" lon="-2.96998">
        <ele>68</ele>
        <time>2016-05-16T15:19:32Z</time>
      </trkpt>
      <trkpt lat="48.06188" lon="-2.97004">
        <ele>69</ele>
        <time>2016-05-16T15:19:38Z</time>
      </trkpt>
      <trkpt lat="48.06168" lon="-2.9701">
        <ele>68</ele>
        <time>2016-05-16T15:19:43Z</time>
      </trkpt>
      <trkpt lat="48.06154" lon="-2.97014">
        <ele>69</ele>
        <time>2016-05-16T15:19:47Z</time>
      </trkpt>
      <trkpt lat="48.06136" lon="-2.97018">
        <ele>70</ele>
        <time>2016-05-16T15:19:52Z</time>
      </trkpt>
      <trkpt lat="48.06118" lon="-2.9702">
        <ele>71</ele>
        <time>2016-05-16T15:19:57Z</time>
      </trkpt>
      <trkpt lat="48.06099" lon="-2.9702">
        <ele>68</ele>
        <time>2016-05-16T15:20:02Z</time>
      </trkpt>
      <trkpt lat="48.0608" lon="-2.97019">
        <ele>68</ele>
        <time>2016-05-16T15:20:07Z</time>
      </trkpt>
      <trkpt lat="48.06062" lon="-2.97015">
        <ele>67</ele>
        <time>2016-05-16T15:20:12Z</time>
      </trkpt>
      <trkpt lat="48.06043" lon="-2.97008">
        <ele>67</ele>
        <time>2016-05-16T15:20:17Z</time>
      </trkpt>
      <trkpt lat="48.06025" lon="-2.96999">
        <ele>66</ele>
        <time>2016-05-16T15:20:22Z</time>
      </trkpt>
      <trkpt lat="48.06007" lon="-2.9699">
        <ele>65</ele>
        <time>2016-05-16T15:20:27Z</time>
      </trkpt>
      <trkpt lat="48.05984" lon="-2.96973">
        <ele>65</ele>
        <time>2016-05-16T15:20:35Z</time>
      </trkpt>
      <trkpt lat="48.05965" lon="-2.96955">
        <ele>65</ele>
        <time>2016-05-16T15:20:40Z</time>
      </trkpt>
      <trkpt lat="48.0596" lon="-2.96947">
        <ele>65</ele>
        <time>2016-05-16T15:20:42Z</time>
      </trkpt>
      <trkpt lat="48.05945" lon="-2.96915">
        <ele>66</ele>
        <time>2016-05-16T15:20:49Z</time>
      </trkpt>
      <trkpt lat="48.0593" lon="-2.96884">
        <ele>67</ele>
        <time>2016-05-16T15:20:56Z</time>
      </trkpt>
      <trkpt lat="48.05928" lon="-2.9688">
        <ele>66</ele>
        <time>2016-05-16T15:20:57Z</time>
      </trkpt>
      <trkpt lat="48.05921" lon="-2.96861">
        <ele>67</ele>
        <time>2016-05-16T15:21:02Z</time>
      </trkpt>
      <trkpt lat="48.05915" lon="-2.96845">
        <ele>66</ele>
        <time>2016-05-16T15:21:07Z</time>
      </trkpt>
      <trkpt lat="48.05904" lon="-2.96826">
        <ele>64</ele>
        <time>2016-05-16T15:21:12Z</time>
      </trkpt>
      <trkpt lat="48.05894" lon="-2.96803">
        <ele>63</ele>
        <time>2016-05-16T15:21:17Z</time>
      </trkpt>
      <trkpt lat="48.05878" lon="-2.96765">
        <ele>62</ele>
        <time>2016-05-16T15:21:26Z</time>
      </trkpt>
      <trkpt lat="48.05875" lon="-2.96757">
        <ele>61</ele>
        <time>2016-05-16T15:21:28Z</time>
      </trkpt>
      <trkpt lat="48.05867" lon="-2.9674">
        <ele>61</ele>
        <time>2016-05-16T15:21:32Z</time>
      </trkpt>
      <trkpt lat="48.05856" lon="-2.96713">
        <ele>60</ele>
        <time>2016-05-16T15:21:38Z</time>
      </trkpt>
      <trkpt lat="48.05843" lon="-2.96679">
        <ele>60</ele>
        <time>2016-05-16T15:21:45Z</time>
      </trkpt>
      <trkpt lat="48.05839" lon="-2.96669">
        <ele>60</ele>
        <time>2016-05-16T15:21:47Z</time>
      </trkpt>
      <trkpt lat="48.0583" lon="-2.9665">
        <ele>62</ele>
        <time>2016-05-16T15:21:52Z</time>
      </trkpt>
      <trkpt lat="48.05823" lon="-2.96634">
        <ele>62</ele>
        <time>2016-05-16T15:21:57Z</time>
      </trkpt>
      <trkpt lat="48.0582" lon="-2.96621">
        <ele>63</ele>
        <time>2016-05-16T15:22:02Z</time>
      </trkpt>
      <trkpt lat="48.0581" lon="-2.96608">
        <ele>62</ele>
        <time>2016-05-16T15:22:07Z</time>
      </trkpt>
      <trkpt lat="48.058" lon="-2.96592">
        <ele>62</ele>
        <time>2016-05-16T15:22:12Z</time>
      </trkpt>
      <trkpt lat="48.0579" lon="-2.96574">
        <ele>62</ele>
        <time>2016-05-16T15:22:17Z</time>
      </trkpt>
      <trkpt lat="48.05774" lon="-2.96549">
        <ele>63</ele>
        <time>2016-05-16T15:22:22Z</time>
      </trkpt>
      <trkpt lat="48.05755" lon="-2.96525">
        <ele>63</ele>
        <time>2016-05-16T15:22:28Z</time>
      </trkpt>
      <trkpt lat="48.05736" lon="-2.96497">
        <ele>63</ele>
        <time>2016-05-16T15:22:32Z</time>
      </trkpt>
      <trkpt lat="48.05716" lon="-2.9647">
        <ele>63</ele>
        <time>2016-05-16T15:22:37Z</time>
      </trkpt>
      <trkpt lat="48.05704" lon="-2.96453">
        <ele>63</ele>
        <time>2016-05-16T15:22:42Z</time>
      </trkpt>
      <trkpt lat="48.0569" lon="-2.96435">
        <ele>63</ele>
        <time>2016-05-16T15:22:47Z</time>
      </trkpt>
      <trkpt lat="48.05669" lon="-2.96407">
        <ele>64</ele>
        <time>2016-05-16T15:22:52Z</time>
      </trkpt>
      <trkpt lat="48.05649" lon="-2.96379">
        <ele>63</ele>
        <time>2016-05-16T15:22:57Z</time>
      </trkpt>
      <trkpt lat="48.05628" lon="-2.96352">
        <ele>63</ele>
        <time>2016-05-16T15:23:02Z</time>
      </trkpt>
      <trkpt lat="48.05607" lon="-2.96325">
        <ele>62</ele>
        <time>2016-05-16T15:23:07Z</time>
      </trkpt>
      <trkpt lat="48.05586" lon="-2.963">
        <ele>62</ele>
        <time>2016-05-16T15:23:13Z</time>
      </trkpt>
      <trkpt lat="48.05556" lon="-2.96272">
        <ele>61</ele>
        <time>2016-05-16T15:23:19Z</time>
      </trkpt>
      <trkpt lat="48.05536" lon="-2.96258">
        <ele>62</ele>
        <time>2016-05-16T15:23:23Z</time>
      </trkpt>
      <trkpt lat="48.05506" lon="-2.96239">
        <ele>62</ele>
        <time>2016-05-16T15:23:29Z</time>
      </trkpt>
      <trkpt lat="48.05477" lon="-2.96218">
        <ele>61</ele>
        <time>2016-05-16T15:23:34Z</time>
      </trkpt>
      <trkpt lat="48.05462" lon="-2.96209">
        <ele>61</ele>
        <time>2016-05-16T15:23:37Z</time>
      </trkpt>
      <trkpt lat="48.05437" lon="-2.96193">
        <ele>60</ele>
        <time>2016-05-16T15:23:42Z</time>
      </trkpt>
      <trkpt lat="48.05406" lon="-2.96174">
        <ele>60</ele>
        <time>2016-05-16T15:23:48Z</time>
      </trkpt>
      <trkpt lat="48.0537" lon="-2.9615">
        <ele>59</ele>
        <time>2016-05-16T15:23:55Z</time>
      </trkpt>
      <trkpt lat="48.05337" lon="-2.96129">
        <ele>59</ele>
        <time>2016-05-16T15:24:01Z</time>
      </trkpt>
      <trkpt lat="48.05332" lon="-2.96125">
        <ele>59</ele>
        <time>2016-05-16T15:24:02Z</time>
      </trkpt>
      <trkpt lat="48.05298" lon="-2.96106">
        <ele>58</ele>
        <time>2016-05-16T15:24:08Z</time>
      </trkpt>
      <trkpt lat="48.05275" lon="-2.96092">
        <ele>58</ele>
        <time>2016-05-16T15:24:12Z</time>
      </trkpt>
      <trkpt lat="48.05245" lon="-2.9607">
        <ele>58</ele>
        <time>2016-05-16T15:24:17Z</time>
      </trkpt>
      <trkpt lat="48.05214" lon="-2.9605">
        <ele>58</ele>
        <time>2016-05-16T15:24:22Z</time>
      </trkpt>
      <trkpt lat="48.05179" lon="-2.96028">
        <ele>58</ele>
        <time>2016-05-16T15:24:28Z</time>
      </trkpt>
      <trkpt lat="48.05157" lon="-2.96012">
        <ele>58</ele>
        <time>2016-05-16T15:24:32Z</time>
      </trkpt>
      <trkpt lat="48.05129" lon="-2.95994">
        <ele>58</ele>
        <time>2016-05-16T15:24:37Z</time>
      </trkpt>
      <trkpt lat="48.051" lon="-2.95974">
        <ele>58</ele>
        <time>2016-05-16T15:24:42Z</time>
      </trkpt>
      <trkpt lat="48.05054" lon="-2.95947">
        <ele>58</ele>
        <time>2016-05-16T15:24:50Z</time>
      </trkpt>
      <trkpt lat="48.05044" lon="-2.9594">
        <ele>59</ele>
        <time>2016-05-16T15:24:52Z</time>
      </trkpt>
      <trkpt lat="48.05011" lon="-2.95919">
        <ele>59</ele>
        <time>2016-05-16T15:24:58Z</time>
      </trkpt>
      <trkpt lat="48.04989" lon="-2.95905">
        <ele>58</ele>
        <time>2016-05-16T15:25:02Z</time>
      </trkpt>
      <trkpt lat="48.04961" lon="-2.95891">
        <ele>58</ele>
        <time>2016-05-16T15:25:07Z</time>
      </trkpt>
      <trkpt lat="48.04933" lon="-2.95882">
        <ele>58</ele>
        <time>2016-05-16T15:25:12Z</time>
      </trkpt>
      <trkpt lat="48.04904" lon="-2.95877">
        <ele>58</ele>
        <time>2016-05-16T15:25:17Z</time>
      </trkpt>
      <trkpt lat="48.04859" lon="-2.95877">
        <ele>59</ele>
        <time>2016-05-16T15:25:25Z</time>
      </trkpt>
      <trkpt lat="48.04847" lon="-2.95877">
        <ele>60</ele>
        <time>2016-05-16T15:25:27Z</time>
      </trkpt>
      <trkpt lat="48.04805" lon="-2.95875">
        <ele>62</ele>
        <time>2016-05-16T15:25:34Z</time>
      </trkpt>
      <trkpt lat="48.04787" lon="-2.95876">
        <ele>62</ele>
        <time>2016-05-16T15:25:37Z</time>
      </trkpt>
      <trkpt lat="48.04757" lon="-2.95876">
        <ele>62</ele>
        <time>2016-05-16T15:25:42Z</time>
      </trkpt>
      <trkpt lat="48.04701" lon="-2.95877">
        <ele>65</ele>
        <time>2016-05-16T15:25:51Z</time>
      </trkpt>
      <trkpt lat="48.04695" lon="-2.95876">
        <ele>65</ele>
        <time>2016-05-16T15:25:52Z</time>
      </trkpt>
      <trkpt lat="48.04646" lon="-2.95884">
        <ele>65</ele>
        <time>2016-05-16T15:26:00Z</time>
      </trkpt>
      <trkpt lat="48.04635" lon="-2.95889">
        <ele>64</ele>
        <time>2016-05-16T15:26:02Z</time>
      </trkpt>
      <trkpt lat="48.04602" lon="-2.9591">
        <ele>65</ele>
        <time>2016-05-16T15:26:08Z</time>
      </trkpt>
      <trkpt lat="48.04578" lon="-2.95923">
        <ele>64</ele>
        <time>2016-05-16T15:26:12Z</time>
      </trkpt>
      <trkpt lat="48.04553" lon="-2.95948">
        <ele>64</ele>
        <time>2016-05-16T15:26:17Z</time>
      </trkpt>
      <trkpt lat="48.0453" lon="-2.95977">
        <ele>63</ele>
        <time>2016-05-16T15:26:22Z</time>
      </trkpt>
      <trkpt lat="48.04501" lon="-2.96013">
        <ele>63</ele>
        <time>2016-05-16T15:26:28Z</time>
      </trkpt>
      <trkpt lat="48.04485" lon="-2.96037">
        <ele>64</ele>
        <time>2016-05-16T15:26:32Z</time>
      </trkpt>
      <trkpt lat="48.04464" lon="-2.96069">
        <ele>64</ele>
        <time>2016-05-16T15:26:37Z</time>
      </trkpt>
      <trkpt lat="48.04438" lon="-2.96117">
        <ele>64</ele>
        <time>2016-05-16T15:26:44Z</time>
      </trkpt>
      <trkpt lat="48.04428" lon="-2.96139">
        <ele>63</ele>
        <time>2016-05-16T15:26:47Z</time>
      </trkpt>
      <trkpt lat="48.04413" lon="-2.96176">
        <ele>62</ele>
        <time>2016-05-16T15:26:52Z</time>
      </trkpt>
      <trkpt lat="48.04397" lon="-2.96211">
        <ele>62</ele>
        <time>2016-05-16T15:26:57Z</time>
      </trkpt>
      <trkpt lat="48.04383" lon="-2.96248">
        <ele>61</ele>
        <time>2016-05-16T15:27:02Z</time>
      </trkpt>
      <trkpt lat="48.04369" lon="-2.96285">
        <ele>62</ele>
        <time>2016-05-16T15:27:07Z</time>
      </trkpt>
      <trkpt lat="48.04353" lon="-2.96322">
        <ele>61</ele>
        <time>2016-05-16T15:27:12Z</time>
      </trkpt>
      <trkpt lat="48.04335" lon="-2.96367">
        <ele>61</ele>
        <time>2016-05-16T15:27:18Z</time>
      </trkpt>
      <trkpt lat="48.04316" lon="-2.96412">
        <ele>61</ele>
        <time>2016-05-16T15:27:24Z</time>
      </trkpt>
      <trkpt lat="48.04302" lon="-2.96439">
        <ele>61</ele>
        <time>2016-05-16T15:27:28Z</time>
      </trkpt>
      <trkpt lat="48.04283" lon="-2.96472">
        <ele>61</ele>
        <time>2016-05-16T15:27:33Z</time>
      </trkpt>
      <trkpt lat="48.04258" lon="-2.965">
        <ele>62</ele>
        <time>2016-05-16T15:27:38Z</time>
      </trkpt>
      <trkpt lat="48.04237" lon="-2.96519">
        <ele>62</ele>
        <time>2016-05-16T15:27:42Z</time>
      </trkpt>
      <trkpt lat="48.04206" lon="-2.96548">
        <ele>61</ele>
        <time>2016-05-16T15:27:48Z</time>
      </trkpt>
      <trkpt lat="48.04181" lon="-2.96571">
        <ele>62</ele>
        <time>2016-05-16T15:27:53Z</time>
      </trkpt>
      <trkpt lat="48.04145" lon="-2.96617">
        <ele>62</ele>
        <time>2016-05-16T15:28:01Z</time>
      </trkpt>
      <trkpt lat="48.04141" lon="-2.96623">
        <ele>62</ele>
        <time>2016-05-16T15:28:02Z</time>
      </trkpt>
      <trkpt lat="48.04118" lon="-2.96653">
        <ele>62</ele>
        <time>2016-05-16T15:28:07Z</time>
      </trkpt>
      <trkpt lat="48.04096" lon="-2.96683">
        <ele>61</ele>
        <time>2016-05-16T15:28:12Z</time>
      </trkpt>
      <trkpt lat="48.04073" lon="-2.96714">
        <ele>61</ele>
        <time>2016-05-16T15:28:17Z</time>
      </trkpt>
      <trkpt lat="48.0404" lon="-2.96754">
        <ele>61</ele>
        <time>2016-05-16T15:28:24Z</time>
      </trkpt>
      <trkpt lat="48.04025" lon="-2.9677">
        <ele>61</ele>
        <time>2016-05-16T15:28:27Z</time>
      </trkpt>
      <trkpt lat="48.03999" lon="-2.96792">
        <ele>61</ele>
        <time>2016-05-16T15:28:32Z</time>
      </trkpt>
      <trkpt lat="48.03974" lon="-2.96813">
        <ele>61</ele>
        <time>2016-05-16T15:28:37Z</time>
      </trkpt>
      <trkpt lat="48.03946" lon="-2.96835">
        <ele>62</ele>
        <time>2016-05-16T15:28:42Z</time>
      </trkpt>
      <trkpt lat="48.03918" lon="-2.96858">
        <ele>61</ele>
        <time>2016-05-16T15:28:47Z</time>
      </trkpt>
      <trkpt lat="48.0389" lon="-2.96878">
        <ele>61</ele>
        <time>2016-05-16T15:28:52Z</time>
      </trkpt>
      <trkpt lat="48.03862" lon="-2.96898">
        <ele>61</ele>
        <time>2016-05-16T15:28:57Z</time>
      </trkpt>
      <trkpt lat="48.03831" lon="-2.96923">
        <ele>61</ele>
        <time>2016-05-16T15:29:03Z</time>
      </trkpt>
      <trkpt lat="48.0381" lon="-2.96939">
        <ele>60</ele>
        <time>2016-05-16T15:29:07Z</time>
      </trkpt>
      <trkpt lat="48.03782" lon="-2.96957">
        <ele>59</ele>
        <time>2016-05-16T15:29:12Z</time>
      </trkpt>
      <trkpt lat="48.03748" lon="-2.96971">
        <ele>59</ele>
        <time>2016-05-16T15:29:18Z</time>
      </trkpt>
      <trkpt lat="48.03724" lon="-2.96977">
        <ele>61</ele>
        <time>2016-05-16T15:29:22Z</time>
      </trkpt>
      <trkpt lat="48.03693" lon="-2.96979">
        <ele>60</ele>
        <time>2016-05-16T15:29:27Z</time>
      </trkpt>
      <trkpt lat="48.0365" lon="-2.96975">
        <ele>60</ele>
        <time>2016-05-16T15:29:34Z</time>
      </trkpt>
      <trkpt lat="48.03633" lon="-2.96971">
        <ele>60</ele>
        <time>2016-05-16T15:29:37Z</time>
      </trkpt>
      <trkpt lat="48.03597" lon="-2.96962">
        <ele>61</ele>
        <time>2016-05-16T15:29:43Z</time>
      </trkpt>
      <trkpt lat="48.03573" lon="-2.96954">
        <ele>61</ele>
        <time>2016-05-16T15:29:47Z</time>
      </trkpt>
      <trkpt lat="48.03543" lon="-2.96946">
        <ele>60</ele>
        <time>2016-05-16T15:29:52Z</time>
      </trkpt>
      <trkpt lat="48.03494" lon="-2.96939">
        <ele>59</ele>
        <time>2016-05-16T15:30:00Z</time>
      </trkpt>
      <trkpt lat="48.03482" lon="-2.9694">
        <ele>60</ele>
        <time>2016-05-16T15:30:02Z</time>
      </trkpt>
      <trkpt lat="48.03451" lon="-2.96942">
        <ele>60</ele>
        <time>2016-05-16T15:30:07Z</time>
      </trkpt>
      <trkpt lat="48.03419" lon="-2.96946">
        <ele>60</ele>
        <time>2016-05-16T15:30:12Z</time>
      </trkpt>
      <trkpt lat="48.03387" lon="-2.96949">
        <ele>61</ele>
        <time>2016-05-16T15:30:17Z</time>
      </trkpt>
      <trkpt lat="48.03356" lon="-2.96956">
        <ele>61</ele>
        <time>2016-05-16T15:30:22Z</time>
      </trkpt>
      <trkpt lat="48.03326" lon="-2.9696">
        <ele>62</ele>
        <time>2016-05-16T15:30:27Z</time>
      </trkpt>
      <trkpt lat="48.03293" lon="-2.96961">
        <ele>62</ele>
        <time>2016-05-16T15:30:32Z</time>
      </trkpt>
      <trkpt lat="48.03255" lon="-2.96961">
        <ele>61</ele>
        <time>2016-05-16T15:30:38Z</time>
      </trkpt>
      <trkpt lat="48.03229" lon="-2.96957">
        <ele>61</ele>
        <time>2016-05-16T15:30:42Z</time>
      </trkpt>
      <trkpt lat="48.03192" lon="-2.96953">
        <ele>60</ele>
        <time>2016-05-16T15:30:48Z</time>
      </trkpt>
      <trkpt lat="48.03168" lon="-2.96956">
        <ele>59</ele>
        <time>2016-05-16T15:30:52Z</time>
      </trkpt>
      <trkpt lat="48.03139" lon="-2.96962">
        <ele>60</ele>
        <time>2016-05-16T15:30:57Z</time>
      </trkpt>
      <trkpt lat="48.03108" lon="-2.96981">
        <ele>61</ele>
        <time>2016-05-16T15:31:03Z</time>
      </trkpt>
      <trkpt lat="48.0309" lon="-2.96998">
        <ele>62</ele>
        <time>2016-05-16T15:31:07Z</time>
      </trkpt>
      <trkpt lat="48.03068" lon="-2.97023">
        <ele>62</ele>
        <time>2016-05-16T15:31:12Z</time>
      </trkpt>
      <trkpt lat="48.0304" lon="-2.97066">
        <ele>63</ele>
        <time>2016-05-16T15:31:19Z</time>
      </trkpt>
      <trkpt lat="48.03014" lon="-2.97113">
        <ele>63</ele>
        <time>2016-05-16T15:31:26Z</time>
      </trkpt>
      <trkpt lat="48.03011" lon="-2.97121">
        <ele>64</ele>
        <time>2016-05-16T15:31:27Z</time>
      </trkpt>
      <trkpt lat="48.02987" lon="-2.97165">
        <ele>63</ele>
        <time>2016-05-16T15:31:33Z</time>
      </trkpt>
      <trkpt lat="48.02955" lon="-2.97224">
        <ele>63</ele>
        <time>2016-05-16T15:31:41Z</time>
      </trkpt>
      <trkpt lat="48.02951" lon="-2.97231">
        <ele>62</ele>
        <time>2016-05-16T15:31:42Z</time>
      </trkpt>
      <trkpt lat="48.0293" lon="-2.97269">
        <ele>62</ele>
        <time>2016-05-16T15:31:47Z</time>
      </trkpt>
      <trkpt lat="48.02901" lon="-2.97323">
        <ele>60</ele>
        <time>2016-05-16T15:31:54Z</time>
      </trkpt>
      <trkpt lat="48.02889" lon="-2.97346">
        <ele>60</ele>
        <time>2016-05-16T15:31:57Z</time>
      </trkpt>
      <trkpt lat="48.02858" lon="-2.97399">
        <ele>58</ele>
        <time>2016-05-16T15:32:04Z</time>
      </trkpt>
      <trkpt lat="48.02842" lon="-2.97431">
        <ele>58</ele>
        <time>2016-05-16T15:32:08Z</time>
      </trkpt>
      <trkpt lat="48.02825" lon="-2.97462">
        <ele>59</ele>
        <time>2016-05-16T15:32:12Z</time>
      </trkpt>
      <trkpt lat="48.02777" lon="-2.97506">
        <ele>59</ele>
        <time>2016-05-16T15:32:21Z</time>
      </trkpt>
      <trkpt lat="48.0277" lon="-2.97507">
        <ele>59</ele>
        <time>2016-05-16T15:32:22Z</time>
      </trkpt>
      <trkpt lat="48.02741" lon="-2.97514">
        <ele>60</ele>
        <time>2016-05-16T15:32:27Z</time>
      </trkpt>
      <trkpt lat="48.02713" lon="-2.9752">
        <ele>62</ele>
        <time>2016-05-16T15:32:33Z</time>
      </trkpt>
      <trkpt lat="48.02688" lon="-2.97517">
        <ele>62</ele>
        <time>2016-05-16T15:32:38Z</time>
      </trkpt>
      <trkpt lat="48.02668" lon="-2.97513">
        <ele>61</ele>
        <time>2016-05-16T15:32:42Z</time>
      </trkpt>
      <trkpt lat="48.02644" lon="-2.97505">
        <ele>62</ele>
        <time>2016-05-16T15:32:47Z</time>
      </trkpt>
      <trkpt lat="48.0262" lon="-2.97497">
        <ele>61</ele>
        <time>2016-05-16T15:32:52Z</time>
      </trkpt>
      <trkpt lat="48.02591" lon="-2.97485">
        <ele>61</ele>
        <time>2016-05-16T15:32:58Z</time>
      </trkpt>
      <trkpt lat="48.02572" lon="-2.97479">
        <ele>59</ele>
        <time>2016-05-16T15:33:02Z</time>
      </trkpt>
      <trkpt lat="48.0255" lon="-2.97469">
        <ele>58</ele>
        <time>2016-05-16T15:33:07Z</time>
      </trkpt>
      <trkpt lat="48.02525" lon="-2.97458">
        <ele>57</ele>
        <time>2016-05-16T15:33:12Z</time>
      </trkpt>
      <trkpt lat="48.02487" lon="-2.97445">
        <ele>57</ele>
        <time>2016-05-16T15:33:20Z</time>
      </trkpt>
      <trkpt lat="48.02455" lon="-2.97439">
        <ele>57</ele>
        <time>2016-05-16T15:33:26Z</time>
      </trkpt>
      <trkpt lat="48.0245" lon="-2.97437">
        <ele>57</ele>
        <time>2016-05-16T15:33:27Z</time>
      </trkpt>
      <trkpt lat="48.02423" lon="-2.97429">
        <ele>58</ele>
        <time>2016-05-16T15:33:32Z</time>
      </trkpt>
      <trkpt lat="48.02396" lon="-2.9742">
        <ele>58</ele>
        <time>2016-05-16T15:33:37Z</time>
      </trkpt>
      <trkpt lat="48.02366" lon="-2.97413">
        <ele>59</ele>
        <time>2016-05-16T15:33:42Z</time>
      </trkpt>
      <trkpt lat="48.02338" lon="-2.97409">
        <ele>59</ele>
        <time>2016-05-16T15:33:47Z</time>
      </trkpt>
      <trkpt lat="48.02309" lon="-2.97411">
        <ele>60</ele>
        <time>2016-05-16T15:33:52Z</time>
      </trkpt>
      <trkpt lat="48.02264" lon="-2.9742">
        <ele>60</ele>
        <time>2016-05-16T15:34:00Z</time>
      </trkpt>
      <trkpt lat="48.02253" lon="-2.97422">
        <ele>60</ele>
        <time>2016-05-16T15:34:02Z</time>
      </trkpt>
      <trkpt lat="48.02207" lon="-2.97436">
        <ele>60</ele>
        <time>2016-05-16T15:34:10Z</time>
      </trkpt>
      <trkpt lat="48.02191" lon="-2.97445">
        <ele>61</ele>
        <time>2016-05-16T15:34:13Z</time>
      </trkpt>
      <trkpt lat="48.02169" lon="-2.97459">
        <ele>61</ele>
        <time>2016-05-16T15:34:17Z</time>
      </trkpt>
      <trkpt lat="48.02127" lon="-2.97491">
        <ele>60</ele>
        <time>2016-05-16T15:34:25Z</time>
      </trkpt>
      <trkpt lat="48.02119" lon="-2.97498">
        <ele>60</ele>
        <time>2016-05-16T15:34:27Z</time>
      </trkpt>
      <trkpt lat="48.02101" lon="-2.97515">
        <ele>58</ele>
        <time>2016-05-16T15:34:32Z</time>
      </trkpt>
      <trkpt lat="48.02089" lon="-2.97527">
        <ele>58</ele>
        <time>2016-05-16T15:34:38Z</time>
      </trkpt>
      <trkpt lat="48.02081" lon="-2.97537">
        <ele>60</ele>
        <time>2016-05-16T15:34:42Z</time>
      </trkpt>
      <trkpt lat="48.02064" lon="-2.97556">
        <ele>61</ele>
        <time>2016-05-16T15:34:47Z</time>
      </trkpt>
      <trkpt lat="48.02043" lon="-2.97573">
        <ele>63</ele>
        <time>2016-05-16T15:34:52Z</time>
      </trkpt>
      <trkpt lat="48.02015" lon="-2.97591">
        <ele>63</ele>
        <time>2016-05-16T15:34:58Z</time>
      </trkpt>
      <trkpt lat="48.0198" lon="-2.97608">
        <ele>64</ele>
        <time>2016-05-16T15:35:04Z</time>
      </trkpt>
      <trkpt lat="48.0196" lon="-2.97613">
        <ele>64</ele>
        <time>2016-05-16T15:35:07Z</time>
      </trkpt>
      <trkpt lat="48.01928" lon="-2.97622">
        <ele>63</ele>
        <time>2016-05-16T15:35:12Z</time>
      </trkpt>
      <trkpt lat="48.01897" lon="-2.97629">
        <ele>62</ele>
        <time>2016-05-16T15:35:17Z</time>
      </trkpt>
      <trkpt lat="48.01866" lon="-2.97637">
        <ele>61</ele>
        <time>2016-05-16T15:35:22Z</time>
      </trkpt>
      <trkpt lat="48.01837" lon="-2.97645">
        <ele>60</ele>
        <time>2016-05-16T15:35:27Z</time>
      </trkpt>
      <trkpt lat="48.0181" lon="-2.97658">
        <ele>60</ele>
        <time>2016-05-16T15:35:32Z</time>
      </trkpt>
      <trkpt lat="48.01784" lon="-2.9768">
        <ele>59</ele>
        <time>2016-05-16T15:35:37Z</time>
      </trkpt>
      <trkpt lat="48.01762" lon="-2.97709">
        <ele>59</ele>
        <time>2016-05-16T15:35:42Z</time>
      </trkpt>
      <trkpt lat="48.01745" lon="-2.97745">
        <ele>58</ele>
        <time>2016-05-16T15:35:47Z</time>
      </trkpt>
      <trkpt lat="48.01729" lon="-2.97781">
        <ele>56</ele>
        <time>2016-05-16T15:35:52Z</time>
      </trkpt>
      <trkpt lat="48.01718" lon="-2.97813">
        <ele>56</ele>
        <time>2016-05-16T15:35:57Z</time>
      </trkpt>
      <trkpt lat="48.0171" lon="-2.9783">
        <ele>56</ele>
        <time>2016-05-16T15:36:02Z</time>
      </trkpt>
      <trkpt lat="48.01708" lon="-2.97846">
        <ele>57</ele>
        <time>2016-05-16T15:36:07Z</time>
      </trkpt>
      <trkpt lat="48.01703" lon="-2.97866">
        <ele>58</ele>
        <time>2016-05-16T15:36:12Z</time>
      </trkpt>
      <trkpt lat="48.01697" lon="-2.9788">
        <ele>58</ele>
        <time>2016-05-16T15:36:17Z</time>
      </trkpt>
      <trkpt lat="48.01696" lon="-2.97897">
        <ele>57</ele>
        <time>2016-05-16T15:36:22Z</time>
      </trkpt>
      <trkpt lat="48.01696" lon="-2.97917">
        <ele>57</ele>
        <time>2016-05-16T15:36:27Z</time>
      </trkpt>
      <trkpt lat="48.01696" lon="-2.97942">
        <ele>56</ele>
        <time>2016-05-16T15:36:32Z</time>
      </trkpt>
      <trkpt lat="48.01711" lon="-2.98003">
        <ele>56</ele>
        <time>2016-05-16T15:36:41Z</time>
      </trkpt>
      <trkpt lat="48.01714" lon="-2.9801">
        <ele>57</ele>
        <time>2016-05-16T15:36:42Z</time>
      </trkpt>
      <trkpt lat="48.01716" lon="-2.98049">
        <ele>56</ele>
        <time>2016-05-16T15:36:47Z</time>
      </trkpt>
      <trkpt lat="48.01726" lon="-2.98105">
        <ele>56</ele>
        <time>2016-05-16T15:36:54Z</time>
      </trkpt>
      <trkpt lat="48.01732" lon="-2.98127">
        <ele>55</ele>
        <time>2016-05-16T15:36:57Z</time>
      </trkpt>
      <trkpt lat="48.01746" lon="-2.98178">
        <ele>55</ele>
        <time>2016-05-16T15:37:04Z</time>
      </trkpt>
      <trkpt lat="48.01752" lon="-2.98198">
        <ele>55</ele>
        <time>2016-05-16T15:37:07Z</time>
      </trkpt>
      <trkpt lat="48.01764" lon="-2.98242">
        <ele>56</ele>
        <time>2016-05-16T15:37:13Z</time>
      </trkpt>
      <trkpt lat="48.0177" lon="-2.98302">
        <ele>55</ele>
        <time>2016-05-16T15:37:20Z</time>
      </trkpt>
      <trkpt lat="48.0177" lon="-2.98314">
        <ele>55</ele>
        <time>2016-05-16T15:37:22Z</time>
      </trkpt>
      <trkpt lat="48.01773" lon="-2.98347">
        <ele>56</ele>
        <time>2016-05-16T15:37:28Z</time>
      </trkpt>
      <trkpt lat="48.01775" lon="-2.9837">
        <ele>55</ele>
        <time>2016-05-16T15:37:32Z</time>
      </trkpt>
      <trkpt lat="48.01777" lon="-2.98404">
        <ele>54</ele>
        <time>2016-05-16T15:37:37Z</time>
      </trkpt>
      <trkpt lat="48.01777" lon="-2.98439">
        <ele>53</ele>
        <time>2016-05-16T15:37:42Z</time>
      </trkpt>
      <trkpt lat="48.01776" lon="-2.98478">
        <ele>52</ele>
        <time>2016-05-16T15:37:47Z</time>
      </trkpt>
      <trkpt lat="48.01772" lon="-2.98517">
        <ele>53</ele>
        <time>2016-05-16T15:37:52Z</time>
      </trkpt>
      <trkpt lat="48.01758" lon="-2.98588">
        <ele>51</ele>
        <time>2016-05-16T15:38:00Z</time>
      </trkpt>
      <trkpt lat="48.01753" lon="-2.98624">
        <ele>50</ele>
        <time>2016-05-16T15:38:04Z</time>
      </trkpt>
      <trkpt lat="48.01743" lon="-2.98677">
        <ele>48</ele>
        <time>2016-05-16T15:38:10Z</time>
      </trkpt>
      <trkpt lat="48.01739" lon="-2.98699">
        <ele>48</ele>
        <time>2016-05-16T15:38:13Z</time>
      </trkpt>
      <trkpt lat="48.01734" lon="-2.98724">
        <ele>47</ele>
        <time>2016-05-16T15:38:17Z</time>
      </trkpt>
      <trkpt lat="48.01728" lon="-2.98776">
        <ele>47</ele>
        <time>2016-05-16T15:38:24Z</time>
      </trkpt>
      <trkpt lat="48.01727" lon="-2.98801">
        <ele>48</ele>
        <time>2016-05-16T15:38:27Z</time>
      </trkpt>
      <trkpt lat="48.01728" lon="-2.98862">
        <ele>49</ele>
        <time>2016-05-16T15:38:34Z</time>
      </trkpt>
      <trkpt lat="48.01728" lon="-2.9889">
        <ele>50</ele>
        <time>2016-05-16T15:38:37Z</time>
      </trkpt>
      <trkpt lat="48.01729" lon="-2.98965">
        <ele>50</ele>
        <time>2016-05-16T15:38:45Z</time>
      </trkpt>
      <trkpt lat="48.01728" lon="-2.98983">
        <ele>50</ele>
        <time>2016-05-16T15:38:47Z</time>
      </trkpt>
      <trkpt lat="48.01722" lon="-2.99029">
        <ele>50</ele>
        <time>2016-05-16T15:38:52Z</time>
      </trkpt>
      <trkpt lat="48.01714" lon="-2.99074">
        <ele>51</ele>
        <time>2016-05-16T15:38:57Z</time>
      </trkpt>
      <trkpt lat="48.01715" lon="-2.99146">
        <ele>52</ele>
        <time>2016-05-16T15:39:05Z</time>
      </trkpt>
      <trkpt lat="48.01715" lon="-2.99165">
        <ele>52</ele>
        <time>2016-05-16T15:39:07Z</time>
      </trkpt>
      <trkpt lat="48.01714" lon="-2.9922">
        <ele>52</ele>
        <time>2016-05-16T15:39:13Z</time>
      </trkpt>
      <trkpt lat="48.01708" lon="-2.99257">
        <ele>52</ele>
        <time>2016-05-16T15:39:17Z</time>
      </trkpt>
      <trkpt lat="48.01697" lon="-2.993">
        <ele>52</ele>
        <time>2016-05-16T15:39:22Z</time>
      </trkpt>
      <trkpt lat="48.01687" lon="-2.99344">
        <ele>51</ele>
        <time>2016-05-16T15:39:27Z</time>
      </trkpt>
      <trkpt lat="48.01674" lon="-2.99403">
        <ele>50</ele>
        <time>2016-05-16T15:39:34Z</time>
      </trkpt>
      <trkpt lat="48.0167" lon="-2.99429">
        <ele>50</ele>
        <time>2016-05-16T15:39:37Z</time>
      </trkpt>
      <trkpt lat="48.01664" lon="-2.9947">
        <ele>50</ele>
        <time>2016-05-16T15:39:42Z</time>
      </trkpt>
      <trkpt lat="48.01652" lon="-2.99531">
        <ele>49</ele>
        <time>2016-05-16T15:39:49Z</time>
      </trkpt>
      <trkpt lat="48.01644" lon="-2.99558">
        <ele>49</ele>
        <time>2016-05-16T15:39:52Z</time>
      </trkpt>
      <trkpt lat="48.01627" lon="-2.99597">
        <ele>48</ele>
        <time>2016-05-16T15:39:57Z</time>
      </trkpt>
      <trkpt lat="48.016" lon="-2.9963">
        <ele>50</ele>
        <time>2016-05-16T15:40:03Z</time>
      </trkpt>
      <trkpt lat="48.0157" lon="-2.99655">
        <ele>49</ele>
        <time>2016-05-16T15:40:09Z</time>
      </trkpt>
      <trkpt lat="48.01535" lon="-2.99675">
        <ele>49</ele>
        <time>2016-05-16T15:40:15Z</time>
      </trkpt>
      <trkpt lat="48.01523" lon="-2.99681">
        <ele>49</ele>
        <time>2016-05-16T15:40:17Z</time>
      </trkpt>
      <trkpt lat="48.01483" lon="-2.99703">
        <ele>50</ele>
        <time>2016-05-16T15:40:24Z</time>
      </trkpt>
      <trkpt lat="48.01466" lon="-2.99712">
        <ele>50</ele>
        <time>2016-05-16T15:40:27Z</time>
      </trkpt>
      <trkpt lat="48.0144" lon="-2.99726">
        <ele>49</ele>
        <time>2016-05-16T15:40:32Z</time>
      </trkpt>
      <trkpt lat="48.01413" lon="-2.99747">
        <ele>50</ele>
        <time>2016-05-16T15:40:38Z</time>
      </trkpt>
      <trkpt lat="48.01395" lon="-2.99768">
        <ele>50</ele>
        <time>2016-05-16T15:40:42Z</time>
      </trkpt>
      <trkpt lat="48.01373" lon="-2.99803">
        <ele>50</ele>
        <time>2016-05-16T15:40:47Z</time>
      </trkpt>
      <trkpt lat="48.0135" lon="-2.99849">
        <ele>50</ele>
        <time>2016-05-16T15:40:53Z</time>
      </trkpt>
      <trkpt lat="48.01327" lon="-2.99904">
        <ele>53</ele>
        <time>2016-05-16T15:41:00Z</time>
      </trkpt>
      <trkpt lat="48.0132" lon="-2.9992">
        <ele>53</ele>
        <time>2016-05-16T15:41:02Z</time>
      </trkpt>
      <trkpt lat="48.01303" lon="-2.9996">
        <ele>53</ele>
        <time>2016-05-16T15:41:07Z</time>
      </trkpt>
      <trkpt lat="48.01287" lon="-3">
        <ele>52</ele>
        <time>2016-05-16T15:41:12Z</time>
      </trkpt>
      <trkpt lat="48.01274" lon="-3.00042">
        <ele>51</ele>
        <time>2016-05-16T15:41:17Z</time>
      </trkpt>
      <trkpt lat="48.01259" lon="-3.00084">
        <ele>51</ele>
        <time>2016-05-16T15:41:22Z</time>
      </trkpt>
      <trkpt lat="48.01237" lon="-3.00115">
        <ele>50</ele>
        <time>2016-05-16T15:41:27Z</time>
      </trkpt>
      <trkpt lat="48.01209" lon="-3.00108">
        <ele>51</ele>
        <time>2016-05-16T15:41:32Z</time>
      </trkpt>
      <trkpt lat="48.01182" lon="-3.0009">
        <ele>52</ele>
        <time>2016-05-16T15:41:37Z</time>
      </trkpt>
      <trkpt lat="48.01159" lon="-3.00068">
        <ele>53</ele>
        <time>2016-05-16T15:41:42Z</time>
      </trkpt>
      <trkpt lat="48.01138" lon="-3.00038">
        <ele>53</ele>
        <time>2016-05-16T15:41:47Z</time>
      </trkpt>
      <trkpt lat="48.01117" lon="-3.0001">
        <ele>55</ele>
        <time>2016-05-16T15:41:52Z</time>
      </trkpt>
      <trkpt lat="48.0109" lon="-2.99974">
        <ele>56</ele>
        <time>2016-05-16T15:41:58Z</time>
      </trkpt>
      <trkpt lat="48.01066" lon="-2.99946">
        <ele>56</ele>
        <time>2016-05-16T15:42:03Z</time>
      </trkpt>
      <trkpt lat="48.01046" lon="-2.9992">
        <ele>55</ele>
        <time>2016-05-16T15:42:07Z</time>
      </trkpt>
      <trkpt lat="48.01018" lon="-2.99882">
        <ele>55</ele>
        <time>2016-05-16T15:42:13Z</time>
      </trkpt>
      <trkpt lat="48.01" lon="-2.99856">
        <ele>56</ele>
        <time>2016-05-16T15:42:17Z</time>
      </trkpt>
      <trkpt lat="48.00977" lon="-2.99826">
        <ele>55</ele>
        <time>2016-05-16T15:42:22Z</time>
      </trkpt>
      <trkpt lat="48.00955" lon="-2.99793">
        <ele>55</ele>
        <time>2016-05-16T15:42:27Z</time>
      </trkpt>
      <trkpt lat="48.00927" lon="-2.99729">
        <ele>56</ele>
        <time>2016-05-16T15:42:35Z</time>
      </trkpt>
      <trkpt lat="48.00918" lon="-2.99703">
        <ele>56</ele>
        <time>2016-05-16T15:42:38Z</time>
      </trkpt>
      <trkpt lat="48.00908" lon="-2.99667">
        <ele>55</ele>
        <time>2016-05-16T15:42:42Z</time>
      </trkpt>
      <trkpt lat="48.00894" lon="-2.99628">
        <ele>55</ele>
        <time>2016-05-16T15:42:47Z</time>
      </trkpt>
      <trkpt lat="48.00884" lon="-2.99586">
        <ele>54</ele>
        <time>2016-05-16T15:42:52Z</time>
      </trkpt>
      <trkpt lat="48.0087" lon="-2.99531">
        <ele>53</ele>
        <time>2016-05-16T15:42:58Z</time>
      </trkpt>
      <trkpt lat="48.00848" lon="-2.99471">
        <ele>53</ele>
        <time>2016-05-16T15:43:05Z</time>
      </trkpt>
      <trkpt lat="48.00831" lon="-2.99445">
        <ele>53</ele>
        <time>2016-05-16T15:43:09Z</time>
      </trkpt>
      <trkpt lat="48.00817" lon="-2.99427">
        <ele>52</ele>
        <time>2016-05-16T15:43:12Z</time>
      </trkpt>
      <trkpt lat="48.00792" lon="-2.994">
        <ele>52</ele>
        <time>2016-05-16T15:43:17Z</time>
      </trkpt>
      <trkpt lat="48.00765" lon="-2.99382">
        <ele>53</ele>
        <time>2016-05-16T15:43:22Z</time>
      </trkpt>
      <trkpt lat="48.00741" lon="-2.99361">
        <ele>53</ele>
        <time>2016-05-16T15:43:27Z</time>
      </trkpt>
      <trkpt lat="48.00726" lon="-2.99294">
        <ele>52</ele>
        <time>2016-05-16T15:43:34Z</time>
      </trkpt>
      <trkpt lat="48.00716" lon="-2.99251">
        <ele>53</ele>
        <time>2016-05-16T15:43:39Z</time>
      </trkpt>
      <trkpt lat="48.0071" lon="-2.99226">
        <ele>53</ele>
        <time>2016-05-16T15:43:42Z</time>
      </trkpt>
      <trkpt lat="48.00698" lon="-2.99186">
        <ele>52</ele>
        <time>2016-05-16T15:43:47Z</time>
      </trkpt>
      <trkpt lat="48.00685" lon="-2.99148">
        <ele>52</ele>
        <time>2016-05-16T15:43:52Z</time>
      </trkpt>
      <trkpt lat="48.0067" lon="-2.991">
        <ele>54</ele>
        <time>2016-05-16T15:43:58Z</time>
      </trkpt>
      <trkpt lat="48.0066" lon="-2.99066">
        <ele>54</ele>
        <time>2016-05-16T15:44:02Z</time>
      </trkpt>
      <trkpt lat="48.00639" lon="-2.99015">
        <ele>54</ele>
        <time>2016-05-16T15:44:09Z</time>
      </trkpt>
      <trkpt lat="48.00628" lon="-2.98994">
        <ele>52</ele>
        <time>2016-05-16T15:44:12Z</time>
      </trkpt>
      <trkpt lat="48.00607" lon="-2.98969">
        <ele>52</ele>
        <time>2016-05-16T15:44:17Z</time>
      </trkpt>
      <trkpt lat="48.00582" lon="-2.98937">
        <ele>53</ele>
        <time>2016-05-16T15:44:23Z</time>
      </trkpt>
      <trkpt lat="48.00558" lon="-2.98917">
        <ele>54</ele>
        <time>2016-05-16T15:44:28Z</time>
      </trkpt>
      <trkpt lat="48.00536" lon="-2.98906">
        <ele>55</ele>
        <time>2016-05-16T15:44:32Z</time>
      </trkpt>
      <trkpt lat="48.00509" lon="-2.9889">
        <ele>56</ele>
        <time>2016-05-16T15:44:37Z</time>
      </trkpt>
      <trkpt lat="48.00469" lon="-2.98871">
        <ele>56</ele>
        <time>2016-05-16T15:44:44Z</time>
      </trkpt>
      <trkpt lat="48.00452" lon="-2.98864">
        <ele>55</ele>
        <time>2016-05-16T15:44:47Z</time>
      </trkpt>
      <trkpt lat="48.00405" lon="-2.98855">
        <ele>55</ele>
        <time>2016-05-16T15:44:55Z</time>
      </trkpt>
      <trkpt lat="48.00374" lon="-2.98853">
        <ele>55</ele>
        <time>2016-05-16T15:45:00Z</time>
      </trkpt>
      <trkpt lat="48.00362" lon="-2.98854">
        <ele>54</ele>
        <time>2016-05-16T15:45:02Z</time>
      </trkpt>
      <trkpt lat="48.0033" lon="-2.98857">
        <ele>54</ele>
        <time>2016-05-16T15:45:07Z</time>
      </trkpt>
      <trkpt lat="48.00304" lon="-2.98861">
        <ele>53</ele>
        <time>2016-05-16T15:45:12Z</time>
      </trkpt>
      <trkpt lat="48.00274" lon="-2.98871">
        <ele>52</ele>
        <time>2016-05-16T15:45:17Z</time>
      </trkpt>
      <trkpt lat="48.00227" lon="-2.98896">
        <ele>52</ele>
        <time>2016-05-16T15:45:25Z</time>
      </trkpt>
      <trkpt lat="48.00217" lon="-2.98905">
        <ele>52</ele>
        <time>2016-05-16T15:45:27Z</time>
      </trkpt>
      <trkpt lat="48.0019" lon="-2.98926">
        <ele>53</ele>
        <time>2016-05-16T15:45:32Z</time>
      </trkpt>
      <trkpt lat="48.00149" lon="-2.98961">
        <ele>52</ele>
        <time>2016-05-16T15:45:40Z</time>
      </trkpt>
      <trkpt lat="48.0014" lon="-2.98971">
        <ele>52</ele>
        <time>2016-05-16T15:45:42Z</time>
      </trkpt>
      <trkpt lat="48.00114" lon="-2.99017">
        <ele>53</ele>
        <time>2016-05-16T15:45:49Z</time>
      </trkpt>
      <trkpt lat="48.00103" lon="-2.99046">
        <ele>52</ele>
        <time>2016-05-16T15:45:53Z</time>
      </trkpt>
      <trkpt lat="48.00089" lon="-2.99076">
        <ele>52</ele>
        <time>2016-05-16T15:45:57Z</time>
      </trkpt>
      <trkpt lat="48.00077" lon="-2.99117">
        <ele>52</ele>
        <time>2016-05-16T15:46:02Z</time>
      </trkpt>
      <trkpt lat="48.00068" lon="-2.99158">
        <ele>52</ele>
        <time>2016-05-16T15:46:07Z</time>
      </trkpt>
      <trkpt lat="48.00066" lon="-2.99204">
        <ele>53</ele>
        <time>2016-05-16T15:46:12Z</time>
      </trkpt>
      <trkpt lat="48.00072" lon="-2.9928">
        <ele>56</ele>
        <time>2016-05-16T15:46:21Z</time>
      </trkpt>
      <trkpt lat="48.00073" lon="-2.99288">
        <ele>55</ele>
        <time>2016-05-16T15:46:22Z</time>
      </trkpt>
      <trkpt lat="48.00087" lon="-2.99329">
        <ele>56</ele>
        <time>2016-05-16T15:46:27Z</time>
      </trkpt>
      <trkpt lat="48.00094" lon="-2.99374">
        <ele>57</ele>
        <time>2016-05-16T15:46:32Z</time>
      </trkpt>
      <trkpt lat="48.00099" lon="-2.99421">
        <ele>56</ele>
        <time>2016-05-16T15:46:37Z</time>
      </trkpt>
      <trkpt lat="48.001" lon="-2.99466">
        <ele>55</ele>
        <time>2016-05-16T15:46:42Z</time>
      </trkpt>
      <trkpt lat="48.00104" lon="-2.99509">
        <ele>55</ele>
        <time>2016-05-16T15:46:47Z</time>
      </trkpt>
      <trkpt lat="48.00105" lon="-2.99554">
        <ele>54</ele>
        <time>2016-05-16T15:46:52Z</time>
      </trkpt>
      <trkpt lat="48.00105" lon="-2.99605">
        <ele>50</ele>
        <time>2016-05-16T15:46:58Z</time>
      </trkpt>
      <trkpt lat="48.00108" lon="-2.9964">
        <ele>50</ele>
        <time>2016-05-16T15:47:02Z</time>
      </trkpt>
      <trkpt lat="48.0011" lon="-2.99682">
        <ele>49</ele>
        <time>2016-05-16T15:47:07Z</time>
      </trkpt>
      <trkpt lat="48.00109" lon="-2.99727">
        <ele>49</ele>
        <time>2016-05-16T15:47:12Z</time>
      </trkpt>
      <trkpt lat="48.00107" lon="-2.9977">
        <ele>48</ele>
        <time>2016-05-16T15:47:17Z</time>
      </trkpt>
      <trkpt lat="48.0011" lon="-2.99815">
        <ele>48</ele>
        <time>2016-05-16T15:47:22Z</time>
      </trkpt>
      <trkpt lat="48.00114" lon="-2.99877">
        <ele>47</ele>
        <time>2016-05-16T15:47:29Z</time>
      </trkpt>
      <trkpt lat="48.00118" lon="-2.99902">
        <ele>48</ele>
        <time>2016-05-16T15:47:32Z</time>
      </trkpt>
      <trkpt lat="48.00125" lon="-2.99945">
        <ele>48</ele>
        <time>2016-05-16T15:47:37Z</time>
      </trkpt>
      <trkpt lat="48.0013" lon="-2.99988">
        <ele>48</ele>
        <time>2016-05-16T15:47:42Z</time>
      </trkpt>
      <trkpt lat="48.00133" lon="-3.00029">
        <ele>48</ele>
        <time>2016-05-16T15:47:47Z</time>
      </trkpt>
      <trkpt lat="48.00137" lon="-3.00099">
        <ele>47</ele>
        <time>2016-05-16T15:47:55Z</time>
      </trkpt>
      <trkpt lat="48.00137" lon="-3.00118">
        <ele>46</ele>
        <time>2016-05-16T15:47:57Z</time>
      </trkpt>
      <trkpt lat="48.00139" lon="-3.00187">
        <ele>45</ele>
        <time>2016-05-16T15:48:05Z</time>
      </trkpt>
      <trkpt lat="48.00135" lon="-3.00222">
        <ele>45</ele>
        <time>2016-05-16T15:48:09Z</time>
      </trkpt>
      <trkpt lat="48.00135" lon="-3.00256">
        <ele>45</ele>
        <time>2016-05-16T15:48:13Z</time>
      </trkpt>
      <trkpt lat="48.00135" lon="-3.00291">
        <ele>45</ele>
        <time>2016-05-16T15:48:17Z</time>
      </trkpt>
      <trkpt lat="48.00136" lon="-3.00337">
        <ele>46</ele>
        <time>2016-05-16T15:48:22Z</time>
      </trkpt>
      <trkpt lat="48.00137" lon="-3.00383">
        <ele>46</ele>
        <time>2016-05-16T15:48:27Z</time>
      </trkpt>
      <trkpt lat="48.0014" lon="-3.00427">
        <ele>47</ele>
        <time>2016-05-16T15:48:32Z</time>
      </trkpt>
      <trkpt lat="48.00149" lon="-3.00471">
        <ele>46</ele>
        <time>2016-05-16T15:48:37Z</time>
      </trkpt>
      <trkpt lat="48.0016" lon="-3.00513">
        <ele>47</ele>
        <time>2016-05-16T15:48:42Z</time>
      </trkpt>
      <trkpt lat="48.00169" lon="-3.00558">
        <ele>47</ele>
        <time>2016-05-16T15:48:47Z</time>
      </trkpt>
      <trkpt lat="48.00172" lon="-3.00615">
        <ele>48</ele>
        <time>2016-05-16T15:48:53Z</time>
      </trkpt>
      <trkpt lat="48.00171" lon="-3.00654">
        <ele>48</ele>
        <time>2016-05-16T15:48:57Z</time>
      </trkpt>
      <trkpt lat="48.0017" lon="-3.00711">
        <ele>50</ele>
        <time>2016-05-16T15:49:03Z</time>
      </trkpt>
      <trkpt lat="48.00169" lon="-3.00747">
        <ele>50</ele>
        <time>2016-05-16T15:49:07Z</time>
      </trkpt>
      <trkpt lat="48.00167" lon="-3.00791">
        <ele>48</ele>
        <time>2016-05-16T15:49:12Z</time>
      </trkpt>
      <trkpt lat="48.00164" lon="-3.00855">
        <ele>47</ele>
        <time>2016-05-16T15:49:19Z</time>
      </trkpt>
      <trkpt lat="48.00157" lon="-3.00905">
        <ele>48</ele>
        <time>2016-05-16T15:49:25Z</time>
      </trkpt>
      <trkpt lat="48.00154" lon="-3.00922">
        <ele>49</ele>
        <time>2016-05-16T15:49:27Z</time>
      </trkpt>
      <trkpt lat="48.0014" lon="-3.00965">
        <ele>47</ele>
        <time>2016-05-16T15:49:32Z</time>
      </trkpt>
      <trkpt lat="48.00127" lon="-3.01001">
        <ele>48</ele>
        <time>2016-05-16T15:49:37Z</time>
      </trkpt>
      <trkpt lat="48.00105" lon="-3.01034">
        <ele>49</ele>
        <time>2016-05-16T15:49:42Z</time>
      </trkpt>
      <trkpt lat="48.0007" lon="-3.01081">
        <ele>51</ele>
        <time>2016-05-16T15:49:50Z</time>
      </trkpt>
      <trkpt lat="48.00053" lon="-3.01106">
        <ele>52</ele>
        <time>2016-05-16T15:49:54Z</time>
      </trkpt>
      <trkpt lat="48.0004" lon="-3.01122">
        <ele>53</ele>
        <time>2016-05-16T15:49:57Z</time>
      </trkpt>
      <trkpt lat="48.00018" lon="-3.01152">
        <ele>53</ele>
        <time>2016-05-16T15:50:02Z</time>
      </trkpt>
      <trkpt lat="47.99986" lon="-3.01183">
        <ele>51</ele>
        <time>2016-05-16T15:50:08Z</time>
      </trkpt>
      <trkpt lat="47.9997" lon="-3.01204">
        <ele>51</ele>
        <time>2016-05-16T15:50:12Z</time>
      </trkpt>
      <trkpt lat="47.99937" lon="-3.01235">
        <ele>52</ele>
        <time>2016-05-16T15:50:19Z</time>
      </trkpt>
      <trkpt lat="47.99923" lon="-3.0125">
        <ele>51</ele>
        <time>2016-05-16T15:50:22Z</time>
      </trkpt>
      <trkpt lat="47.99893" lon="-3.0128">
        <ele>50</ele>
        <time>2016-05-16T15:50:28Z</time>
      </trkpt>
      <trkpt lat="47.99859" lon="-3.01307">
        <ele>50</ele>
        <time>2016-05-16T15:50:34Z</time>
      </trkpt>
      <trkpt lat="47.99836" lon="-3.01333">
        <ele>50</ele>
        <time>2016-05-16T15:50:39Z</time>
      </trkpt>
      <trkpt lat="47.99808" lon="-3.01367">
        <ele>50</ele>
        <time>2016-05-16T15:50:45Z</time>
      </trkpt>
      <trkpt lat="47.99799" lon="-3.01378">
        <ele>49</ele>
        <time>2016-05-16T15:50:47Z</time>
      </trkpt>
      <trkpt lat="47.99776" lon="-3.01407">
        <ele>51</ele>
        <time>2016-05-16T15:50:52Z</time>
      </trkpt>
      <trkpt lat="47.99753" lon="-3.01434">
        <ele>52</ele>
        <time>2016-05-16T15:50:57Z</time>
      </trkpt>
      <trkpt lat="47.99731" lon="-3.01462">
        <ele>53</ele>
        <time>2016-05-16T15:51:02Z</time>
      </trkpt>
      <trkpt lat="47.99707" lon="-3.01489">
        <ele>52</ele>
        <time>2016-05-16T15:51:07Z</time>
      </trkpt>
      <trkpt lat="47.99677" lon="-3.01519">
        <ele>52</ele>
        <time>2016-05-16T15:51:13Z</time>
      </trkpt>
      <trkpt lat="47.99655" lon="-3.01534">
        <ele>53</ele>
        <time>2016-05-16T15:51:17Z</time>
      </trkpt>
      <trkpt lat="47.99612" lon="-3.01546">
        <ele>52</ele>
        <time>2016-05-16T15:51:24Z</time>
      </trkpt>
      <trkpt lat="47.9959" lon="-3.01555">
        <ele>54</ele>
        <time>2016-05-16T15:51:28Z</time>
      </trkpt>
      <trkpt lat="47.99555" lon="-3.01561">
        <ele>54</ele>
        <time>2016-05-16T15:51:34Z</time>
      </trkpt>
      <trkpt lat="47.99536" lon="-3.01561">
        <ele>55</ele>
        <time>2016-05-16T15:51:37Z</time>
      </trkpt>
      <trkpt lat="47.99506" lon="-3.01554">
        <ele>55</ele>
        <time>2016-05-16T15:51:42Z</time>
      </trkpt>
      <trkpt lat="47.99477" lon="-3.01541">
        <ele>54</ele>
        <time>2016-05-16T15:51:47Z</time>
      </trkpt>
      <trkpt lat="47.99448" lon="-3.01523">
        <ele>54</ele>
        <time>2016-05-16T15:51:52Z</time>
      </trkpt>
      <trkpt lat="47.99421" lon="-3.01503">
        <ele>55</ele>
        <time>2016-05-16T15:51:57Z</time>
      </trkpt>
      <trkpt lat="47.99394" lon="-3.01483">
        <ele>56</ele>
        <time>2016-05-16T15:52:02Z</time>
      </trkpt>
      <trkpt lat="47.99366" lon="-3.0146">
        <ele>57</ele>
        <time>2016-05-16T15:52:07Z</time>
      </trkpt>
      <trkpt lat="47.99321" lon="-3.01414">
        <ele>57</ele>
        <time>2016-05-16T15:52:16Z</time>
      </trkpt>
      <trkpt lat="47.99312" lon="-3.01403">
        <ele>56</ele>
        <time>2016-05-16T15:52:18Z</time>
      </trkpt>
      <trkpt lat="47.99289" lon="-3.01379">
        <ele>59</ele>
        <time>2016-05-16T15:52:23Z</time>
      </trkpt>
      <trkpt lat="47.9927" lon="-3.01356">
        <ele>57</ele>
        <time>2016-05-16T15:52:27Z</time>
      </trkpt>
      <trkpt lat="47.99245" lon="-3.01331">
        <ele>57</ele>
        <time>2016-05-16T15:52:32Z</time>
      </trkpt>
      <trkpt lat="47.99221" lon="-3.01302">
        <ele>58</ele>
        <time>2016-05-16T15:52:37Z</time>
      </trkpt>
      <trkpt lat="47.99184" lon="-3.01239">
        <ele>56</ele>
        <time>2016-05-16T15:52:46Z</time>
      </trkpt>
      <trkpt lat="47.9918" lon="-3.01232">
        <ele>56</ele>
        <time>2016-05-16T15:52:47Z</time>
      </trkpt>
      <trkpt lat="47.99156" lon="-3.01189">
        <ele>54</ele>
        <time>2016-05-16T15:52:53Z</time>
      </trkpt>
      <trkpt lat="47.99142" lon="-3.01164">
        <ele>54</ele>
        <time>2016-05-16T15:52:57Z</time>
      </trkpt>
      <trkpt lat="47.99123" lon="-3.01131">
        <ele>54</ele>
        <time>2016-05-16T15:53:02Z</time>
      </trkpt>
      <trkpt lat="47.99103" lon="-3.01089">
        <ele>54</ele>
        <time>2016-05-16T15:53:08Z</time>
      </trkpt>
      <trkpt lat="47.9908" lon="-3.0105">
        <ele>54</ele>
        <time>2016-05-16T15:53:14Z</time>
      </trkpt>
      <trkpt lat="47.99059" lon="-3.01016">
        <ele>54</ele>
        <time>2016-05-16T15:53:19Z</time>
      </trkpt>
      <trkpt lat="47.99047" lon="-3.00994">
        <ele>53</ele>
        <time>2016-05-16T15:53:22Z</time>
      </trkpt>
      <trkpt lat="47.99022" lon="-3.0095">
        <ele>52</ele>
        <time>2016-05-16T15:53:28Z</time>
      </trkpt>
      <trkpt lat="47.99006" lon="-3.00921">
        <ele>52</ele>
        <time>2016-05-16T15:53:32Z</time>
      </trkpt>
      <trkpt lat="47.98983" lon="-3.00889">
        <ele>51</ele>
        <time>2016-05-16T15:53:37Z</time>
      </trkpt>
      <trkpt lat="47.98949" lon="-3.00862">
        <ele>50</ele>
        <time>2016-05-16T15:53:43Z</time>
      </trkpt>
      <trkpt lat="47.98917" lon="-3.00852">
        <ele>51</ele>
        <time>2016-05-16T15:53:48Z</time>
      </trkpt>
      <trkpt lat="47.9889" lon="-3.00852">
        <ele>51</ele>
        <time>2016-05-16T15:53:52Z</time>
      </trkpt>
      <trkpt lat="47.98858" lon="-3.0086">
        <ele>51</ele>
        <time>2016-05-16T15:53:57Z</time>
      </trkpt>
      <trkpt lat="47.98824" lon="-3.00872">
        <ele>49</ele>
        <time>2016-05-16T15:54:03Z</time>
      </trkpt>
      <trkpt lat="47.98803" lon="-3.0088">
        <ele>49</ele>
        <time>2016-05-16T15:54:07Z</time>
      </trkpt>
      <trkpt lat="47.98764" lon="-3.00895">
        <ele>50</ele>
        <time>2016-05-16T15:54:14Z</time>
      </trkpt>
      <trkpt lat="47.98748" lon="-3.00903">
        <ele>50</ele>
        <time>2016-05-16T15:54:17Z</time>
      </trkpt>
      <trkpt lat="47.98713" lon="-3.00936">
        <ele>51</ele>
        <time>2016-05-16T15:54:24Z</time>
      </trkpt>
      <trkpt lat="47.98698" lon="-3.00949">
        <ele>51</ele>
        <time>2016-05-16T15:54:27Z</time>
      </trkpt>
      <trkpt lat="47.98672" lon="-3.00972">
        <ele>51</ele>
        <time>2016-05-16T15:54:32Z</time>
      </trkpt>
      <trkpt lat="47.98648" lon="-3.00997">
        <ele>51</ele>
        <time>2016-05-16T15:54:37Z</time>
      </trkpt>
      <trkpt lat="47.98608" lon="-3.01049">
        <ele>52</ele>
        <time>2016-05-16T15:54:46Z</time>
      </trkpt>
      <trkpt lat="47.98603" lon="-3.01053">
        <ele>52</ele>
        <time>2016-05-16T15:54:47Z</time>
      </trkpt>
      <trkpt lat="47.98576" lon="-3.01076">
        <ele>50</ele>
        <time>2016-05-16T15:54:52Z</time>
      </trkpt>
      <trkpt lat="47.98549" lon="-3.01097">
        <ele>49</ele>
        <time>2016-05-16T15:54:57Z</time>
      </trkpt>
      <trkpt lat="47.98512" lon="-3.0113">
        <ele>49</ele>
        <time>2016-05-16T15:55:04Z</time>
      </trkpt>
      <trkpt lat="47.98496" lon="-3.01145">
        <ele>49</ele>
        <time>2016-05-16T15:55:07Z</time>
      </trkpt>
      <trkpt lat="47.98472" lon="-3.01176">
        <ele>49</ele>
        <time>2016-05-16T15:55:12Z</time>
      </trkpt>
      <trkpt lat="47.9845" lon="-3.01204">
        <ele>49</ele>
        <time>2016-05-16T15:55:17Z</time>
      </trkpt>
      <trkpt lat="47.98432" lon="-3.0124">
        <ele>48</ele>
        <time>2016-05-16T15:55:22Z</time>
      </trkpt>
      <trkpt lat="47.98417" lon="-3.01278">
        <ele>49</ele>
        <time>2016-05-16T15:55:27Z</time>
      </trkpt>
      <trkpt lat="47.98408" lon="-3.01322">
        <ele>49</ele>
        <time>2016-05-16T15:55:32Z</time>
      </trkpt>
      <trkpt lat="47.98399" lon="-3.01394">
        <ele>49</ele>
        <time>2016-05-16T15:55:40Z</time>
      </trkpt>
      <trkpt lat="47.98396" lon="-3.01419">
        <ele>49</ele>
        <time>2016-05-16T15:55:43Z</time>
      </trkpt>
      <trkpt lat="47.98392" lon="-3.01453">
        <ele>49</ele>
        <time>2016-05-16T15:55:47Z</time>
      </trkpt>
      <trkpt lat="47.98384" lon="-3.01513">
        <ele>48</ele>
        <time>2016-05-16T15:55:54Z</time>
      </trkpt>
      <trkpt lat="47.98383" lon="-3.01539">
        <ele>48</ele>
        <time>2016-05-16T15:55:57Z</time>
      </trkpt>
      <trkpt lat="47.98397" lon="-3.01597">
        <ele>48</ele>
        <time>2016-05-16T15:56:04Z</time>
      </trkpt>
      <trkpt lat="47.98407" lon="-3.01638">
        <ele>49</ele>
        <time>2016-05-16T15:56:09Z</time>
      </trkpt>
      <trkpt lat="47.9841" lon="-3.01664">
        <ele>47</ele>
        <time>2016-05-16T15:56:12Z</time>
      </trkpt>
      <trkpt lat="47.98417" lon="-3.0171">
        <ele>48</ele>
        <time>2016-05-16T15:56:17Z</time>
      </trkpt>
      <trkpt lat="47.9843" lon="-3.0176">
        <ele>49</ele>
        <time>2016-05-16T15:56:23Z</time>
      </trkpt>
      <trkpt lat="47.98442" lon="-3.0179">
        <ele>48</ele>
        <time>2016-05-16T15:56:27Z</time>
      </trkpt>
      <trkpt lat="47.98463" lon="-3.01834">
        <ele>48</ele>
        <time>2016-05-16T15:56:33Z</time>
      </trkpt>
      <trkpt lat="47.98475" lon="-3.01864">
        <ele>48</ele>
        <time>2016-05-16T15:56:37Z</time>
      </trkpt>
      <trkpt lat="47.98488" lon="-3.01903">
        <ele>48</ele>
        <time>2016-05-16T15:56:42Z</time>
      </trkpt>
      <trkpt lat="47.98504" lon="-3.01961">
        <ele>49</ele>
        <time>2016-05-16T15:56:49Z</time>
      </trkpt>
      <trkpt lat="47.98513" lon="-3.01996">
        <ele>48</ele>
        <time>2016-05-16T15:56:53Z</time>
      </trkpt>
      <trkpt lat="47.98518" lon="-3.02031">
        <ele>48</ele>
        <time>2016-05-16T15:56:57Z</time>
      </trkpt>
      <trkpt lat="47.98523" lon="-3.02076">
        <ele>48</ele>
        <time>2016-05-16T15:57:02Z</time>
      </trkpt>
      <trkpt lat="47.98527" lon="-3.02117">
        <ele>48</ele>
        <time>2016-05-16T15:57:07Z</time>
      </trkpt>
      <trkpt lat="47.9853" lon="-3.02156">
        <ele>47</ele>
        <time>2016-05-16T15:57:12Z</time>
      </trkpt>
      <trkpt lat="47.98544" lon="-3.02211">
        <ele>48</ele>
        <time>2016-05-16T15:57:19Z</time>
      </trkpt>
      <trkpt lat="47.98553" lon="-3.02236">
        <ele>47</ele>
        <time>2016-05-16T15:57:22Z</time>
      </trkpt>
      <trkpt lat="47.98567" lon="-3.02273">
        <ele>47</ele>
        <time>2016-05-16T15:57:27Z</time>
      </trkpt>
      <trkpt lat="47.98587" lon="-3.02317">
        <ele>48</ele>
        <time>2016-05-16T15:57:33Z</time>
      </trkpt>
      <trkpt lat="47.98604" lon="-3.02359">
        <ele>48</ele>
        <time>2016-05-16T15:57:38Z</time>
      </trkpt>
      <trkpt lat="47.98616" lon="-3.02389">
        <ele>48</ele>
        <time>2016-05-16T15:57:42Z</time>
      </trkpt>
      <trkpt lat="47.98633" lon="-3.02424">
        <ele>47</ele>
        <time>2016-05-16T15:57:47Z</time>
      </trkpt>
      <trkpt lat="47.98649" lon="-3.02462">
        <ele>47</ele>
        <time>2016-05-16T15:57:52Z</time>
      </trkpt>
      <trkpt lat="47.98663" lon="-3.02501">
        <ele>46</ele>
        <time>2016-05-16T15:57:57Z</time>
      </trkpt>
      <trkpt lat="47.98689" lon="-3.02553">
        <ele>46</ele>
        <time>2016-05-16T15:58:04Z</time>
      </trkpt>
      <trkpt lat="47.987" lon="-3.02577">
        <ele>46</ele>
        <time>2016-05-16T15:58:07Z</time>
      </trkpt>
      <trkpt lat="47.98712" lon="-3.02619">
        <ele>45</ele>
        <time>2016-05-16T15:58:12Z</time>
      </trkpt>
      <trkpt lat="47.98722" lon="-3.02664">
        <ele>45</ele>
        <time>2016-05-16T15:58:17Z</time>
      </trkpt>
      <trkpt lat="47.98732" lon="-3.02715">
        <ele>46</ele>
        <time>2016-05-16T15:58:23Z</time>
      </trkpt>
      <trkpt lat="47.98739" lon="-3.02752">
        <ele>46</ele>
        <time>2016-05-16T15:58:27Z</time>
      </trkpt>
      <trkpt lat="47.98745" lon="-3.028">
        <ele>45</ele>
        <time>2016-05-16T15:58:32Z</time>
      </trkpt>
      <trkpt lat="47.98745" lon="-3.02858">
        <ele>44</ele>
        <time>2016-05-16T15:58:38Z</time>
      </trkpt>
      <trkpt lat="47.98739" lon="-3.02902">
        <ele>44</ele>
        <time>2016-05-16T15:58:43Z</time>
      </trkpt>
      <trkpt lat="47.98725" lon="-3.02934">
        <ele>44</ele>
        <time>2016-05-16T15:58:47Z</time>
      </trkpt>
      <trkpt lat="47.98706" lon="-3.02966">
        <ele>43</ele>
        <time>2016-05-16T15:58:52Z</time>
      </trkpt>
      <trkpt lat="47.98686" lon="-3.02997">
        <ele>43</ele>
        <time>2016-05-16T15:58:57Z</time>
      </trkpt>
      <trkpt lat="47.9867" lon="-3.03025">
        <ele>41</ele>
        <time>2016-05-16T15:59:02Z</time>
      </trkpt>
      <trkpt lat="47.9864" lon="-3.03072">
        <ele>42</ele>
        <time>2016-05-16T15:59:09Z</time>
      </trkpt>
      <trkpt lat="47.98625" lon="-3.03108">
        <ele>43</ele>
        <time>2016-05-16T15:59:14Z</time>
      </trkpt>
      <trkpt lat="47.9862" lon="-3.03132">
        <ele>44</ele>
        <time>2016-05-16T15:59:17Z</time>
      </trkpt>
      <trkpt lat="47.98618" lon="-3.03172">
        <ele>44</ele>
        <time>2016-05-16T15:59:22Z</time>
      </trkpt>
      <trkpt lat="47.98621" lon="-3.03218">
        <ele>42</ele>
        <time>2016-05-16T15:59:27Z</time>
      </trkpt>
      <trkpt lat="47.98622" lon="-3.03263">
        <ele>43</ele>
        <time>2016-05-16T15:59:32Z</time>
      </trkpt>
      <trkpt lat="47.98626" lon="-3.03308">
        <ele>43</ele>
        <time>2016-05-16T15:59:37Z</time>
      </trkpt>
      <trkpt lat="47.98628" lon="-3.03355">
        <ele>42</ele>
        <time>2016-05-16T15:59:42Z</time>
      </trkpt>
      <trkpt lat="47.98628" lon="-3.03399">
        <ele>42</ele>
        <time>2016-05-16T15:59:47Z</time>
      </trkpt>
      <trkpt lat="47.98632" lon="-3.03473">
        <ele>42</ele>
        <time>2016-05-16T15:59:55Z</time>
      </trkpt>
      <trkpt lat="47.98644" lon="-3.03527">
        <ele>44</ele>
        <time>2016-05-16T16:00:01Z</time>
      </trkpt>
      <trkpt lat="47.98646" lon="-3.03535">
        <ele>43</ele>
        <time>2016-05-16T16:00:02Z</time>
      </trkpt>
      <trkpt lat="47.9866" lon="-3.0357">
        <ele>44</ele>
        <time>2016-05-16T16:00:07Z</time>
      </trkpt>
      <trkpt lat="47.98679" lon="-3.03601">
        <ele>46</ele>
        <time>2016-05-16T16:00:13Z</time>
      </trkpt>
      <trkpt lat="47.98687" lon="-3.03632">
        <ele>46</ele>
        <time>2016-05-16T16:00:17Z</time>
      </trkpt>
      <trkpt lat="47.98686" lon="-3.037">
        <ele>45</ele>
        <time>2016-05-16T16:00:24Z</time>
      </trkpt>
      <trkpt lat="47.98682" lon="-3.03728">
        <ele>45</ele>
        <time>2016-05-16T16:00:27Z</time>
      </trkpt>
      <trkpt lat="47.98672" lon="-3.03783">
        <ele>45</ele>
        <time>2016-05-16T16:00:33Z</time>
      </trkpt>
      <trkpt lat="47.98666" lon="-3.03827">
        <ele>45</ele>
        <time>2016-05-16T16:00:38Z</time>
      </trkpt>
      <trkpt lat="47.98656" lon="-3.03898">
        <ele>44</ele>
        <time>2016-05-16T16:00:46Z</time>
      </trkpt>
      <trkpt lat="47.98654" lon="-3.03907">
        <ele>45</ele>
        <time>2016-05-16T16:00:47Z</time>
      </trkpt>
      <trkpt lat="47.98641" lon="-3.03951">
        <ele>43</ele>
        <time>2016-05-16T16:00:52Z</time>
      </trkpt>
      <trkpt lat="47.98623" lon="-3.03993">
        <ele>43</ele>
        <time>2016-05-16T16:00:57Z</time>
      </trkpt>
      <trkpt lat="47.98604" lon="-3.04032">
        <ele>43</ele>
        <time>2016-05-16T16:01:02Z</time>
      </trkpt>
      <trkpt lat="47.98565" lon="-3.0409">
        <ele>42</ele>
        <time>2016-05-16T16:01:11Z</time>
      </trkpt>
      <trkpt lat="47.9856" lon="-3.04094">
        <ele>42</ele>
        <time>2016-05-16T16:01:12Z</time>
      </trkpt>
      <trkpt lat="47.98532" lon="-3.04115">
        <ele>42</ele>
        <time>2016-05-16T16:01:17Z</time>
      </trkpt>
      <trkpt lat="47.98478" lon="-3.04146">
        <ele>42</ele>
        <time>2016-05-16T16:01:26Z</time>
      </trkpt>
      <trkpt lat="47.98473" lon="-3.04148">
        <ele>42</ele>
        <time>2016-05-16T16:01:27Z</time>
      </trkpt>
      <trkpt lat="47.98442" lon="-3.04162">
        <ele>42</ele>
        <time>2016-05-16T16:01:32Z</time>
      </trkpt>
      <trkpt lat="47.98412" lon="-3.04175">
        <ele>42</ele>
        <time>2016-05-16T16:01:37Z</time>
      </trkpt>
      <trkpt lat="47.98376" lon="-3.0419">
        <ele>42</ele>
        <time>2016-05-16T16:01:43Z</time>
      </trkpt>
      <trkpt lat="47.98349" lon="-3.04202">
        <ele>41</ele>
        <time>2016-05-16T16:01:48Z</time>
      </trkpt>
      <trkpt lat="47.98326" lon="-3.04208">
        <ele>43</ele>
        <time>2016-05-16T16:01:53Z</time>
      </trkpt>
      <trkpt lat="47.98309" lon="-3.04208">
        <ele>44</ele>
        <time>2016-05-16T16:01:57Z</time>
      </trkpt>
      <trkpt lat="47.98285" lon="-3.0421">
        <ele>45</ele>
        <time>2016-05-16T16:02:04Z</time>
      </trkpt>
      <trkpt lat="47.98277" lon="-3.0421">
        <ele>46</ele>
        <time>2016-05-16T16:02:07Z</time>
      </trkpt>
      <trkpt lat="47.98264" lon="-3.04208">
        <ele>44</ele>
        <time>2016-05-16T16:02:12Z</time>
      </trkpt>
      <trkpt lat="47.9825" lon="-3.04208">
        <ele>45</ele>
        <time>2016-05-16T16:02:17Z</time>
      </trkpt>
      <trkpt lat="47.98238" lon="-3.04207">
        <ele>45</ele>
        <time>2016-05-16T16:02:22Z</time>
      </trkpt>
      <trkpt lat="47.98226" lon="-3.04208">
        <ele>44</ele>
        <time>2016-05-16T16:02:27Z</time>
      </trkpt>
      <trkpt lat="47.98214" lon="-3.04211">
        <ele>44</ele>
        <time>2016-05-16T16:02:32Z</time>
      </trkpt>
      <trkpt lat="47.98202" lon="-3.04211">
        <ele>44</ele>
        <time>2016-05-16T16:02:37Z</time>
      </trkpt>
      <trkpt lat="47.9819" lon="-3.04212">
        <ele>44</ele>
        <time>2016-05-16T16:02:42Z</time>
      </trkpt>
      <trkpt lat="47.98176" lon="-3.04212">
        <ele>46</ele>
        <time>2016-05-16T16:02:48Z</time>
      </trkpt>
      <trkpt lat="47.98167" lon="-3.04211">
        <ele>46</ele>
        <time>2016-05-16T16:02:52Z</time>
      </trkpt>
      <trkpt lat="47.98153" lon="-3.04212">
        <ele>46</ele>
        <time>2016-05-16T16:02:57Z</time>
      </trkpt>
      <trkpt lat="47.98138" lon="-3.04212">
        <ele>47</ele>
        <time>2016-05-16T16:03:02Z</time>
      </trkpt>
      <trkpt lat="47.98122" lon="-3.04212">
        <ele>46</ele>
        <time>2016-05-16T16:03:07Z</time>
      </trkpt>
      <trkpt lat="47.98104" lon="-3.04212">
        <ele>47</ele>
        <time>2016-05-16T16:03:12Z</time>
      </trkpt>
      <trkpt lat="47.98085" lon="-3.0421">
        <ele>47</ele>
        <time>2016-05-16T16:03:17Z</time>
      </trkpt>
      <trkpt lat="47.98067" lon="-3.04205">
        <ele>47</ele>
        <time>2016-05-16T16:03:22Z</time>
      </trkpt>
      <trkpt lat="47.98049" lon="-3.04198">
        <ele>47</ele>
        <time>2016-05-16T16:03:27Z</time>
      </trkpt>
      <trkpt lat="47.98029" lon="-3.04189">
        <ele>48</ele>
        <time>2016-05-16T16:03:32Z</time>
      </trkpt>
      <trkpt lat="47.98008" lon="-3.04178">
        <ele>47</ele>
        <time>2016-05-16T16:03:37Z</time>
      </trkpt>
      <trkpt lat="47.97989" lon="-3.04168">
        <ele>48</ele>
        <time>2016-05-16T16:03:42Z</time>
      </trkpt>
      <trkpt lat="47.97971" lon="-3.04158">
        <ele>48</ele>
        <time>2016-05-16T16:03:47Z</time>
      </trkpt>
      <trkpt lat="47.97954" lon="-3.0415">
        <ele>47</ele>
        <time>2016-05-16T16:03:52Z</time>
      </trkpt>
      <trkpt lat="47.97938" lon="-3.04141">
        <ele>47</ele>
        <time>2016-05-16T16:03:57Z</time>
      </trkpt>
      <trkpt lat="47.97925" lon="-3.04134">
        <ele>46</ele>
        <time>2016-05-16T16:04:02Z</time>
      </trkpt>
      <trkpt lat="47.9791" lon="-3.04126">
        <ele>46</ele>
        <time>2016-05-16T16:04:07Z</time>
      </trkpt>
      <trkpt lat="47.97892" lon="-3.04117">
        <ele>45</ele>
        <time>2016-05-16T16:04:12Z</time>
      </trkpt>
      <trkpt lat="47.97869" lon="-3.04105">
        <ele>45</ele>
        <time>2016-05-16T16:04:18Z</time>
      </trkpt>
      <trkpt lat="47.97854" lon="-3.04097">
        <ele>46</ele>
        <time>2016-05-16T16:04:22Z</time>
      </trkpt>
      <trkpt lat="47.97835" lon="-3.04088">
        <ele>45</ele>
        <time>2016-05-16T16:04:27Z</time>
      </trkpt>
      <trkpt lat="47.97817" lon="-3.04078">
        <ele>46</ele>
        <time>2016-05-16T16:04:32Z</time>
      </trkpt>
      <trkpt lat="47.97801" lon="-3.0407">
        <ele>47</ele>
        <time>2016-05-16T16:04:37Z</time>
      </trkpt>
      <trkpt lat="47.97786" lon="-3.04062">
        <ele>48</ele>
        <time>2016-05-16T16:04:42Z</time>
      </trkpt>
      <trkpt lat="47.97777" lon="-3.04077">
        <ele>48</ele>
        <time>2016-05-16T16:04:47Z</time>
      </trkpt>
      <trkpt lat="47.9777" lon="-3.04112">
        <ele>49</ele>
        <time>2016-05-16T16:04:54Z</time>
      </trkpt>
      <trkpt lat="47.97764" lon="-3.04124">
        <ele>48</ele>
        <time>2016-05-16T16:04:57Z</time>
      </trkpt>
      <trkpt lat="47.97747" lon="-3.04133">
        <ele>49</ele>
        <time>2016-05-16T16:05:02Z</time>
      </trkpt>
      <trkpt lat="47.97729" lon="-3.04132">
        <ele>50</ele>
        <time>2016-05-16T16:05:07Z</time>
      </trkpt>
      <trkpt lat="47.97712" lon="-3.0413">
        <ele>50</ele>
        <time>2016-05-16T16:05:12Z</time>
      </trkpt>
      <trkpt lat="47.97695" lon="-3.04124">
        <ele>51</ele>
        <time>2016-05-16T16:05:17Z</time>
      </trkpt>
      <trkpt lat="47.97678" lon="-3.04115">
        <ele>51</ele>
        <time>2016-05-16T16:05:22Z</time>
      </trkpt>
      <trkpt lat="47.97661" lon="-3.04105">
        <ele>55</ele>
        <time>2016-05-16T16:05:27Z</time>
      </trkpt>
      <trkpt lat="47.97646" lon="-3.04095">
        <ele>55</ele>
        <time>2016-05-16T16:05:32Z</time>
      </trkpt>
      <trkpt lat="47.9763" lon="-3.04088">
        <ele>56</ele>
        <time>2016-05-16T16:05:37Z</time>
      </trkpt>
      <trkpt lat="47.97613" lon="-3.04079">
        <ele>57</ele>
        <time>2016-05-16T16:05:42Z</time>
      </trkpt>
      <trkpt lat="47.97594" lon="-3.04069">
        <ele>57</ele>
        <time>2016-05-16T16:05:47Z</time>
      </trkpt>
      <trkpt lat="47.97576" lon="-3.0406">
        <ele>60</ele>
        <time>2016-05-16T16:05:52Z</time>
      </trkpt>
      <trkpt lat="47.97557" lon="-3.0405">
        <ele>63</ele>
        <time>2016-05-16T16:05:58Z</time>
      </trkpt>
      <trkpt lat="47.97541" lon="-3.04042">
        <ele>68</ele>
        <time>2016-05-16T16:06:05Z</time>
      </trkpt>
      <trkpt lat="47.97536" lon="-3.04038">
        <ele>68</ele>
        <time>2016-05-16T16:06:07Z</time>
      </trkpt>
      <trkpt lat="47.97512" lon="-3.04021">
        <ele>69</ele>
        <time>2016-05-16T16:06:14Z</time>
      </trkpt>
      <trkpt lat="47.97501" lon="-3.04017">
        <ele>68</ele>
        <time>2016-05-16T16:06:17Z</time>
      </trkpt>
      <trkpt lat="47.97478" lon="-3.04011">
        <ele>68</ele>
        <time>2016-05-16T16:06:23Z</time>
      </trkpt>
      <trkpt lat="47.97463" lon="-3.04007">
        <ele>71</ele>
        <time>2016-05-16T16:06:27Z</time>
      </trkpt>
      <trkpt lat="47.97446" lon="-3.04005">
        <ele>71</ele>
        <time>2016-05-16T16:06:32Z</time>
      </trkpt>
      <trkpt lat="47.9743" lon="-3.04">
        <ele>73</ele>
        <time>2016-05-16T16:06:37Z</time>
      </trkpt>
      <trkpt lat="47.97414" lon="-3.04001">
        <ele>74</ele>
        <time>2016-05-16T16:06:42Z</time>
      </trkpt>
      <trkpt lat="47.97397" lon="-3.04005">
        <ele>76</ele>
        <time>2016-05-16T16:06:47Z</time>
      </trkpt>
      <trkpt lat="47.97378" lon="-3.04015">
        <ele>76</ele>
        <time>2016-05-16T16:06:52Z</time>
      </trkpt>
      <trkpt lat="47.97355" lon="-3.0405">
        <ele>74</ele>
        <time>2016-05-16T16:07:01Z</time>
      </trkpt>
      <trkpt lat="47.97348" lon="-3.04073">
        <ele>77</ele>
        <time>2016-05-16T16:07:06Z</time>
      </trkpt>
      <trkpt lat="47.97346" lon="-3.04097">
        <ele>77</ele>
        <time>2016-05-16T16:07:11Z</time>
      </trkpt>
      <trkpt lat="47.97347" lon="-3.04104">
        <ele>77</ele>
        <time>2016-05-16T16:07:12Z</time>
      </trkpt>
      <trkpt lat="47.97355" lon="-3.04134">
        <ele>75</ele>
        <time>2016-05-16T16:07:17Z</time>
      </trkpt>
      <trkpt lat="47.97374" lon="-3.04176">
        <ele>79</ele>
        <time>2016-05-16T16:07:26Z</time>
      </trkpt>
      <trkpt lat="47.97384" lon="-3.04197">
        <ele>81</ele>
        <time>2016-05-16T16:07:31Z</time>
      </trkpt>
      <trkpt lat="47.97388" lon="-3.04205">
        <ele>81</ele>
        <time>2016-05-16T16:07:33Z</time>
      </trkpt>
      <trkpt lat="47.97401" lon="-3.0423">
        <ele>81</ele>
        <time>2016-05-16T16:07:39Z</time>
      </trkpt>
      <trkpt lat="47.97409" lon="-3.0424">
        <ele>82</ele>
        <time>2016-05-16T16:07:42Z</time>
      </trkpt>
      <trkpt lat="47.97424" lon="-3.04253">
        <ele>83</ele>
        <time>2016-05-16T16:07:47Z</time>
      </trkpt>
      <trkpt lat="47.97441" lon="-3.04253">
        <ele>84</ele>
        <time>2016-05-16T16:07:52Z</time>
      </trkpt>
      <trkpt lat="47.97456" lon="-3.04239">
        <ele>88</ele>
        <time>2016-05-16T16:07:57Z</time>
      </trkpt>
      <trkpt lat="47.97471" lon="-3.04229">
        <ele>91</ele>
        <time>2016-05-16T16:08:02Z</time>
      </trkpt>
      <trkpt lat="47.97488" lon="-3.04219">
        <ele>93</ele>
        <time>2016-05-16T16:08:07Z</time>
      </trkpt>
      <trkpt lat="47.97521" lon="-3.04194">
        <ele>93</ele>
        <time>2016-05-16T16:08:16Z</time>
      </trkpt>
      <trkpt lat="47.97525" lon="-3.04192">
        <ele>93</ele>
        <time>2016-05-16T16:08:17Z</time>
      </trkpt>
      <trkpt lat="47.97546" lon="-3.04182">
        <ele>92</ele>
        <time>2016-05-16T16:08:22Z</time>
      </trkpt>
      <trkpt lat="47.97567" lon="-3.04174">
        <ele>92</ele>
        <time>2016-05-16T16:08:27Z</time>
      </trkpt>
      <trkpt lat="47.97597" lon="-3.0417">
        <ele>93</ele>
        <time>2016-05-16T16:08:35Z</time>
      </trkpt>
      <trkpt lat="47.97615" lon="-3.04169">
        <ele>94</ele>
        <time>2016-05-16T16:08:40Z</time>
      </trkpt>
      <trkpt lat="47.97622" lon="-3.04169">
        <ele>93</ele>
        <time>2016-05-16T16:08:42Z</time>
      </trkpt>
      <trkpt lat="47.9764" lon="-3.04175">
        <ele>93</ele>
        <time>2016-05-16T16:08:47Z</time>
      </trkpt>
      <trkpt lat="47.97663" lon="-3.04183">
        <ele>93</ele>
        <time>2016-05-16T16:08:53Z</time>
      </trkpt>
      <trkpt lat="47.9768" lon="-3.04188">
        <ele>94</ele>
        <time>2016-05-16T16:08:57Z</time>
      </trkpt>
      <trkpt lat="47.9771" lon="-3.04199">
        <ele>92</ele>
        <time>2016-05-16T16:09:04Z</time>
      </trkpt>
      <trkpt lat="47.97722" lon="-3.04203">
        <ele>92</ele>
        <time>2016-05-16T16:09:07Z</time>
      </trkpt>
      <trkpt lat="47.97743" lon="-3.0421">
        <ele>90</ele>
        <time>2016-05-16T16:09:12Z</time>
      </trkpt>
      <trkpt lat="47.97768" lon="-3.0422">
        <ele>89</ele>
        <time>2016-05-16T16:09:18Z</time>
      </trkpt>
      <trkpt lat="47.97794" lon="-3.04229">
        <ele>87</ele>
        <time>2016-05-16T16:09:24Z</time>
      </trkpt>
      <trkpt lat="47.97808" lon="-3.04234">
        <ele>86</ele>
        <time>2016-05-16T16:09:27Z</time>
      </trkpt>
      <trkpt lat="47.97834" lon="-3.04244">
        <ele>87</ele>
        <time>2016-05-16T16:09:33Z</time>
      </trkpt>
      <trkpt lat="47.97866" lon="-3.04258">
        <ele>86</ele>
        <time>2016-05-16T16:09:41Z</time>
      </trkpt>
      <trkpt lat="47.97869" lon="-3.04259">
        <ele>86</ele>
        <time>2016-05-16T16:09:42Z</time>
      </trkpt>
      <trkpt lat="47.97889" lon="-3.04271">
        <ele>87</ele>
        <time>2016-05-16T16:09:47Z</time>
      </trkpt>
      <trkpt lat="47.97921" lon="-3.04295">
        <ele>86</ele>
        <time>2016-05-16T16:09:55Z</time>
      </trkpt>
      <trkpt lat="47.97929" lon="-3.04301">
        <ele>85</ele>
        <time>2016-05-16T16:09:57Z</time>
      </trkpt>
      <trkpt lat="47.97952" lon="-3.04319">
        <ele>86</ele>
        <time>2016-05-16T16:10:03Z</time>
      </trkpt>
      <trkpt lat="47.97967" lon="-3.0433">
        <ele>86</ele>
        <time>2016-05-16T16:10:07Z</time>
      </trkpt>
      <trkpt lat="47.97986" lon="-3.04341">
        <ele>87</ele>
        <time>2016-05-16T16:10:12Z</time>
      </trkpt>
      <trkpt lat="47.98006" lon="-3.04357">
        <ele>87</ele>
        <time>2016-05-16T16:10:18Z</time>
      </trkpt>
      <trkpt lat="47.98026" lon="-3.04373">
        <ele>90</ele>
        <time>2016-05-16T16:10:24Z</time>
      </trkpt>
      <trkpt lat="47.98039" lon="-3.04383">
        <ele>88</ele>
        <time>2016-05-16T16:10:28Z</time>
      </trkpt>
      <trkpt lat="47.98054" lon="-3.04393">
        <ele>89</ele>
        <time>2016-05-16T16:10:32Z</time>
      </trkpt>
      <trkpt lat="47.98072" lon="-3.04406">
        <ele>91</ele>
        <time>2016-05-16T16:10:37Z</time>
      </trkpt>
      <trkpt lat="47.98103" lon="-3.04431">
        <ele>92</ele>
        <time>2016-05-16T16:10:46Z</time>
      </trkpt>
      <trkpt lat="47.98107" lon="-3.04434">
        <ele>92</ele>
        <time>2016-05-16T16:10:47Z</time>
      </trkpt>
      <trkpt lat="47.98126" lon="-3.0445">
        <ele>93</ele>
        <time>2016-05-16T16:10:53Z</time>
      </trkpt>
      <trkpt lat="47.98139" lon="-3.04461">
        <ele>94</ele>
        <time>2016-05-16T16:10:57Z</time>
      </trkpt>
      <trkpt lat="47.98155" lon="-3.04474">
        <ele>95</ele>
        <time>2016-05-16T16:11:02Z</time>
      </trkpt>
      <trkpt lat="47.98171" lon="-3.0449">
        <ele>96</ele>
        <time>2016-05-16T16:11:07Z</time>
      </trkpt>
      <trkpt lat="47.98188" lon="-3.04506">
        <ele>96</ele>
        <time>2016-05-16T16:11:12Z</time>
      </trkpt>
      <trkpt lat="47.98204" lon="-3.04522">
        <ele>97</ele>
        <time>2016-05-16T16:11:17Z</time>
      </trkpt>
      <trkpt lat="47.9822" lon="-3.04538">
        <ele>97</ele>
        <time>2016-05-16T16:11:22Z</time>
      </trkpt>
      <trkpt lat="47.98238" lon="-3.04557">
        <ele>100</ele>
        <time>2016-05-16T16:11:28Z</time>
      </trkpt>
      <trkpt lat="47.98248" lon="-3.04568">
        <ele>100</ele>
        <time>2016-05-16T16:11:32Z</time>
      </trkpt>
      <trkpt lat="47.98262" lon="-3.04583">
        <ele>101</ele>
        <time>2016-05-16T16:11:37Z</time>
      </trkpt>
      <trkpt lat="47.98275" lon="-3.04598">
        <ele>101</ele>
        <time>2016-05-16T16:11:42Z</time>
      </trkpt>
      <trkpt lat="47.98289" lon="-3.04613">
        <ele>101</ele>
        <time>2016-05-16T16:11:47Z</time>
      </trkpt>
      <trkpt lat="47.98302" lon="-3.04628">
        <ele>102</ele>
        <time>2016-05-16T16:11:52Z</time>
      </trkpt>
      <trkpt lat="47.98322" lon="-3.04653">
        <ele>104</ele>
        <time>2016-05-16T16:12:00Z</time>
      </trkpt>
      <trkpt lat="47.98328" lon="-3.0466">
        <ele>104</ele>
        <time>2016-05-16T16:12:02Z</time>
      </trkpt>
      <trkpt lat="47.98348" lon="-3.04689">
        <ele>106</ele>
        <time>2016-05-16T16:12:10Z</time>
      </trkpt>
      <trkpt lat="47.98355" lon="-3.04698">
        <ele>107</ele>
        <time>2016-05-16T16:12:13Z</time>
      </trkpt>
      <trkpt lat="47.98365" lon="-3.04712">
        <ele>107</ele>
        <time>2016-05-16T16:12:17Z</time>
      </trkpt>
      <trkpt lat="47.98377" lon="-3.0473">
        <ele>107</ele>
        <time>2016-05-16T16:12:22Z</time>
      </trkpt>
      <trkpt lat="47.98389" lon="-3.0475">
        <ele>107</ele>
        <time>2016-05-16T16:12:27Z</time>
      </trkpt>
      <trkpt lat="47.98402" lon="-3.0477">
        <ele>108</ele>
        <time>2016-05-16T16:12:32Z</time>
      </trkpt>
      <trkpt lat="47.98417" lon="-3.0479">
        <ele>109</ele>
        <time>2016-05-16T16:12:37Z</time>
      </trkpt>
      <trkpt lat="47.9843" lon="-3.04819">
        <ele>109</ele>
        <time>2016-05-16T16:12:43Z</time>
      </trkpt>
      <trkpt lat="47.98437" lon="-3.04839">
        <ele>110</ele>
        <time>2016-05-16T16:12:47Z</time>
      </trkpt>
      <trkpt lat="47.98448" lon="-3.04864">
        <ele>110</ele>
        <time>2016-05-16T16:12:52Z</time>
      </trkpt>
      <trkpt lat="47.98459" lon="-3.04889">
        <ele>111</ele>
        <time>2016-05-16T16:12:57Z</time>
      </trkpt>
      <trkpt lat="47.98468" lon="-3.04917">
        <ele>111</ele>
        <time>2016-05-16T16:13:02Z</time>
      </trkpt>
      <trkpt lat="47.98476" lon="-3.04945">
        <ele>111</ele>
        <time>2016-05-16T16:13:07Z</time>
      </trkpt>
      <trkpt lat="47.98484" lon="-3.04977">
        <ele>110</ele>
        <time>2016-05-16T16:13:12Z</time>
      </trkpt>
      <trkpt lat="47.9849" lon="-3.05011">
        <ele>111</ele>
        <time>2016-05-16T16:13:17Z</time>
      </trkpt>
      <trkpt lat="47.98495" lon="-3.05044">
        <ele>110</ele>
        <time>2016-05-16T16:13:22Z</time>
      </trkpt>
      <trkpt lat="47.98498" lon="-3.05085">
        <ele>110</ele>
        <time>2016-05-16T16:13:28Z</time>
      </trkpt>
      <trkpt lat="47.98497" lon="-3.0511">
        <ele>110</ele>
        <time>2016-05-16T16:13:32Z</time>
      </trkpt>
      <trkpt lat="47.98496" lon="-3.05142">
        <ele>111</ele>
        <time>2016-05-16T16:13:37Z</time>
      </trkpt>
      <trkpt lat="47.98495" lon="-3.05174">
        <ele>111</ele>
        <time>2016-05-16T16:13:42Z</time>
      </trkpt>
      <trkpt lat="47.98493" lon="-3.05207">
        <ele>112</ele>
        <time>2016-05-16T16:13:47Z</time>
      </trkpt>
      <trkpt lat="47.98493" lon="-3.05239">
        <ele>114</ele>
        <time>2016-05-16T16:13:52Z</time>
      </trkpt>
      <trkpt lat="47.98492" lon="-3.0527">
        <ele>116</ele>
        <time>2016-05-16T16:13:57Z</time>
      </trkpt>
      <trkpt lat="47.98493" lon="-3.05295">
        <ele>118</ele>
        <time>2016-05-16T16:14:02Z</time>
      </trkpt>
      <trkpt lat="47.98495" lon="-3.05323">
        <ele>118</ele>
        <time>2016-05-16T16:14:07Z</time>
      </trkpt>
      <trkpt lat="47.98496" lon="-3.05349">
        <ele>120</ele>
        <time>2016-05-16T16:14:12Z</time>
      </trkpt>
      <trkpt lat="47.98498" lon="-3.05371">
        <ele>124</ele>
        <time>2016-05-16T16:14:17Z</time>
      </trkpt>
      <trkpt lat="47.98501" lon="-3.05407">
        <ele>124</ele>
        <time>2016-05-16T16:14:22Z</time>
      </trkpt>
      <trkpt lat="47.98505" lon="-3.0548">
        <ele>122</ele>
        <time>2016-05-16T16:14:31Z</time>
      </trkpt>
      <trkpt lat="47.98507" lon="-3.05502">
        <ele>121</ele>
        <time>2016-05-16T16:14:34Z</time>
      </trkpt>
      <trkpt lat="47.9851" lon="-3.05541">
        <ele>121</ele>
        <time>2016-05-16T16:14:40Z</time>
      </trkpt>
      <trkpt lat="47.98516" lon="-3.05588">
        <ele>119</ele>
        <time>2016-05-16T16:14:46Z</time>
      </trkpt>
      <trkpt lat="47.98521" lon="-3.05615">
        <ele>119</ele>
        <time>2016-05-16T16:14:49Z</time>
      </trkpt>
      <trkpt lat="47.98528" lon="-3.05654">
        <ele>118</ele>
        <time>2016-05-16T16:14:53Z</time>
      </trkpt>
      <trkpt lat="47.98541" lon="-3.05705">
        <ele>116</ele>
        <time>2016-05-16T16:14:58Z</time>
      </trkpt>
      <trkpt lat="47.98552" lon="-3.05748">
        <ele>116</ele>
        <time>2016-05-16T16:15:02Z</time>
      </trkpt>
      <trkpt lat="47.98563" lon="-3.05813">
        <ele>115</ele>
        <time>2016-05-16T16:15:08Z</time>
      </trkpt>
      <trkpt lat="47.98567" lon="-3.05861">
        <ele>115</ele>
        <time>2016-05-16T16:15:12Z</time>
      </trkpt>
      <trkpt lat="47.98571" lon="-3.0593">
        <ele>113</ele>
        <time>2016-05-16T16:15:18Z</time>
      </trkpt>
      <trkpt lat="47.98574" lon="-3.05972">
        <ele>112</ele>
        <time>2016-05-16T16:15:22Z</time>
      </trkpt>
      <trkpt lat="47.98577" lon="-3.06033">
        <ele>112</ele>
        <time>2016-05-16T16:15:28Z</time>
      </trkpt>
      <trkpt lat="47.9858" lon="-3.06072">
        <ele>112</ele>
        <time>2016-05-16T16:15:32Z</time>
      </trkpt>
      <trkpt lat="47.98582" lon="-3.06118">
        <ele>112</ele>
        <time>2016-05-16T16:15:37Z</time>
      </trkpt>
      <trkpt lat="47.98589" lon="-3.06151">
        <ele>111</ele>
        <time>2016-05-16T16:15:42Z</time>
      </trkpt>
      <trkpt lat="47.9859" lon="-3.06192">
        <ele>112</ele>
        <time>2016-05-16T16:15:48Z</time>
      </trkpt>
      <trkpt lat="47.98587" lon="-3.06223">
        <ele>113</ele>
        <time>2016-05-16T16:15:52Z</time>
      </trkpt>
      <trkpt lat="47.98586" lon="-3.06265">
        <ele>113</ele>
        <time>2016-05-16T16:15:57Z</time>
      </trkpt>
      <trkpt lat="47.98575" lon="-3.06302">
        <ele>112</ele>
        <time>2016-05-16T16:16:02Z</time>
      </trkpt>
      <trkpt lat="47.98524" lon="-3.06328">
        <ele>110</ele>
        <time>2016-05-16T16:16:10Z</time>
      </trkpt>
      <trkpt lat="47.98509" lon="-3.06333">
        <ele>108</ele>
        <time>2016-05-16T16:16:12Z</time>
      </trkpt>
      <trkpt lat="47.98442" lon="-3.06359">
        <ele>106</ele>
        <time>2016-05-16T16:16:21Z</time>
      </trkpt>
      <trkpt lat="47.98436" lon="-3.06361">
        <ele>106</ele>
        <time>2016-05-16T16:16:22Z</time>
      </trkpt>
      <trkpt lat="47.98401" lon="-3.06372">
        <ele>105</ele>
        <time>2016-05-16T16:16:31Z</time>
      </trkpt>
      <trkpt lat="47.98399" lon="-3.06368">
        <ele>104</ele>
        <time>2016-05-16T16:16:32Z</time>
      </trkpt>
      <trkpt lat="47.98398" lon="-3.0634">
        <ele>104</ele>
        <time>2016-05-16T16:16:37Z</time>
      </trkpt>
      <trkpt lat="47.98396" lon="-3.06309">
        <ele>103</ele>
        <time>2016-05-16T16:16:42Z</time>
      </trkpt>
      <trkpt lat="47.98393" lon="-3.06253">
        <ele>102</ele>
        <time>2016-05-16T16:16:50Z</time>
      </trkpt>
      <trkpt lat="47.98391" lon="-3.06242">
        <ele>100</ele>
        <time>2016-05-16T16:16:52Z</time>
      </trkpt>
      <trkpt lat="47.98373" lon="-3.06238">
        <ele>99</ele>
        <time>2016-05-16T16:16:57Z</time>
      </trkpt>
      <trkpt lat="47.98351" lon="-3.06248">
        <ele>99</ele>
        <time>2016-05-16T16:17:02Z</time>
      </trkpt>
      <trkpt lat="47.98324" lon="-3.06264">
        <ele>98</ele>
        <time>2016-05-16T16:17:09Z</time>
      </trkpt>
      <trkpt lat="47.98315" lon="-3.06268">
        <ele>98</ele>
        <time>2016-05-16T16:17:12Z</time>
      </trkpt>
      <trkpt lat="47.98299" lon="-3.06277">
        <ele>98</ele>
        <time>2016-05-16T16:17:17Z</time>
      </trkpt>
      <trkpt lat="47.98294" lon="-3.06281">
        <ele>97</ele>
        <time>2016-05-16T16:17:23Z</time>
      </trkpt>
      <trkpt lat="47.98294" lon="-3.06281">
        <ele>98</ele>
        <time>2016-05-16T16:17:27Z</time>
      </trkpt>
      <trkpt lat="47.98294" lon="-3.06281">
        <ele>98</ele>
        <time>2016-05-16T16:17:32Z</time>
      </trkpt>
      <trkpt lat="47.98294" lon="-3.06281">
        <ele>98</ele>
        <time>2016-05-16T16:17:37Z</time>
      </trkpt>
      <trkpt lat="47.98294" lon="-3.06281">
        <ele>98</ele>
        <time>2016-05-16T16:17:42Z</time>
      </trkpt>
    </trkseg>
  </trk>
</gpx>